<?xml version="1.0" encoding="UTF-8"?>
<gpx version="1.1" creator="https://www.youtrack.es" xsi:schemaLocation="http://www.topografix.com/GPX/1/1 http://www.topografix.com/GPX/1/1/gpx.xsd http://www.garmin.com/xmlschemas/GpxExtensions/v3 http://www.garmin.com/xmlschemas/GpxExtensionsv3.xsd http://www.garmin.com/xmlschemas/TrackPointExtension/v1 http://www.garmin.com/xmlschemas/TrackPointExtensionv1.xsd" xmlns:gpxtpx="http://www.garmin.com/xmlschemas/TrackPointExtension/v1" xmlns:gpxx="http://www.garmin.com/xmlschemas/GpxExtensions/v3" xmlns:xsi="http://www.w3.org/2001/XMLSchema-instance">
  <metadata>
    <link href="https://www.youtrack.es">
      <text>YouTrack.es</text>
    </link>
    <time>2026-05-09T15:28:05Z</time>
  </metadata>
  <trk>
    <src>https://www.youtrack.es</src>
    <link href="https://www.youtrack.es/ruta/29794-casa-de-campo">
      <text>YouTrack.es</text>
    </link>
    <trkseg>
      <trkpt lat="40.428123" lon="-3.7725005">
        <ele>645.138</ele>
        <time>2022-02-27T11:15:19Z</time>
      </trkpt>
      <trkpt lat="40.428165" lon="-3.7723336">
        <ele>642.168</ele>
        <time>2022-02-27T11:16:20Z</time>
      </trkpt>
      <trkpt lat="40.4282" lon="-3.7722356">
        <ele>645.404</ele>
        <time>2022-02-27T11:16:25Z</time>
      </trkpt>
      <trkpt lat="40.428234" lon="-3.7721522">
        <ele>644.654</ele>
        <time>2022-02-27T11:16:30Z</time>
      </trkpt>
      <trkpt lat="40.428265" lon="-3.7720578">
        <ele>645.502</ele>
        <time>2022-02-27T11:16:35Z</time>
      </trkpt>
      <trkpt lat="40.428303" lon="-3.7719674">
        <ele>645.571</ele>
        <time>2022-02-27T11:16:40Z</time>
      </trkpt>
      <trkpt lat="40.428337" lon="-3.771902">
        <ele>645.148</ele>
        <time>2022-02-27T11:16:45Z</time>
      </trkpt>
      <trkpt lat="40.428383" lon="-3.77185">
        <ele>645.798</ele>
        <time>2022-02-27T11:16:50Z</time>
      </trkpt>
      <trkpt lat="40.42844" lon="-3.7717712">
        <ele>646.356</ele>
        <time>2022-02-27T11:16:55Z</time>
      </trkpt>
      <trkpt lat="40.428493" lon="-3.7717028">
        <ele>646.409</ele>
        <time>2022-02-27T11:17:00Z</time>
      </trkpt>
      <trkpt lat="40.428543" lon="-3.771622">
        <ele>645.608</ele>
        <time>2022-02-27T11:17:05Z</time>
      </trkpt>
      <trkpt lat="40.428585" lon="-3.7715502">
        <ele>649.643</ele>
        <time>2022-02-27T11:17:10Z</time>
      </trkpt>
      <trkpt lat="40.428665" lon="-3.7714293">
        <ele>641.682</ele>
        <time>2022-02-27T11:17:25Z</time>
      </trkpt>
      <trkpt lat="40.428707" lon="-3.7713768">
        <ele>641.29</ele>
        <time>2022-02-27T11:17:30Z</time>
      </trkpt>
      <trkpt lat="40.42876" lon="-3.7712946">
        <ele>643.198</ele>
        <time>2022-02-27T11:17:35Z</time>
      </trkpt>
      <trkpt lat="40.428802" lon="-3.7712107">
        <ele>644.947</ele>
        <time>2022-02-27T11:17:40Z</time>
      </trkpt>
      <trkpt lat="40.42886" lon="-3.771144">
        <ele>646.324</ele>
        <time>2022-02-27T11:17:45Z</time>
      </trkpt>
      <trkpt lat="40.428913" lon="-3.7710679">
        <ele>646.475</ele>
        <time>2022-02-27T11:17:50Z</time>
      </trkpt>
      <trkpt lat="40.42897" lon="-3.7710147">
        <ele>647.455</ele>
        <time>2022-02-27T11:17:55Z</time>
      </trkpt>
      <trkpt lat="40.42904" lon="-3.7709813">
        <ele>648.145</ele>
        <time>2022-02-27T11:18:00Z</time>
      </trkpt>
      <trkpt lat="40.429108" lon="-3.7709272">
        <ele>647.624</ele>
        <time>2022-02-27T11:18:05Z</time>
      </trkpt>
      <trkpt lat="40.429184" lon="-3.7708793">
        <ele>647.785</ele>
        <time>2022-02-27T11:18:10Z</time>
      </trkpt>
      <trkpt lat="40.429245" lon="-3.7708256">
        <ele>646.895</ele>
        <time>2022-02-27T11:18:15Z</time>
      </trkpt>
      <trkpt lat="40.429306" lon="-3.7707644">
        <ele>645.846</ele>
        <time>2022-02-27T11:18:20Z</time>
      </trkpt>
      <trkpt lat="40.429344" lon="-3.7706983">
        <ele>646.493</ele>
        <time>2022-02-27T11:18:25Z</time>
      </trkpt>
      <trkpt lat="40.4294" lon="-3.7706292">
        <ele>645.809</ele>
        <time>2022-02-27T11:18:30Z</time>
      </trkpt>
      <trkpt lat="40.429466" lon="-3.7705872">
        <ele>644.205</ele>
        <time>2022-02-27T11:18:35Z</time>
      </trkpt>
      <trkpt lat="40.429523" lon="-3.7705753">
        <ele>640.81</ele>
        <time>2022-02-27T11:18:40Z</time>
      </trkpt>
      <trkpt lat="40.42959" lon="-3.7705786">
        <ele>642.065</ele>
        <time>2022-02-27T11:18:45Z</time>
      </trkpt>
      <trkpt lat="40.42965" lon="-3.7706022">
        <ele>643.449</ele>
        <time>2022-02-27T11:18:50Z</time>
      </trkpt>
      <trkpt lat="40.42974" lon="-3.7705991">
        <ele>641.43</ele>
        <time>2022-02-27T11:18:55Z</time>
      </trkpt>
      <trkpt lat="40.429813" lon="-3.7706099">
        <ele>639.539</ele>
        <time>2022-02-27T11:19:00Z</time>
      </trkpt>
      <trkpt lat="40.42987" lon="-3.7706122">
        <ele>638.619</ele>
        <time>2022-02-27T11:19:05Z</time>
      </trkpt>
      <trkpt lat="40.429943" lon="-3.7706082">
        <ele>638.447</ele>
        <time>2022-02-27T11:19:10Z</time>
      </trkpt>
      <trkpt lat="40.43002" lon="-3.770636">
        <ele>638.334</ele>
        <time>2022-02-27T11:19:15Z</time>
      </trkpt>
      <trkpt lat="40.430107" lon="-3.7706456">
        <ele>637.316</ele>
        <time>2022-02-27T11:19:20Z</time>
      </trkpt>
      <trkpt lat="40.430183" lon="-3.7706678">
        <ele>636.305</ele>
        <time>2022-02-27T11:19:25Z</time>
      </trkpt>
      <trkpt lat="40.430256" lon="-3.7706878">
        <ele>635.044</ele>
        <time>2022-02-27T11:19:30Z</time>
      </trkpt>
      <trkpt lat="40.430332" lon="-3.7707036">
        <ele>635.139</ele>
        <time>2022-02-27T11:19:35Z</time>
      </trkpt>
      <trkpt lat="40.430416" lon="-3.7707038">
        <ele>634.201</ele>
        <time>2022-02-27T11:19:40Z</time>
      </trkpt>
      <trkpt lat="40.430473" lon="-3.7706811">
        <ele>632.5</ele>
        <time>2022-02-27T11:19:45Z</time>
      </trkpt>
      <trkpt lat="40.430527" lon="-3.770635">
        <ele>631.136</ele>
        <time>2022-02-27T11:19:50Z</time>
      </trkpt>
      <trkpt lat="40.43059" lon="-3.7706113">
        <ele>630.655</ele>
        <time>2022-02-27T11:19:55Z</time>
      </trkpt>
      <trkpt lat="40.430664" lon="-3.770608">
        <ele>630.465</ele>
        <time>2022-02-27T11:20:00Z</time>
      </trkpt>
      <trkpt lat="40.430744" lon="-3.7706149">
        <ele>629.096</ele>
        <time>2022-02-27T11:20:05Z</time>
      </trkpt>
      <trkpt lat="40.43081" lon="-3.7706342">
        <ele>628.454</ele>
        <time>2022-02-27T11:20:10Z</time>
      </trkpt>
      <trkpt lat="40.43089" lon="-3.7706566">
        <ele>629.276</ele>
        <time>2022-02-27T11:20:15Z</time>
      </trkpt>
      <trkpt lat="40.430958" lon="-3.7706652">
        <ele>626.652</ele>
        <time>2022-02-27T11:20:20Z</time>
      </trkpt>
      <trkpt lat="40.43103" lon="-3.7706673">
        <ele>626.354</ele>
        <time>2022-02-27T11:20:25Z</time>
      </trkpt>
      <trkpt lat="40.431103" lon="-3.7706804">
        <ele>626.499</ele>
        <time>2022-02-27T11:20:30Z</time>
      </trkpt>
      <trkpt lat="40.43118" lon="-3.7706752">
        <ele>626.105</ele>
        <time>2022-02-27T11:20:35Z</time>
      </trkpt>
      <trkpt lat="40.43125" lon="-3.7706618">
        <ele>626.433</ele>
        <time>2022-02-27T11:20:40Z</time>
      </trkpt>
      <trkpt lat="40.431324" lon="-3.770648">
        <ele>625.87</ele>
        <time>2022-02-27T11:20:45Z</time>
      </trkpt>
      <trkpt lat="40.431408" lon="-3.770672">
        <ele>625.326</ele>
        <time>2022-02-27T11:20:50Z</time>
      </trkpt>
      <trkpt lat="40.43149" lon="-3.7706835">
        <ele>623.931</ele>
        <time>2022-02-27T11:20:55Z</time>
      </trkpt>
      <trkpt lat="40.431572" lon="-3.7706761">
        <ele>624.034</ele>
        <time>2022-02-27T11:21:00Z</time>
      </trkpt>
      <trkpt lat="40.431652" lon="-3.7706673">
        <ele>623.735</ele>
        <time>2022-02-27T11:21:05Z</time>
      </trkpt>
      <trkpt lat="40.431732" lon="-3.7706618">
        <ele>624.771</ele>
        <time>2022-02-27T11:21:10Z</time>
      </trkpt>
      <trkpt lat="40.4318" lon="-3.7706544">
        <ele>622.979</ele>
        <time>2022-02-27T11:21:15Z</time>
      </trkpt>
      <trkpt lat="40.43186" lon="-3.7706652">
        <ele>622.903</ele>
        <time>2022-02-27T11:21:20Z</time>
      </trkpt>
      <trkpt lat="40.431934" lon="-3.7706718">
        <ele>622.718</ele>
        <time>2022-02-27T11:21:25Z</time>
      </trkpt>
      <trkpt lat="40.432014" lon="-3.7706745">
        <ele>622.451</ele>
        <time>2022-02-27T11:21:30Z</time>
      </trkpt>
      <trkpt lat="40.432102" lon="-3.7706783">
        <ele>622.102</ele>
        <time>2022-02-27T11:21:35Z</time>
      </trkpt>
      <trkpt lat="40.432182" lon="-3.770679">
        <ele>622.02</ele>
        <time>2022-02-27T11:21:40Z</time>
      </trkpt>
      <trkpt lat="40.432255" lon="-3.7706769">
        <ele>621.259</ele>
        <time>2022-02-27T11:21:45Z</time>
      </trkpt>
      <trkpt lat="40.432316" lon="-3.7706678">
        <ele>621.307</ele>
        <time>2022-02-27T11:21:50Z</time>
      </trkpt>
      <trkpt lat="40.43239" lon="-3.7706676">
        <ele>619.84</ele>
        <time>2022-02-27T11:21:55Z</time>
      </trkpt>
      <trkpt lat="40.43247" lon="-3.7706637">
        <ele>620.868</ele>
        <time>2022-02-27T11:22:00Z</time>
      </trkpt>
      <trkpt lat="40.432545" lon="-3.7706568">
        <ele>621.302</ele>
        <time>2022-02-27T11:22:05Z</time>
      </trkpt>
      <trkpt lat="40.43262" lon="-3.770669">
        <ele>621.487</ele>
        <time>2022-02-27T11:22:10Z</time>
      </trkpt>
      <trkpt lat="40.432686" lon="-3.770655">
        <ele>620.007</ele>
        <time>2022-02-27T11:22:15Z</time>
      </trkpt>
      <trkpt lat="40.43277" lon="-3.770665">
        <ele>620.361</ele>
        <time>2022-02-27T11:22:20Z</time>
      </trkpt>
      <trkpt lat="40.432842" lon="-3.7706652">
        <ele>619.367</ele>
        <time>2022-02-27T11:22:25Z</time>
      </trkpt>
      <trkpt lat="40.432915" lon="-3.7706487">
        <ele>618.451</ele>
        <time>2022-02-27T11:22:30Z</time>
      </trkpt>
      <trkpt lat="40.432987" lon="-3.770637">
        <ele>618.858</ele>
        <time>2022-02-27T11:22:35Z</time>
      </trkpt>
      <trkpt lat="40.43305" lon="-3.770622">
        <ele>621.524</ele>
        <time>2022-02-27T11:22:40Z</time>
      </trkpt>
      <trkpt lat="40.433117" lon="-3.770618">
        <ele>623.059</ele>
        <time>2022-02-27T11:22:45Z</time>
      </trkpt>
      <trkpt lat="40.43318" lon="-3.7706304">
        <ele>623.164</ele>
        <time>2022-02-27T11:22:50Z</time>
      </trkpt>
      <trkpt lat="40.433254" lon="-3.7706256">
        <ele>622.678</ele>
        <time>2022-02-27T11:22:55Z</time>
      </trkpt>
      <trkpt lat="40.433323" lon="-3.770625">
        <ele>622.253</ele>
        <time>2022-02-27T11:23:00Z</time>
      </trkpt>
      <trkpt lat="40.43339" lon="-3.7706232">
        <ele>621.751</ele>
        <time>2022-02-27T11:23:05Z</time>
      </trkpt>
      <trkpt lat="40.43347" lon="-3.7706196">
        <ele>620.596</ele>
        <time>2022-02-27T11:23:10Z</time>
      </trkpt>
      <trkpt lat="40.43354" lon="-3.770605">
        <ele>621.804</ele>
        <time>2022-02-27T11:23:15Z</time>
      </trkpt>
      <trkpt lat="40.433678" lon="-3.7706053">
        <ele>620.982</ele>
        <time>2022-02-27T11:23:23Z</time>
      </trkpt>
      <trkpt lat="40.433746" lon="-3.7705834">
        <ele>621.658</ele>
        <time>2022-02-27T11:23:28Z</time>
      </trkpt>
      <trkpt lat="40.43382" lon="-3.7705443">
        <ele>622.026</ele>
        <time>2022-02-27T11:23:33Z</time>
      </trkpt>
      <trkpt lat="40.433884" lon="-3.7705522">
        <ele>621.193</ele>
        <time>2022-02-27T11:23:38Z</time>
      </trkpt>
      <trkpt lat="40.433964" lon="-3.7705574">
        <ele>618.847</ele>
        <time>2022-02-27T11:23:43Z</time>
      </trkpt>
      <trkpt lat="40.43402" lon="-3.7705696">
        <ele>621.185</ele>
        <time>2022-02-27T11:23:48Z</time>
      </trkpt>
      <trkpt lat="40.434093" lon="-3.770609">
        <ele>619.307</ele>
        <time>2022-02-27T11:23:53Z</time>
      </trkpt>
      <trkpt lat="40.434166" lon="-3.770622">
        <ele>621.085</ele>
        <time>2022-02-27T11:23:58Z</time>
      </trkpt>
      <trkpt lat="40.43423" lon="-3.7706475">
        <ele>620.224</ele>
        <time>2022-02-27T11:24:03Z</time>
      </trkpt>
      <trkpt lat="40.434303" lon="-3.7706597">
        <ele>618.414</ele>
        <time>2022-02-27T11:24:08Z</time>
      </trkpt>
      <trkpt lat="40.434376" lon="-3.770657">
        <ele>617.174</ele>
        <time>2022-02-27T11:24:13Z</time>
      </trkpt>
      <trkpt lat="40.43445" lon="-3.7706459">
        <ele>618.2</ele>
        <time>2022-02-27T11:24:18Z</time>
      </trkpt>
      <trkpt lat="40.43451" lon="-3.770618">
        <ele>619.484</ele>
        <time>2022-02-27T11:24:23Z</time>
      </trkpt>
      <trkpt lat="40.434654" lon="-3.770599">
        <ele>623.193</ele>
        <time>2022-02-27T11:24:33Z</time>
      </trkpt>
      <trkpt lat="40.434727" lon="-3.770597">
        <ele>622.166</ele>
        <time>2022-02-27T11:24:38Z</time>
      </trkpt>
      <trkpt lat="40.434795" lon="-3.7706187">
        <ele>622.665</ele>
        <time>2022-02-27T11:24:43Z</time>
      </trkpt>
      <trkpt lat="40.43488" lon="-3.7706225">
        <ele>623.598</ele>
        <time>2022-02-27T11:24:48Z</time>
      </trkpt>
      <trkpt lat="40.43495" lon="-3.7706375">
        <ele>621.899</ele>
        <time>2022-02-27T11:24:53Z</time>
      </trkpt>
      <trkpt lat="40.435024" lon="-3.7706523">
        <ele>621.653</ele>
        <time>2022-02-27T11:24:58Z</time>
      </trkpt>
      <trkpt lat="40.435112" lon="-3.770625">
        <ele>621.804</ele>
        <time>2022-02-27T11:25:03Z</time>
      </trkpt>
      <trkpt lat="40.435177" lon="-3.7706056">
        <ele>620.723</ele>
        <time>2022-02-27T11:25:08Z</time>
      </trkpt>
      <trkpt lat="40.435257" lon="-3.770583">
        <ele>621.209</ele>
        <time>2022-02-27T11:25:14Z</time>
      </trkpt>
      <trkpt lat="40.435326" lon="-3.7705717">
        <ele>619.407</ele>
        <time>2022-02-27T11:25:19Z</time>
      </trkpt>
      <trkpt lat="40.4354" lon="-3.7705734">
        <ele>620.353</ele>
        <time>2022-02-27T11:25:24Z</time>
      </trkpt>
      <trkpt lat="40.43548" lon="-3.7705548">
        <ele>619.64</ele>
        <time>2022-02-27T11:25:29Z</time>
      </trkpt>
      <trkpt lat="40.435547" lon="-3.7705321">
        <ele>619.307</ele>
        <time>2022-02-27T11:25:34Z</time>
      </trkpt>
      <trkpt lat="40.435608" lon="-3.7704954">
        <ele>619.227</ele>
        <time>2022-02-27T11:25:39Z</time>
      </trkpt>
      <trkpt lat="40.435677" lon="-3.7704706">
        <ele>618.274</ele>
        <time>2022-02-27T11:25:44Z</time>
      </trkpt>
      <trkpt lat="40.43576" lon="-3.7704315">
        <ele>616.974</ele>
        <time>2022-02-27T11:25:49Z</time>
      </trkpt>
      <trkpt lat="40.43582" lon="-3.7704093">
        <ele>617.676</ele>
        <time>2022-02-27T11:25:54Z</time>
      </trkpt>
      <trkpt lat="40.435886" lon="-3.7703936">
        <ele>606.597</ele>
        <time>2022-02-27T11:25:59Z</time>
      </trkpt>
      <trkpt lat="40.435905" lon="-3.7703743">
        <ele>612.862</ele>
        <time>2022-02-27T11:26:09Z</time>
      </trkpt>
      <trkpt lat="40.436005" lon="-3.7703354">
        <ele>614.685</ele>
        <time>2022-02-27T11:26:24Z</time>
      </trkpt>
      <trkpt lat="40.43606" lon="-3.7702827">
        <ele>616.868</ele>
        <time>2022-02-27T11:26:29Z</time>
      </trkpt>
      <trkpt lat="40.436127" lon="-3.7703137">
        <ele>618.424</ele>
        <time>2022-02-27T11:26:34Z</time>
      </trkpt>
      <trkpt lat="40.43619" lon="-3.770331">
        <ele>606.748</ele>
        <time>2022-02-27T11:26:39Z</time>
      </trkpt>
      <trkpt lat="40.436302" lon="-3.7703252">
        <ele>613.623</ele>
        <time>2022-02-27T11:26:47Z</time>
      </trkpt>
      <trkpt lat="40.43638" lon="-3.7703068">
        <ele>614.707</ele>
        <time>2022-02-27T11:26:52Z</time>
      </trkpt>
      <trkpt lat="40.436436" lon="-3.7702956">
        <ele>613.396</ele>
        <time>2022-02-27T11:26:57Z</time>
      </trkpt>
      <trkpt lat="40.436516" lon="-3.7702887">
        <ele>613.266</ele>
        <time>2022-02-27T11:27:02Z</time>
      </trkpt>
      <trkpt lat="40.4366" lon="-3.7702796">
        <ele>611.287</ele>
        <time>2022-02-27T11:27:07Z</time>
      </trkpt>
      <trkpt lat="40.43668" lon="-3.770245">
        <ele>611.261</ele>
        <time>2022-02-27T11:27:12Z</time>
      </trkpt>
      <trkpt lat="40.436733" lon="-3.770208">
        <ele>610.138</ele>
        <time>2022-02-27T11:27:17Z</time>
      </trkpt>
      <trkpt lat="40.43679" lon="-3.7701738">
        <ele>609.66</ele>
        <time>2022-02-27T11:27:22Z</time>
      </trkpt>
      <trkpt lat="40.43685" lon="-3.770158">
        <ele>608.674</ele>
        <time>2022-02-27T11:27:27Z</time>
      </trkpt>
      <trkpt lat="40.43692" lon="-3.7701402">
        <ele>609.179</ele>
        <time>2022-02-27T11:27:32Z</time>
      </trkpt>
      <trkpt lat="40.437" lon="-3.7700984">
        <ele>607.625</ele>
        <time>2022-02-27T11:27:37Z</time>
      </trkpt>
      <trkpt lat="40.437057" lon="-3.770084">
        <ele>607.847</ele>
        <time>2022-02-27T11:27:42Z</time>
      </trkpt>
      <trkpt lat="40.43714" lon="-3.7700572">
        <ele>607.483</ele>
        <time>2022-02-27T11:27:47Z</time>
      </trkpt>
      <trkpt lat="40.43722" lon="-3.77002">
        <ele>607.44</ele>
        <time>2022-02-27T11:27:52Z</time>
      </trkpt>
      <trkpt lat="40.437305" lon="-3.7699978">
        <ele>605.813</ele>
        <time>2022-02-27T11:27:57Z</time>
      </trkpt>
      <trkpt lat="40.43737" lon="-3.7699478">
        <ele>606.439</ele>
        <time>2022-02-27T11:28:02Z</time>
      </trkpt>
      <trkpt lat="40.43743" lon="-3.7699096">
        <ele>604.991</ele>
        <time>2022-02-27T11:28:07Z</time>
      </trkpt>
      <trkpt lat="40.4375" lon="-3.76986">
        <ele>603.918</ele>
        <time>2022-02-27T11:28:12Z</time>
      </trkpt>
      <trkpt lat="40.43756" lon="-3.769818">
        <ele>604.851</ele>
        <time>2022-02-27T11:28:17Z</time>
      </trkpt>
      <trkpt lat="40.43763" lon="-3.769775">
        <ele>603.873</ele>
        <time>2022-02-27T11:28:22Z</time>
      </trkpt>
      <trkpt lat="40.437706" lon="-3.7697845">
        <ele>605.245</ele>
        <time>2022-02-27T11:28:27Z</time>
      </trkpt>
      <trkpt lat="40.437775" lon="-3.769757">
        <ele>604.587</ele>
        <time>2022-02-27T11:28:32Z</time>
      </trkpt>
      <trkpt lat="40.437843" lon="-3.7697058">
        <ele>604.359</ele>
        <time>2022-02-27T11:28:37Z</time>
      </trkpt>
      <trkpt lat="40.437912" lon="-3.7696922">
        <ele>604.177</ele>
        <time>2022-02-27T11:28:42Z</time>
      </trkpt>
      <trkpt lat="40.437973" lon="-3.7696803">
        <ele>603.435</ele>
        <time>2022-02-27T11:28:47Z</time>
      </trkpt>
      <trkpt lat="40.438046" lon="-3.7696595">
        <ele>602.914</ele>
        <time>2022-02-27T11:28:52Z</time>
      </trkpt>
      <trkpt lat="40.438133" lon="-3.7695923">
        <ele>602.904</ele>
        <time>2022-02-27T11:28:57Z</time>
      </trkpt>
      <trkpt lat="40.438194" lon="-3.7695656">
        <ele>603.723</ele>
        <time>2022-02-27T11:29:02Z</time>
      </trkpt>
      <trkpt lat="40.438274" lon="-3.7695343">
        <ele>602.454</ele>
        <time>2022-02-27T11:29:07Z</time>
      </trkpt>
      <trkpt lat="40.43834" lon="-3.7694654">
        <ele>602.238</ele>
        <time>2022-02-27T11:29:12Z</time>
      </trkpt>
      <trkpt lat="40.4384" lon="-3.7694197">
        <ele>602.549</ele>
        <time>2022-02-27T11:29:17Z</time>
      </trkpt>
      <trkpt lat="40.438454" lon="-3.769386">
        <ele>603.03</ele>
        <time>2022-02-27T11:29:22Z</time>
      </trkpt>
      <trkpt lat="40.438507" lon="-3.769347">
        <ele>602.016</ele>
        <time>2022-02-27T11:29:27Z</time>
      </trkpt>
      <trkpt lat="40.43857" lon="-3.769321">
        <ele>602.016</ele>
        <time>2022-02-27T11:29:32Z</time>
      </trkpt>
      <trkpt lat="40.43864" lon="-3.7692947">
        <ele>594.131</ele>
        <time>2022-02-27T11:29:37Z</time>
      </trkpt>
      <trkpt lat="40.43865" lon="-3.769264">
        <ele>601.191</ele>
        <time>2022-02-27T11:29:42Z</time>
      </trkpt>
      <trkpt lat="40.438683" lon="-3.7691507">
        <ele>596.689</ele>
        <time>2022-02-27T11:29:57Z</time>
      </trkpt>
      <trkpt lat="40.438705" lon="-3.7690616">
        <ele>599.437</ele>
        <time>2022-02-27T11:30:02Z</time>
      </trkpt>
      <trkpt lat="40.438725" lon="-3.7689636">
        <ele>601.371</ele>
        <time>2022-02-27T11:30:07Z</time>
      </trkpt>
      <trkpt lat="40.438747" lon="-3.7688797">
        <ele>601.849</ele>
        <time>2022-02-27T11:30:12Z</time>
      </trkpt>
      <trkpt lat="40.438766" lon="-3.7687736">
        <ele>601.054</ele>
        <time>2022-02-27T11:30:17Z</time>
      </trkpt>
      <trkpt lat="40.438786" lon="-3.7686632">
        <ele>602.473</ele>
        <time>2022-02-27T11:30:22Z</time>
      </trkpt>
      <trkpt lat="40.438816" lon="-3.768556">
        <ele>601.963</ele>
        <time>2022-02-27T11:30:27Z</time>
      </trkpt>
      <trkpt lat="40.438843" lon="-3.7684624">
        <ele>601.926</ele>
        <time>2022-02-27T11:30:32Z</time>
      </trkpt>
      <trkpt lat="40.438858" lon="-3.768361">
        <ele>600.063</ele>
        <time>2022-02-27T11:30:37Z</time>
      </trkpt>
      <trkpt lat="40.438877" lon="-3.7682667">
        <ele>601.839</ele>
        <time>2022-02-27T11:30:42Z</time>
      </trkpt>
      <trkpt lat="40.438896" lon="-3.768167">
        <ele>601.688</ele>
        <time>2022-02-27T11:30:47Z</time>
      </trkpt>
      <trkpt lat="40.438923" lon="-3.7680697">
        <ele>600.835</ele>
        <time>2022-02-27T11:30:52Z</time>
      </trkpt>
      <trkpt lat="40.43896" lon="-3.7679653">
        <ele>601.276</ele>
        <time>2022-02-27T11:30:57Z</time>
      </trkpt>
      <trkpt lat="40.438984" lon="-3.7678614">
        <ele>600.689</ele>
        <time>2022-02-27T11:31:03Z</time>
      </trkpt>
      <trkpt lat="40.439026" lon="-3.7677317">
        <ele>600.533</ele>
        <time>2022-02-27T11:31:10Z</time>
      </trkpt>
      <trkpt lat="40.439068" lon="-3.7676148">
        <ele>601.759</ele>
        <time>2022-02-27T11:31:17Z</time>
      </trkpt>
      <trkpt lat="40.43909" lon="-3.7674992">
        <ele>601.305</ele>
        <time>2022-02-27T11:31:23Z</time>
      </trkpt>
      <trkpt lat="40.439117" lon="-3.7673962">
        <ele>600.739</ele>
        <time>2022-02-27T11:31:28Z</time>
      </trkpt>
      <trkpt lat="40.439163" lon="-3.7672174">
        <ele>599.926</ele>
        <time>2022-02-27T11:31:38Z</time>
      </trkpt>
      <trkpt lat="40.439186" lon="-3.7671137">
        <ele>599.07</ele>
        <time>2022-02-27T11:31:43Z</time>
      </trkpt>
      <trkpt lat="40.439198" lon="-3.7670188">
        <ele>599.516</ele>
        <time>2022-02-27T11:31:48Z</time>
      </trkpt>
      <trkpt lat="40.439213" lon="-3.7669244">
        <ele>600.407</ele>
        <time>2022-02-27T11:31:53Z</time>
      </trkpt>
      <trkpt lat="40.43925" lon="-3.7668278">
        <ele>598.702</ele>
        <time>2022-02-27T11:31:58Z</time>
      </trkpt>
      <trkpt lat="40.439285" lon="-3.7667496">
        <ele>599.997</ele>
        <time>2022-02-27T11:32:03Z</time>
      </trkpt>
      <trkpt lat="40.439304" lon="-3.7666411">
        <ele>599.186</ele>
        <time>2022-02-27T11:32:08Z</time>
      </trkpt>
      <trkpt lat="40.43932" lon="-3.7665627">
        <ele>599.495</ele>
        <time>2022-02-27T11:32:13Z</time>
      </trkpt>
      <trkpt lat="40.43935" lon="-3.766476">
        <ele>599.262</ele>
        <time>2022-02-27T11:32:18Z</time>
      </trkpt>
      <trkpt lat="40.439373" lon="-3.766374">
        <ele>600.285</ele>
        <time>2022-02-27T11:32:23Z</time>
      </trkpt>
      <trkpt lat="40.439377" lon="-3.7662716">
        <ele>600.98</ele>
        <time>2022-02-27T11:32:28Z</time>
      </trkpt>
      <trkpt lat="40.43941" lon="-3.7661788">
        <ele>597.867</ele>
        <time>2022-02-27T11:32:33Z</time>
      </trkpt>
      <trkpt lat="40.439438" lon="-3.766078">
        <ele>592.876</ele>
        <time>2022-02-27T11:32:38Z</time>
      </trkpt>
      <trkpt lat="40.439472" lon="-3.7660215">
        <ele>592.612</ele>
        <time>2022-02-27T11:32:43Z</time>
      </trkpt>
      <trkpt lat="40.43952" lon="-3.7659633">
        <ele>595.016</ele>
        <time>2022-02-27T11:32:48Z</time>
      </trkpt>
      <trkpt lat="40.43957" lon="-3.7658947">
        <ele>595.246</ele>
        <time>2022-02-27T11:32:53Z</time>
      </trkpt>
      <trkpt lat="40.439644" lon="-3.7658384">
        <ele>597.83</ele>
        <time>2022-02-27T11:32:58Z</time>
      </trkpt>
      <trkpt lat="40.439735" lon="-3.7657943">
        <ele>598.671</ele>
        <time>2022-02-27T11:33:03Z</time>
      </trkpt>
      <trkpt lat="40.439816" lon="-3.7657602">
        <ele>598.388</ele>
        <time>2022-02-27T11:33:08Z</time>
      </trkpt>
      <trkpt lat="40.439873" lon="-3.76572">
        <ele>597.788</ele>
        <time>2022-02-27T11:33:13Z</time>
      </trkpt>
      <trkpt lat="40.43993" lon="-3.7656457">
        <ele>599.899</ele>
        <time>2022-02-27T11:33:18Z</time>
      </trkpt>
      <trkpt lat="40.439964" lon="-3.765594">
        <ele>600.129</ele>
        <time>2022-02-27T11:33:23Z</time>
      </trkpt>
      <trkpt lat="40.44006" lon="-3.765613">
        <ele>600.322</ele>
        <time>2022-02-27T11:33:28Z</time>
      </trkpt>
      <trkpt lat="40.440136" lon="-3.7656069">
        <ele>599.255</ele>
        <time>2022-02-27T11:33:33Z</time>
      </trkpt>
      <trkpt lat="40.440224" lon="-3.7656133">
        <ele>599.979</ele>
        <time>2022-02-27T11:33:38Z</time>
      </trkpt>
      <trkpt lat="40.4403" lon="-3.7656193">
        <ele>600.317</ele>
        <time>2022-02-27T11:33:43Z</time>
      </trkpt>
      <trkpt lat="40.440353" lon="-3.7655923">
        <ele>588.923</ele>
        <time>2022-02-27T11:33:48Z</time>
      </trkpt>
      <trkpt lat="40.44037" lon="-3.7655635">
        <ele>565.79</ele>
        <time>2022-02-27T11:34:08Z</time>
      </trkpt>
      <trkpt lat="40.44047" lon="-3.7655685">
        <ele>594.921</ele>
        <time>2022-02-27T11:34:17Z</time>
      </trkpt>
      <trkpt lat="40.440548" lon="-3.7655482">
        <ele>597.27</ele>
        <time>2022-02-27T11:34:23Z</time>
      </trkpt>
      <trkpt lat="40.440613" lon="-3.7655501">
        <ele>599.22</ele>
        <time>2022-02-27T11:34:28Z</time>
      </trkpt>
      <trkpt lat="40.440693" lon="-3.7655497">
        <ele>598.063</ele>
        <time>2022-02-27T11:34:33Z</time>
      </trkpt>
      <trkpt lat="40.440758" lon="-3.7655227">
        <ele>599.54</ele>
        <time>2022-02-27T11:34:38Z</time>
      </trkpt>
      <trkpt lat="40.44083" lon="-3.7655177">
        <ele>598.15</ele>
        <time>2022-02-27T11:34:43Z</time>
      </trkpt>
      <trkpt lat="40.440914" lon="-3.7655058">
        <ele>599.445</ele>
        <time>2022-02-27T11:34:48Z</time>
      </trkpt>
      <trkpt lat="40.441" lon="-3.7655005">
        <ele>598.961</ele>
        <time>2022-02-27T11:34:53Z</time>
      </trkpt>
      <trkpt lat="40.441082" lon="-3.7654948">
        <ele>601.027</ele>
        <time>2022-02-27T11:34:58Z</time>
      </trkpt>
      <trkpt lat="40.441154" lon="-3.7654648">
        <ele>599.77</ele>
        <time>2022-02-27T11:35:03Z</time>
      </trkpt>
      <trkpt lat="40.441227" lon="-3.7654526">
        <ele>599.051</ele>
        <time>2022-02-27T11:35:08Z</time>
      </trkpt>
      <trkpt lat="40.441303" lon="-3.7654283">
        <ele>599.302</ele>
        <time>2022-02-27T11:35:13Z</time>
      </trkpt>
      <trkpt lat="40.441372" lon="-3.7653904">
        <ele>599.025</ele>
        <time>2022-02-27T11:35:18Z</time>
      </trkpt>
      <trkpt lat="40.441452" lon="-3.7653677">
        <ele>598.631</ele>
        <time>2022-02-27T11:35:23Z</time>
      </trkpt>
      <trkpt lat="40.441517" lon="-3.7653193">
        <ele>599.809</ele>
        <time>2022-02-27T11:35:28Z</time>
      </trkpt>
      <trkpt lat="40.44163" lon="-3.7652354">
        <ele>600.732</ele>
        <time>2022-02-27T11:35:38Z</time>
      </trkpt>
      <trkpt lat="40.441708" lon="-3.7651901">
        <ele>600.454</ele>
        <time>2022-02-27T11:35:43Z</time>
      </trkpt>
      <trkpt lat="40.441776" lon="-3.7651463">
        <ele>601.337</ele>
        <time>2022-02-27T11:35:48Z</time>
      </trkpt>
      <trkpt lat="40.44183" lon="-3.765092">
        <ele>601.572</ele>
        <time>2022-02-27T11:35:53Z</time>
      </trkpt>
      <trkpt lat="40.441887" lon="-3.7650347">
        <ele>601.471</ele>
        <time>2022-02-27T11:35:58Z</time>
      </trkpt>
      <trkpt lat="40.441948" lon="-3.7649767">
        <ele>600.716</ele>
        <time>2022-02-27T11:36:03Z</time>
      </trkpt>
      <trkpt lat="40.442" lon="-3.7649212">
        <ele>601.096</ele>
        <time>2022-02-27T11:36:08Z</time>
      </trkpt>
      <trkpt lat="40.44207" lon="-3.7648664">
        <ele>601.31</ele>
        <time>2022-02-27T11:36:13Z</time>
      </trkpt>
      <trkpt lat="40.44212" lon="-3.764807">
        <ele>602.468</ele>
        <time>2022-02-27T11:36:18Z</time>
      </trkpt>
      <trkpt lat="40.44218" lon="-3.764756">
        <ele>601.942</ele>
        <time>2022-02-27T11:36:23Z</time>
      </trkpt>
      <trkpt lat="40.442253" lon="-3.7647007">
        <ele>604.499</ele>
        <time>2022-02-27T11:36:28Z</time>
      </trkpt>
      <trkpt lat="40.44232" lon="-3.7646444">
        <ele>604.46</ele>
        <time>2022-02-27T11:36:33Z</time>
      </trkpt>
      <trkpt lat="40.442383" lon="-3.7645998">
        <ele>603.762</ele>
        <time>2022-02-27T11:36:38Z</time>
      </trkpt>
      <trkpt lat="40.44244" lon="-3.7645464">
        <ele>604.515</ele>
        <time>2022-02-27T11:36:43Z</time>
      </trkpt>
      <trkpt lat="40.44252" lon="-3.7645059">
        <ele>605.221</ele>
        <time>2022-02-27T11:36:48Z</time>
      </trkpt>
      <trkpt lat="40.442585" lon="-3.764454">
        <ele>604.56</ele>
        <time>2022-02-27T11:36:53Z</time>
      </trkpt>
      <trkpt lat="40.442654" lon="-3.7644045">
        <ele>605.205</ele>
        <time>2022-02-27T11:36:58Z</time>
      </trkpt>
      <trkpt lat="40.44271" lon="-3.7643504">
        <ele>605.226</ele>
        <time>2022-02-27T11:37:03Z</time>
      </trkpt>
      <trkpt lat="40.442802" lon="-3.7642546">
        <ele>605.776</ele>
        <time>2022-02-27T11:37:12Z</time>
      </trkpt>
      <trkpt lat="40.442867" lon="-3.7641952">
        <ele>605.781</ele>
        <time>2022-02-27T11:37:17Z</time>
      </trkpt>
      <trkpt lat="40.442932" lon="-3.7641475">
        <ele>605.046</ele>
        <time>2022-02-27T11:37:22Z</time>
      </trkpt>
      <trkpt lat="40.443" lon="-3.764097">
        <ele>605.844</ele>
        <time>2022-02-27T11:37:27Z</time>
      </trkpt>
      <trkpt lat="40.44306" lon="-3.7640321">
        <ele>606.51</ele>
        <time>2022-02-27T11:37:32Z</time>
      </trkpt>
      <trkpt lat="40.443104" lon="-3.7639637">
        <ele>608.259</ele>
        <time>2022-02-27T11:37:37Z</time>
      </trkpt>
      <trkpt lat="40.44316" lon="-3.763915">
        <ele>604.193</ele>
        <time>2022-02-27T11:37:42Z</time>
      </trkpt>
      <trkpt lat="40.443226" lon="-3.7638662">
        <ele>604.531</ele>
        <time>2022-02-27T11:37:47Z</time>
      </trkpt>
      <trkpt lat="40.443295" lon="-3.7638266">
        <ele>605.805</ele>
        <time>2022-02-27T11:37:52Z</time>
      </trkpt>
      <trkpt lat="40.443356" lon="-3.7638006">
        <ele>600.705</ele>
        <time>2022-02-27T11:37:57Z</time>
      </trkpt>
      <trkpt lat="40.44343" lon="-3.7637722">
        <ele>603.244</ele>
        <time>2022-02-27T11:38:02Z</time>
      </trkpt>
      <trkpt lat="40.443504" lon="-3.7637415">
        <ele>604.592</ele>
        <time>2022-02-27T11:38:07Z</time>
      </trkpt>
      <trkpt lat="40.44358" lon="-3.7637234">
        <ele>608.328</ele>
        <time>2022-02-27T11:38:12Z</time>
      </trkpt>
      <trkpt lat="40.443653" lon="-3.7637086">
        <ele>608.603</ele>
        <time>2022-02-27T11:38:17Z</time>
      </trkpt>
      <trkpt lat="40.443726" lon="-3.7636821">
        <ele>609.61</ele>
        <time>2022-02-27T11:38:22Z</time>
      </trkpt>
      <trkpt lat="40.443806" lon="-3.7636802">
        <ele>610.246</ele>
        <time>2022-02-27T11:38:27Z</time>
      </trkpt>
      <trkpt lat="40.443874" lon="-3.7636666">
        <ele>609.171</ele>
        <time>2022-02-27T11:38:32Z</time>
      </trkpt>
      <trkpt lat="40.443954" lon="-3.7636437">
        <ele>608.547</ele>
        <time>2022-02-27T11:38:37Z</time>
      </trkpt>
      <trkpt lat="40.444023" lon="-3.763639">
        <ele>607.535</ele>
        <time>2022-02-27T11:38:42Z</time>
      </trkpt>
      <trkpt lat="40.444088" lon="-3.7636323">
        <ele>607.649</ele>
        <time>2022-02-27T11:38:47Z</time>
      </trkpt>
      <trkpt lat="40.444168" lon="-3.7636256">
        <ele>607.48</ele>
        <time>2022-02-27T11:38:52Z</time>
      </trkpt>
      <trkpt lat="40.44425" lon="-3.7636242">
        <ele>607.472</ele>
        <time>2022-02-27T11:38:57Z</time>
      </trkpt>
      <trkpt lat="40.444317" lon="-3.76362">
        <ele>606.14</ele>
        <time>2022-02-27T11:39:02Z</time>
      </trkpt>
      <trkpt lat="40.44439" lon="-3.7636132">
        <ele>605.805</ele>
        <time>2022-02-27T11:39:07Z</time>
      </trkpt>
      <trkpt lat="40.444473" lon="-3.7635689">
        <ele>605.918</ele>
        <time>2022-02-27T11:39:12Z</time>
      </trkpt>
      <trkpt lat="40.444546" lon="-3.7635398">
        <ele>605.739</ele>
        <time>2022-02-27T11:39:17Z</time>
      </trkpt>
      <trkpt lat="40.444607" lon="-3.7635057">
        <ele>605.194</ele>
        <time>2022-02-27T11:39:22Z</time>
      </trkpt>
      <trkpt lat="40.44468" lon="-3.7634735">
        <ele>606.143</ele>
        <time>2022-02-27T11:39:27Z</time>
      </trkpt>
      <trkpt lat="40.444756" lon="-3.7634497">
        <ele>607.823</ele>
        <time>2022-02-27T11:39:32Z</time>
      </trkpt>
      <trkpt lat="40.444828" lon="-3.7634075">
        <ele>607.271</ele>
        <time>2022-02-27T11:39:37Z</time>
      </trkpt>
      <trkpt lat="40.444897" lon="-3.763391">
        <ele>608.376</ele>
        <time>2022-02-27T11:39:42Z</time>
      </trkpt>
      <trkpt lat="40.444977" lon="-3.7633753">
        <ele>607.546</ele>
        <time>2022-02-27T11:39:47Z</time>
      </trkpt>
      <trkpt lat="40.445034" lon="-3.7633736">
        <ele>607.155</ele>
        <time>2022-02-27T11:39:52Z</time>
      </trkpt>
      <trkpt lat="40.445107" lon="-3.7633767">
        <ele>609.063</ele>
        <time>2022-02-27T11:39:57Z</time>
      </trkpt>
      <trkpt lat="40.44517" lon="-3.7633903">
        <ele>608.254</ele>
        <time>2022-02-27T11:40:02Z</time>
      </trkpt>
      <trkpt lat="40.445236" lon="-3.7634287">
        <ele>609.002</ele>
        <time>2022-02-27T11:40:07Z</time>
      </trkpt>
      <trkpt lat="40.445305" lon="-3.763447">
        <ele>607.697</ele>
        <time>2022-02-27T11:40:12Z</time>
      </trkpt>
      <trkpt lat="40.445374" lon="-3.763476">
        <ele>607.697</ele>
        <time>2022-02-27T11:40:17Z</time>
      </trkpt>
      <trkpt lat="40.44544" lon="-3.7635114">
        <ele>608.352</ele>
        <time>2022-02-27T11:40:22Z</time>
      </trkpt>
      <trkpt lat="40.4455" lon="-3.763548">
        <ele>609.404</ele>
        <time>2022-02-27T11:40:27Z</time>
      </trkpt>
      <trkpt lat="40.445568" lon="-3.7635992">
        <ele>610.022</ele>
        <time>2022-02-27T11:40:32Z</time>
      </trkpt>
      <trkpt lat="40.445637" lon="-3.7636356">
        <ele>610.355</ele>
        <time>2022-02-27T11:40:37Z</time>
      </trkpt>
      <trkpt lat="40.4457" lon="-3.7636716">
        <ele>607.953</ele>
        <time>2022-02-27T11:40:42Z</time>
      </trkpt>
      <trkpt lat="40.44577" lon="-3.7636945">
        <ele>609.113</ele>
        <time>2022-02-27T11:40:47Z</time>
      </trkpt>
      <trkpt lat="40.44585" lon="-3.7637079">
        <ele>608.156</ele>
        <time>2022-02-27T11:40:52Z</time>
      </trkpt>
      <trkpt lat="40.445927" lon="-3.7637017">
        <ele>608.341</ele>
        <time>2022-02-27T11:40:57Z</time>
      </trkpt>
      <trkpt lat="40.44601" lon="-3.7636943">
        <ele>609.409</ele>
        <time>2022-02-27T11:41:02Z</time>
      </trkpt>
      <trkpt lat="40.446068" lon="-3.76365">
        <ele>609.086</ele>
        <time>2022-02-27T11:41:07Z</time>
      </trkpt>
      <trkpt lat="40.446106" lon="-3.763615">
        <ele>608.288</ele>
        <time>2022-02-27T11:41:12Z</time>
      </trkpt>
      <trkpt lat="40.446114" lon="-3.7635949">
        <ele>598.356</ele>
        <time>2022-02-27T11:41:44Z</time>
      </trkpt>
      <trkpt lat="40.446106" lon="-3.76357">
        <ele>606.061</ele>
        <time>2022-02-27T11:43:14Z</time>
      </trkpt>
      <trkpt lat="40.446102" lon="-3.7635527">
        <ele>608.962</ele>
        <time>2022-02-27T11:44:54Z</time>
      </trkpt>
      <trkpt lat="40.446068" lon="-3.7635865">
        <ele>608.613</ele>
        <time>2022-02-27T11:45:59Z</time>
      </trkpt>
      <trkpt lat="40.445927" lon="-3.7636318">
        <ele>613.129</ele>
        <time>2022-02-27T11:46:04Z</time>
      </trkpt>
      <trkpt lat="40.44585" lon="-3.7636635">
        <ele>615.098</ele>
        <time>2022-02-27T11:46:09Z</time>
      </trkpt>
      <trkpt lat="40.44578" lon="-3.763673">
        <ele>617.137</ele>
        <time>2022-02-27T11:46:14Z</time>
      </trkpt>
      <trkpt lat="40.445755" lon="-3.7636368">
        <ele>617.89</ele>
        <time>2022-02-27T11:46:34Z</time>
      </trkpt>
      <trkpt lat="40.445633" lon="-3.7636025">
        <ele>617.904</ele>
        <time>2022-02-27T11:46:44Z</time>
      </trkpt>
      <trkpt lat="40.445568" lon="-3.763575">
        <ele>612.693</ele>
        <time>2022-02-27T11:46:49Z</time>
      </trkpt>
      <trkpt lat="40.445496" lon="-3.763537">
        <ele>612.614</ele>
        <time>2022-02-27T11:46:54Z</time>
      </trkpt>
      <trkpt lat="40.445454" lon="-3.7634947">
        <ele>609.705</ele>
        <time>2022-02-27T11:46:59Z</time>
      </trkpt>
      <trkpt lat="40.44549" lon="-3.7635148">
        <ele>603.403</ele>
        <time>2022-02-27T11:47:14Z</time>
      </trkpt>
      <trkpt lat="40.44545" lon="-3.7634902">
        <ele>591.602</ele>
        <time>2022-02-27T11:47:44Z</time>
      </trkpt>
      <trkpt lat="40.44538" lon="-3.7634363">
        <ele>597.944</ele>
        <time>2022-02-27T11:47:49Z</time>
      </trkpt>
      <trkpt lat="40.44533" lon="-3.7633677">
        <ele>602.528</ele>
        <time>2022-02-27T11:47:54Z</time>
      </trkpt>
      <trkpt lat="40.445316" lon="-3.763281">
        <ele>603.963</ele>
        <time>2022-02-27T11:47:59Z</time>
      </trkpt>
      <trkpt lat="40.445297" lon="-3.7631967">
        <ele>608.323</ele>
        <time>2022-02-27T11:48:04Z</time>
      </trkpt>
      <trkpt lat="40.445274" lon="-3.7631214">
        <ele>608.254</ele>
        <time>2022-02-27T11:48:09Z</time>
      </trkpt>
      <trkpt lat="40.445232" lon="-3.7630615">
        <ele>607.649</ele>
        <time>2022-02-27T11:48:14Z</time>
      </trkpt>
      <trkpt lat="40.44518" lon="-3.762906">
        <ele>610.688</ele>
        <time>2022-02-27T11:48:24Z</time>
      </trkpt>
      <trkpt lat="40.445164" lon="-3.7628253">
        <ele>609.01</ele>
        <time>2022-02-27T11:48:29Z</time>
      </trkpt>
      <trkpt lat="40.445133" lon="-3.7627256">
        <ele>608.13</ele>
        <time>2022-02-27T11:48:34Z</time>
      </trkpt>
      <trkpt lat="40.44508" lon="-3.762648">
        <ele>610.854</ele>
        <time>2022-02-27T11:48:39Z</time>
      </trkpt>
      <trkpt lat="40.44501" lon="-3.7625992">
        <ele>610.931</ele>
        <time>2022-02-27T11:48:44Z</time>
      </trkpt>
      <trkpt lat="40.444935" lon="-3.7625608">
        <ele>609.866</ele>
        <time>2022-02-27T11:48:49Z</time>
      </trkpt>
      <trkpt lat="40.444866" lon="-3.7625206">
        <ele>610.386</ele>
        <time>2022-02-27T11:48:54Z</time>
      </trkpt>
      <trkpt lat="40.44479" lon="-3.7624793">
        <ele>610.96</ele>
        <time>2022-02-27T11:48:59Z</time>
      </trkpt>
      <trkpt lat="40.444744" lon="-3.7624242">
        <ele>609.713</ele>
        <time>2022-02-27T11:49:04Z</time>
      </trkpt>
      <trkpt lat="40.444633" lon="-3.7623155">
        <ele>607.934</ele>
        <time>2022-02-27T11:49:14Z</time>
      </trkpt>
      <trkpt lat="40.444584" lon="-3.7622507">
        <ele>605.385</ele>
        <time>2022-02-27T11:49:19Z</time>
      </trkpt>
      <trkpt lat="40.44454" lon="-3.7621963">
        <ele>606.803</ele>
        <time>2022-02-27T11:49:24Z</time>
      </trkpt>
      <trkpt lat="40.444492" lon="-3.7621264">
        <ele>606.843</ele>
        <time>2022-02-27T11:49:29Z</time>
      </trkpt>
      <trkpt lat="40.44445" lon="-3.7620609">
        <ele>604.077</ele>
        <time>2022-02-27T11:49:34Z</time>
      </trkpt>
      <trkpt lat="40.444393" lon="-3.7619998">
        <ele>606.595</ele>
        <time>2022-02-27T11:49:39Z</time>
      </trkpt>
      <trkpt lat="40.444344" lon="-3.7619395">
        <ele>606.809</ele>
        <time>2022-02-27T11:49:44Z</time>
      </trkpt>
      <trkpt lat="40.444263" lon="-3.761893">
        <ele>605.625</ele>
        <time>2022-02-27T11:49:54Z</time>
      </trkpt>
      <trkpt lat="40.444244" lon="-3.7618935">
        <ele>607.644</ele>
        <time>2022-02-27T11:49:59Z</time>
      </trkpt>
      <trkpt lat="40.444134" lon="-3.76189">
        <ele>605.895</ele>
        <time>2022-02-27T11:50:09Z</time>
      </trkpt>
      <trkpt lat="40.444073" lon="-3.7618754">
        <ele>603.263</ele>
        <time>2022-02-27T11:50:14Z</time>
      </trkpt>
      <trkpt lat="40.44402" lon="-3.7618256">
        <ele>602.549</ele>
        <time>2022-02-27T11:50:19Z</time>
      </trkpt>
      <trkpt lat="40.443977" lon="-3.761775">
        <ele>603.218</ele>
        <time>2022-02-27T11:50:24Z</time>
      </trkpt>
      <trkpt lat="40.443905" lon="-3.7617364">
        <ele>602.66</ele>
        <time>2022-02-27T11:50:29Z</time>
      </trkpt>
      <trkpt lat="40.443848" lon="-3.761704">
        <ele>604.811</ele>
        <time>2022-02-27T11:50:34Z</time>
      </trkpt>
      <trkpt lat="40.44378" lon="-3.7616713">
        <ele>603.271</ele>
        <time>2022-02-27T11:50:39Z</time>
      </trkpt>
      <trkpt lat="40.44372" lon="-3.7616415">
        <ele>603.065</ele>
        <time>2022-02-27T11:50:44Z</time>
      </trkpt>
      <trkpt lat="40.443665" lon="-3.761616">
        <ele>602.116</ele>
        <time>2022-02-27T11:50:49Z</time>
      </trkpt>
      <trkpt lat="40.443604" lon="-3.7616055">
        <ele>602.7</ele>
        <time>2022-02-27T11:50:54Z</time>
      </trkpt>
      <trkpt lat="40.44353" lon="-3.7615683">
        <ele>604.23</ele>
        <time>2022-02-27T11:50:59Z</time>
      </trkpt>
      <trkpt lat="40.44346" lon="-3.761551">
        <ele>602.719</ele>
        <time>2022-02-27T11:51:04Z</time>
      </trkpt>
      <trkpt lat="40.443386" lon="-3.7615516">
        <ele>603.287</ele>
        <time>2022-02-27T11:51:09Z</time>
      </trkpt>
      <trkpt lat="40.443314" lon="-3.761531">
        <ele>602.782</ele>
        <time>2022-02-27T11:51:14Z</time>
      </trkpt>
      <trkpt lat="40.44325" lon="-3.761501">
        <ele>603.815</ele>
        <time>2022-02-27T11:51:19Z</time>
      </trkpt>
      <trkpt lat="40.443188" lon="-3.7615101">
        <ele>602.975</ele>
        <time>2022-02-27T11:51:24Z</time>
      </trkpt>
      <trkpt lat="40.443123" lon="-3.7615192">
        <ele>601.54</ele>
        <time>2022-02-27T11:51:29Z</time>
      </trkpt>
      <trkpt lat="40.443073" lon="-3.761464">
        <ele>602.05</ele>
        <time>2022-02-27T11:51:34Z</time>
      </trkpt>
      <trkpt lat="40.44302" lon="-3.761435">
        <ele>601.315</ele>
        <time>2022-02-27T11:51:39Z</time>
      </trkpt>
      <trkpt lat="40.442955" lon="-3.7614148">
        <ele>601.041</ele>
        <time>2022-02-27T11:51:44Z</time>
      </trkpt>
      <trkpt lat="40.442898" lon="-3.7613666">
        <ele>600.058</ele>
        <time>2022-02-27T11:51:49Z</time>
      </trkpt>
      <trkpt lat="40.442837" lon="-3.7613537">
        <ele>596.623</ele>
        <time>2022-02-27T11:51:59Z</time>
      </trkpt>
      <trkpt lat="40.442738" lon="-3.7613597">
        <ele>597.36</ele>
        <time>2022-02-27T11:52:09Z</time>
      </trkpt>
      <trkpt lat="40.44268" lon="-3.7613428">
        <ele>595.817</ele>
        <time>2022-02-27T11:52:14Z</time>
      </trkpt>
      <trkpt lat="40.44262" lon="-3.761336">
        <ele>595.624</ele>
        <time>2022-02-27T11:52:19Z</time>
      </trkpt>
      <trkpt lat="40.44254" lon="-3.7613304">
        <ele>595.6</ele>
        <time>2022-02-27T11:52:24Z</time>
      </trkpt>
      <trkpt lat="40.44245" lon="-3.7613354">
        <ele>595.682</ele>
        <time>2022-02-27T11:52:34Z</time>
      </trkpt>
      <trkpt lat="40.44242" lon="-3.761342">
        <ele>590.519</ele>
        <time>2022-02-27T11:52:44Z</time>
      </trkpt>
      <trkpt lat="40.44235" lon="-3.7613716">
        <ele>591.135</ele>
        <time>2022-02-27T11:52:49Z</time>
      </trkpt>
      <trkpt lat="40.44228" lon="-3.7613993">
        <ele>595.101</ele>
        <time>2022-02-27T11:52:54Z</time>
      </trkpt>
      <trkpt lat="40.442234" lon="-3.7614348">
        <ele>595.917</ele>
        <time>2022-02-27T11:52:59Z</time>
      </trkpt>
      <trkpt lat="40.44222" lon="-3.7614205">
        <ele>597.381</ele>
        <time>2022-02-27T11:53:10Z</time>
      </trkpt>
      <trkpt lat="40.44217" lon="-3.7613225">
        <ele>594.668</ele>
        <time>2022-02-27T11:53:20Z</time>
      </trkpt>
      <trkpt lat="40.442154" lon="-3.761309">
        <ele>596.802</ele>
        <time>2022-02-27T11:54:00Z</time>
      </trkpt>
      <trkpt lat="40.442047" lon="-3.7613447">
        <ele>597.352</ele>
        <time>2022-02-27T11:54:20Z</time>
      </trkpt>
      <trkpt lat="40.441994" lon="-3.7613943">
        <ele>597.968</ele>
        <time>2022-02-27T11:54:25Z</time>
      </trkpt>
      <trkpt lat="40.44193" lon="-3.761412">
        <ele>596.562</ele>
        <time>2022-02-27T11:54:30Z</time>
      </trkpt>
      <trkpt lat="40.441864" lon="-3.7614374">
        <ele>598.076</ele>
        <time>2022-02-27T11:54:35Z</time>
      </trkpt>
      <trkpt lat="40.44181" lon="-3.7614925">
        <ele>599.471</ele>
        <time>2022-02-27T11:54:40Z</time>
      </trkpt>
      <trkpt lat="40.44176" lon="-3.761569">
        <ele>602.811</ele>
        <time>2022-02-27T11:54:45Z</time>
      </trkpt>
      <trkpt lat="40.44176" lon="-3.7616732">
        <ele>604.415</ele>
        <time>2022-02-27T11:54:50Z</time>
      </trkpt>
      <trkpt lat="40.44175" lon="-3.7617588">
        <ele>604.584</ele>
        <time>2022-02-27T11:54:55Z</time>
      </trkpt>
      <trkpt lat="40.441727" lon="-3.761846">
        <ele>603.691</ele>
        <time>2022-02-27T11:55:00Z</time>
      </trkpt>
      <trkpt lat="40.441704" lon="-3.7619472">
        <ele>603.147</ele>
        <time>2022-02-27T11:55:05Z</time>
      </trkpt>
      <trkpt lat="40.441692" lon="-3.7620404">
        <ele>602.991</ele>
        <time>2022-02-27T11:55:10Z</time>
      </trkpt>
      <trkpt lat="40.441673" lon="-3.7621152">
        <ele>597.503</ele>
        <time>2022-02-27T11:55:15Z</time>
      </trkpt>
      <trkpt lat="40.44166" lon="-3.7622068">
        <ele>595.674</ele>
        <time>2022-02-27T11:55:20Z</time>
      </trkpt>
      <trkpt lat="40.441654" lon="-3.7623098">
        <ele>596.869</ele>
        <time>2022-02-27T11:55:25Z</time>
      </trkpt>
      <trkpt lat="40.44165" lon="-3.7624104">
        <ele>598.951</ele>
        <time>2022-02-27T11:55:30Z</time>
      </trkpt>
      <trkpt lat="40.44163" lon="-3.762501">
        <ele>601.154</ele>
        <time>2022-02-27T11:55:35Z</time>
      </trkpt>
      <trkpt lat="40.441597" lon="-3.7625844">
        <ele>601.389</ele>
        <time>2022-02-27T11:55:40Z</time>
      </trkpt>
      <trkpt lat="40.441544" lon="-3.7626643">
        <ele>601.086</ele>
        <time>2022-02-27T11:55:45Z</time>
      </trkpt>
      <trkpt lat="40.441505" lon="-3.7627552">
        <ele>599.772</ele>
        <time>2022-02-27T11:55:50Z</time>
      </trkpt>
      <trkpt lat="40.441475" lon="-3.762843">
        <ele>601.725</ele>
        <time>2022-02-27T11:55:55Z</time>
      </trkpt>
      <trkpt lat="40.441456" lon="-3.7629254">
        <ele>598.742</ele>
        <time>2022-02-27T11:56:00Z</time>
      </trkpt>
      <trkpt lat="40.441437" lon="-3.7630763">
        <ele>591.906</ele>
        <time>2022-02-27T11:56:15Z</time>
      </trkpt>
      <trkpt lat="40.441433" lon="-3.7631867">
        <ele>591.037</ele>
        <time>2022-02-27T11:56:20Z</time>
      </trkpt>
      <trkpt lat="40.441425" lon="-3.7632647">
        <ele>589.346</ele>
        <time>2022-02-27T11:56:25Z</time>
      </trkpt>
      <trkpt lat="40.441402" lon="-3.7633338">
        <ele>582.304</ele>
        <time>2022-02-27T11:56:30Z</time>
      </trkpt>
      <trkpt lat="40.44135" lon="-3.7634206">
        <ele>583.094</ele>
        <time>2022-02-27T11:56:35Z</time>
      </trkpt>
      <trkpt lat="40.44129" lon="-3.7634838">
        <ele>588.662</ele>
        <time>2022-02-27T11:56:40Z</time>
      </trkpt>
      <trkpt lat="40.44124" lon="-3.7635522">
        <ele>591.486</ele>
        <time>2022-02-27T11:56:45Z</time>
      </trkpt>
      <trkpt lat="40.441177" lon="-3.7636042">
        <ele>593.082</ele>
        <time>2022-02-27T11:56:50Z</time>
      </trkpt>
      <trkpt lat="40.44112" lon="-3.7636757">
        <ele>595.624</ele>
        <time>2022-02-27T11:56:55Z</time>
      </trkpt>
      <trkpt lat="40.441082" lon="-3.763752">
        <ele>595.164</ele>
        <time>2022-02-27T11:57:00Z</time>
      </trkpt>
      <trkpt lat="40.441044" lon="-3.7638302">
        <ele>594.831</ele>
        <time>2022-02-27T11:57:05Z</time>
      </trkpt>
      <trkpt lat="40.44101" lon="-3.7639155">
        <ele>595.135</ele>
        <time>2022-02-27T11:57:10Z</time>
      </trkpt>
      <trkpt lat="40.44097" lon="-3.7639866">
        <ele>595.458</ele>
        <time>2022-02-27T11:57:15Z</time>
      </trkpt>
      <trkpt lat="40.440933" lon="-3.7640743">
        <ele>596.398</ele>
        <time>2022-02-27T11:57:20Z</time>
      </trkpt>
      <trkpt lat="40.4409" lon="-3.7641847">
        <ele>596.168</ele>
        <time>2022-02-27T11:57:25Z</time>
      </trkpt>
      <trkpt lat="40.44086" lon="-3.7642772">
        <ele>596.956</ele>
        <time>2022-02-27T11:57:30Z</time>
      </trkpt>
      <trkpt lat="40.44084" lon="-3.764371">
        <ele>596.137</ele>
        <time>2022-02-27T11:57:35Z</time>
      </trkpt>
      <trkpt lat="40.440815" lon="-3.764449">
        <ele>595.357</ele>
        <time>2022-02-27T11:57:40Z</time>
      </trkpt>
      <trkpt lat="40.440804" lon="-3.764531">
        <ele>592.961</ele>
        <time>2022-02-27T11:57:45Z</time>
      </trkpt>
      <trkpt lat="40.44081" lon="-3.7646031">
        <ele>595.246</ele>
        <time>2022-02-27T11:57:50Z</time>
      </trkpt>
      <trkpt lat="40.44081" lon="-3.7646916">
        <ele>596.723</ele>
        <time>2022-02-27T11:57:55Z</time>
      </trkpt>
      <trkpt lat="40.440796" lon="-3.7647762">
        <ele>596.736</ele>
        <time>2022-02-27T11:58:00Z</time>
      </trkpt>
      <trkpt lat="40.44078" lon="-3.764883">
        <ele>596.972</ele>
        <time>2022-02-27T11:58:05Z</time>
      </trkpt>
      <trkpt lat="40.440765" lon="-3.7649703">
        <ele>596.573</ele>
        <time>2022-02-27T11:58:10Z</time>
      </trkpt>
      <trkpt lat="40.44074" lon="-3.7650697">
        <ele>597.466</ele>
        <time>2022-02-27T11:58:15Z</time>
      </trkpt>
      <trkpt lat="40.44071" lon="-3.7651606">
        <ele>597.241</ele>
        <time>2022-02-27T11:58:20Z</time>
      </trkpt>
      <trkpt lat="40.440662" lon="-3.7652469">
        <ele>598.42</ele>
        <time>2022-02-27T11:58:25Z</time>
      </trkpt>
      <trkpt lat="40.440594" lon="-3.7653267">
        <ele>598.295</ele>
        <time>2022-02-27T11:58:30Z</time>
      </trkpt>
      <trkpt lat="40.440533" lon="-3.7653847">
        <ele>598.055</ele>
        <time>2022-02-27T11:58:35Z</time>
      </trkpt>
      <trkpt lat="40.440475" lon="-3.7654598">
        <ele>595.957</ele>
        <time>2022-02-27T11:58:40Z</time>
      </trkpt>
      <trkpt lat="40.440426" lon="-3.7655218">
        <ele>597.875</ele>
        <time>2022-02-27T11:58:45Z</time>
      </trkpt>
      <trkpt lat="40.440346" lon="-3.7655358">
        <ele>600.732</ele>
        <time>2022-02-27T11:58:50Z</time>
      </trkpt>
      <trkpt lat="40.440296" lon="-3.7655294">
        <ele>597.709</ele>
        <time>2022-02-27T11:59:00Z</time>
      </trkpt>
      <trkpt lat="40.440235" lon="-3.765522">
        <ele>600.544</ele>
        <time>2022-02-27T11:59:05Z</time>
      </trkpt>
      <trkpt lat="40.44019" lon="-3.7654984">
        <ele>599.939</ele>
        <time>2022-02-27T11:59:10Z</time>
      </trkpt>
      <trkpt lat="40.440163" lon="-3.7655275">
        <ele>599.315</ele>
        <time>2022-02-27T11:59:20Z</time>
      </trkpt>
      <trkpt lat="40.44009" lon="-3.7655702">
        <ele>598.863</ele>
        <time>2022-02-27T11:59:35Z</time>
      </trkpt>
      <trkpt lat="40.440018" lon="-3.7655714">
        <ele>598.575</ele>
        <time>2022-02-27T11:59:40Z</time>
      </trkpt>
      <trkpt lat="40.43995" lon="-3.7655606">
        <ele>599.379</ele>
        <time>2022-02-27T11:59:45Z</time>
      </trkpt>
      <trkpt lat="40.43988" lon="-3.7655559">
        <ele>599.72</ele>
        <time>2022-02-27T11:59:50Z</time>
      </trkpt>
      <trkpt lat="40.439796" lon="-3.7655344">
        <ele>597.257</ele>
        <time>2022-02-27T11:59:55Z</time>
      </trkpt>
      <trkpt lat="40.439754" lon="-3.7655618">
        <ele>604.679</ele>
        <time>2022-02-27T12:00:00Z</time>
      </trkpt>
      <trkpt lat="40.43977" lon="-3.765548">
        <ele>595.022</ele>
        <time>2022-02-27T12:00:35Z</time>
      </trkpt>
      <trkpt lat="40.439713" lon="-3.765521">
        <ele>599.997</ele>
        <time>2022-02-27T12:01:00Z</time>
      </trkpt>
      <trkpt lat="40.439655" lon="-3.7655017">
        <ele>597.27</ele>
        <time>2022-02-27T12:01:05Z</time>
      </trkpt>
      <trkpt lat="40.439587" lon="-3.7654867">
        <ele>600.695</ele>
        <time>2022-02-27T12:01:10Z</time>
      </trkpt>
      <trkpt lat="40.439503" lon="-3.7654474">
        <ele>594.757</ele>
        <time>2022-02-27T12:01:15Z</time>
      </trkpt>
      <trkpt lat="40.439438" lon="-3.76541">
        <ele>597.175</ele>
        <time>2022-02-27T12:01:20Z</time>
      </trkpt>
      <trkpt lat="40.439377" lon="-3.7653651">
        <ele>601.442</ele>
        <time>2022-02-27T12:01:25Z</time>
      </trkpt>
      <trkpt lat="40.439293" lon="-3.7652376">
        <ele>603.186</ele>
        <time>2022-02-27T12:01:35Z</time>
      </trkpt>
      <trkpt lat="40.43923" lon="-3.765155">
        <ele>606.185</ele>
        <time>2022-02-27T12:01:40Z</time>
      </trkpt>
      <trkpt lat="40.43918" lon="-3.7650738">
        <ele>606.687</ele>
        <time>2022-02-27T12:01:45Z</time>
      </trkpt>
      <trkpt lat="40.439133" lon="-3.7650032">
        <ele>603.873</ele>
        <time>2022-02-27T12:01:50Z</time>
      </trkpt>
      <trkpt lat="40.43908" lon="-3.7649388">
        <ele>606.389</ele>
        <time>2022-02-27T12:01:55Z</time>
      </trkpt>
      <trkpt lat="40.439037" lon="-3.764894">
        <ele>605.234</ele>
        <time>2022-02-27T12:02:00Z</time>
      </trkpt>
      <trkpt lat="40.438995" lon="-3.76483">
        <ele>604.909</ele>
        <time>2022-02-27T12:02:05Z</time>
      </trkpt>
      <trkpt lat="40.438957" lon="-3.7647626">
        <ele>605.255</ele>
        <time>2022-02-27T12:02:10Z</time>
      </trkpt>
      <trkpt lat="40.4389" lon="-3.7647038">
        <ele>603.036</ele>
        <time>2022-02-27T12:02:15Z</time>
      </trkpt>
      <trkpt lat="40.43883" lon="-3.7646415">
        <ele>604.917</ele>
        <time>2022-02-27T12:02:20Z</time>
      </trkpt>
      <trkpt lat="40.438774" lon="-3.7645802">
        <ele>604.79</ele>
        <time>2022-02-27T12:02:25Z</time>
      </trkpt>
      <trkpt lat="40.438717" lon="-3.7645388">
        <ele>606.304</ele>
        <time>2022-02-27T12:02:30Z</time>
      </trkpt>
      <trkpt lat="40.438637" lon="-3.7644997">
        <ele>605.173</ele>
        <time>2022-02-27T12:02:35Z</time>
      </trkpt>
      <trkpt lat="40.43856" lon="-3.7644658">
        <ele>606.893</ele>
        <time>2022-02-27T12:02:40Z</time>
      </trkpt>
      <trkpt lat="40.438484" lon="-3.7644565">
        <ele>605.501</ele>
        <time>2022-02-27T12:02:45Z</time>
      </trkpt>
      <trkpt lat="40.43842" lon="-3.7644458">
        <ele>605.694</ele>
        <time>2022-02-27T12:02:50Z</time>
      </trkpt>
      <trkpt lat="40.43835" lon="-3.7644339">
        <ele>607.01</ele>
        <time>2022-02-27T12:02:55Z</time>
      </trkpt>
      <trkpt lat="40.438282" lon="-3.76442">
        <ele>606.973</ele>
        <time>2022-02-27T12:03:00Z</time>
      </trkpt>
      <trkpt lat="40.438206" lon="-3.7644217">
        <ele>607.95</ele>
        <time>2022-02-27T12:03:05Z</time>
      </trkpt>
      <trkpt lat="40.43814" lon="-3.7644074">
        <ele>606.661</ele>
        <time>2022-02-27T12:03:10Z</time>
      </trkpt>
      <trkpt lat="40.438" lon="-3.7644138">
        <ele>609.61</ele>
        <time>2022-02-27T12:03:20Z</time>
      </trkpt>
      <trkpt lat="40.43794" lon="-3.76441">
        <ele>609.697</ele>
        <time>2022-02-27T12:03:25Z</time>
      </trkpt>
      <trkpt lat="40.437874" lon="-3.7644112">
        <ele>606.722</ele>
        <time>2022-02-27T12:03:30Z</time>
      </trkpt>
      <trkpt lat="40.437798" lon="-3.7644174">
        <ele>609.396</ele>
        <time>2022-02-27T12:03:35Z</time>
      </trkpt>
      <trkpt lat="40.437733" lon="-3.764416">
        <ele>606.338</ele>
        <time>2022-02-27T12:03:40Z</time>
      </trkpt>
      <trkpt lat="40.43767" lon="-3.7644036">
        <ele>607.744</ele>
        <time>2022-02-27T12:03:45Z</time>
      </trkpt>
      <trkpt lat="40.437603" lon="-3.7643995">
        <ele>609.565</ele>
        <time>2022-02-27T12:03:50Z</time>
      </trkpt>
      <trkpt lat="40.437542" lon="-3.7643912">
        <ele>609.636</ele>
        <time>2022-02-27T12:03:55Z</time>
      </trkpt>
      <trkpt lat="40.43747" lon="-3.7643719">
        <ele>609.887</ele>
        <time>2022-02-27T12:04:00Z</time>
      </trkpt>
      <trkpt lat="40.437412" lon="-3.7643633">
        <ele>611.406</ele>
        <time>2022-02-27T12:04:05Z</time>
      </trkpt>
      <trkpt lat="40.437325" lon="-3.7643285">
        <ele>613.726</ele>
        <time>2022-02-27T12:04:12Z</time>
      </trkpt>
      <trkpt lat="40.437252" lon="-3.764314">
        <ele>612.321</ele>
        <time>2022-02-27T12:04:17Z</time>
      </trkpt>
      <trkpt lat="40.43719" lon="-3.7642982">
        <ele>612.68</ele>
        <time>2022-02-27T12:04:22Z</time>
      </trkpt>
      <trkpt lat="40.437115" lon="-3.764309">
        <ele>612.371</ele>
        <time>2022-02-27T12:04:27Z</time>
      </trkpt>
      <trkpt lat="40.437054" lon="-3.7642987">
        <ele>613.388</ele>
        <time>2022-02-27T12:04:32Z</time>
      </trkpt>
      <trkpt lat="40.43699" lon="-3.7642882">
        <ele>612.899</ele>
        <time>2022-02-27T12:04:37Z</time>
      </trkpt>
      <trkpt lat="40.436924" lon="-3.764279">
        <ele>612.439</ele>
        <time>2022-02-27T12:04:42Z</time>
      </trkpt>
      <trkpt lat="40.436844" lon="-3.764266">
        <ele>613.853</ele>
        <time>2022-02-27T12:04:47Z</time>
      </trkpt>
      <trkpt lat="40.436752" lon="-3.764256">
        <ele>614.072</ele>
        <time>2022-02-27T12:04:52Z</time>
      </trkpt>
      <trkpt lat="40.43668" lon="-3.7642665">
        <ele>614.249</ele>
        <time>2022-02-27T12:04:57Z</time>
      </trkpt>
      <trkpt lat="40.436615" lon="-3.764273">
        <ele>614.913</ele>
        <time>2022-02-27T12:05:02Z</time>
      </trkpt>
      <trkpt lat="40.436543" lon="-3.764286">
        <ele>615.885</ele>
        <time>2022-02-27T12:05:07Z</time>
      </trkpt>
      <trkpt lat="40.436466" lon="-3.7642744">
        <ele>615.663</ele>
        <time>2022-02-27T12:05:12Z</time>
      </trkpt>
      <trkpt lat="40.436398" lon="-3.764275">
        <ele>616.76</ele>
        <time>2022-02-27T12:05:17Z</time>
      </trkpt>
      <trkpt lat="40.436325" lon="-3.7642815">
        <ele>616.086</ele>
        <time>2022-02-27T12:05:22Z</time>
      </trkpt>
      <trkpt lat="40.43625" lon="-3.7642894">
        <ele>615.845</ele>
        <time>2022-02-27T12:05:27Z</time>
      </trkpt>
      <trkpt lat="40.43618" lon="-3.7643106">
        <ele>616.387</ele>
        <time>2022-02-27T12:05:32Z</time>
      </trkpt>
      <trkpt lat="40.43611" lon="-3.7643073">
        <ele>617.441</ele>
        <time>2022-02-27T12:05:37Z</time>
      </trkpt>
      <trkpt lat="40.43604" lon="-3.7642992">
        <ele>617.933</ele>
        <time>2022-02-27T12:05:42Z</time>
      </trkpt>
      <trkpt lat="40.435947" lon="-3.7642744">
        <ele>618.329</ele>
        <time>2022-02-27T12:05:49Z</time>
      </trkpt>
      <trkpt lat="40.43587" lon="-3.7642572">
        <ele>617.954</ele>
        <time>2022-02-27T12:05:54Z</time>
      </trkpt>
      <trkpt lat="40.435802" lon="-3.7642243">
        <ele>617.005</ele>
        <time>2022-02-27T12:05:59Z</time>
      </trkpt>
      <trkpt lat="40.4357" lon="-3.764179">
        <ele>617.396</ele>
        <time>2022-02-27T12:06:07Z</time>
      </trkpt>
      <trkpt lat="40.43564" lon="-3.7641523">
        <ele>617.544</ele>
        <time>2022-02-27T12:06:12Z</time>
      </trkpt>
      <trkpt lat="40.43558" lon="-3.7641234">
        <ele>618.432</ele>
        <time>2022-02-27T12:06:17Z</time>
      </trkpt>
      <trkpt lat="40.43552" lon="-3.7641034">
        <ele>618.694</ele>
        <time>2022-02-27T12:06:22Z</time>
      </trkpt>
      <trkpt lat="40.43545" lon="-3.7640898">
        <ele>620.517</ele>
        <time>2022-02-27T12:06:27Z</time>
      </trkpt>
      <trkpt lat="40.43539" lon="-3.7640753">
        <ele>619.336</ele>
        <time>2022-02-27T12:06:32Z</time>
      </trkpt>
      <trkpt lat="40.435326" lon="-3.764051">
        <ele>620.121</ele>
        <time>2022-02-27T12:06:37Z</time>
      </trkpt>
      <trkpt lat="40.43527" lon="-3.764025">
        <ele>621.941</ele>
        <time>2022-02-27T12:06:42Z</time>
      </trkpt>
      <trkpt lat="40.435196" lon="-3.7640047">
        <ele>620.202</ele>
        <time>2022-02-27T12:06:47Z</time>
      </trkpt>
      <trkpt lat="40.435123" lon="-3.7639768">
        <ele>621.854</ele>
        <time>2022-02-27T12:06:52Z</time>
      </trkpt>
      <trkpt lat="40.435066" lon="-3.7639458">
        <ele>622.536</ele>
        <time>2022-02-27T12:06:57Z</time>
      </trkpt>
      <trkpt lat="40.43501" lon="-3.763906">
        <ele>623.291</ele>
        <time>2022-02-27T12:07:02Z</time>
      </trkpt>
      <trkpt lat="40.43494" lon="-3.763878">
        <ele>625.609</ele>
        <time>2022-02-27T12:07:07Z</time>
      </trkpt>
      <trkpt lat="40.43493" lon="-3.7638452">
        <ele>620.38</ele>
        <time>2022-02-27T12:07:12Z</time>
      </trkpt>
      <trkpt lat="40.43484" lon="-3.7637737">
        <ele>623.022</ele>
        <time>2022-02-27T12:07:22Z</time>
      </trkpt>
      <trkpt lat="40.43479" lon="-3.7637389">
        <ele>625.585</ele>
        <time>2022-02-27T12:07:27Z</time>
      </trkpt>
      <trkpt lat="40.434757" lon="-3.7637033">
        <ele>626.185</ele>
        <time>2022-02-27T12:07:32Z</time>
      </trkpt>
      <trkpt lat="40.4347" lon="-3.7636049">
        <ele>631.961</ele>
        <time>2022-02-27T12:07:47Z</time>
      </trkpt>
      <trkpt lat="40.4347" lon="-3.76352">
        <ele>618.826</ele>
        <time>2022-02-27T12:07:52Z</time>
      </trkpt>
      <trkpt lat="40.434677" lon="-3.7635684">
        <ele>603.469</ele>
        <time>2022-02-27T12:08:11Z</time>
      </trkpt>
      <trkpt lat="40.434628" lon="-3.7635686">
        <ele>611.2</ele>
        <time>2022-02-27T12:08:16Z</time>
      </trkpt>
      <trkpt lat="40.434574" lon="-3.763516">
        <ele>617.653</ele>
        <time>2022-02-27T12:08:21Z</time>
      </trkpt>
      <trkpt lat="40.43451" lon="-3.7634566">
        <ele>622.617</ele>
        <time>2022-02-27T12:08:26Z</time>
      </trkpt>
      <trkpt lat="40.434444" lon="-3.763388">
        <ele>622.832</ele>
        <time>2022-02-27T12:08:31Z</time>
      </trkpt>
      <trkpt lat="40.4344" lon="-3.763336">
        <ele>627.677</ele>
        <time>2022-02-27T12:08:36Z</time>
      </trkpt>
      <trkpt lat="40.434338" lon="-3.7632618">
        <ele>627.006</ele>
        <time>2022-02-27T12:08:42Z</time>
      </trkpt>
      <trkpt lat="40.434265" lon="-3.7631638">
        <ele>628.755</ele>
        <time>2022-02-27T12:08:48Z</time>
      </trkpt>
      <trkpt lat="40.43422" lon="-3.763091">
        <ele>629.308</ele>
        <time>2022-02-27T12:08:53Z</time>
      </trkpt>
      <trkpt lat="40.434174" lon="-3.7630236">
        <ele>629.561</ele>
        <time>2022-02-27T12:08:58Z</time>
      </trkpt>
      <trkpt lat="40.43413" lon="-3.762955">
        <ele>630.077</ele>
        <time>2022-02-27T12:09:03Z</time>
      </trkpt>
      <trkpt lat="40.434082" lon="-3.7629032">
        <ele>630.75</ele>
        <time>2022-02-27T12:09:08Z</time>
      </trkpt>
      <trkpt lat="40.43404" lon="-3.7628498">
        <ele>629.823</ele>
        <time>2022-02-27T12:09:13Z</time>
      </trkpt>
      <trkpt lat="40.434002" lon="-3.7627835">
        <ele>629.456</ele>
        <time>2022-02-27T12:09:18Z</time>
      </trkpt>
      <trkpt lat="40.433937" lon="-3.76272">
        <ele>631.371</ele>
        <time>2022-02-27T12:09:23Z</time>
      </trkpt>
      <trkpt lat="40.43389" lon="-3.762657">
        <ele>630.655</ele>
        <time>2022-02-27T12:09:28Z</time>
      </trkpt>
      <trkpt lat="40.433853" lon="-3.7625813">
        <ele>629.789</ele>
        <time>2022-02-27T12:09:33Z</time>
      </trkpt>
      <trkpt lat="40.4338" lon="-3.7625103">
        <ele>632.523</ele>
        <time>2022-02-27T12:09:38Z</time>
      </trkpt>
      <trkpt lat="40.433758" lon="-3.7624376">
        <ele>630.473</ele>
        <time>2022-02-27T12:09:43Z</time>
      </trkpt>
      <trkpt lat="40.43371" lon="-3.7623682">
        <ele>632.716</ele>
        <time>2022-02-27T12:09:48Z</time>
      </trkpt>
      <trkpt lat="40.433678" lon="-3.7622893">
        <ele>631.826</ele>
        <time>2022-02-27T12:09:53Z</time>
      </trkpt>
      <trkpt lat="40.433643" lon="-3.762212">
        <ele>630.888</ele>
        <time>2022-02-27T12:09:58Z</time>
      </trkpt>
      <trkpt lat="40.433594" lon="-3.762126">
        <ele>631.53</ele>
        <time>2022-02-27T12:10:03Z</time>
      </trkpt>
      <trkpt lat="40.433567" lon="-3.762039">
        <ele>630.55</ele>
        <time>2022-02-27T12:10:08Z</time>
      </trkpt>
      <trkpt lat="40.433537" lon="-3.7619672">
        <ele>636.978</ele>
        <time>2022-02-27T12:10:13Z</time>
      </trkpt>
      <trkpt lat="40.43353" lon="-3.761971">
        <ele>627.403</ele>
        <time>2022-02-27T12:10:18Z</time>
      </trkpt>
      <trkpt lat="40.43347" lon="-3.7619288">
        <ele>624.398</ele>
        <time>2022-02-27T12:10:28Z</time>
      </trkpt>
      <trkpt lat="40.433407" lon="-3.761906">
        <ele>626.835</ele>
        <time>2022-02-27T12:10:33Z</time>
      </trkpt>
      <trkpt lat="40.43334" lon="-3.7618916">
        <ele>626.808</ele>
        <time>2022-02-27T12:10:38Z</time>
      </trkpt>
      <trkpt lat="40.43329" lon="-3.761856">
        <ele>629.913</ele>
        <time>2022-02-27T12:10:43Z</time>
      </trkpt>
      <trkpt lat="40.43323" lon="-3.761795">
        <ele>639.668</ele>
        <time>2022-02-27T12:10:48Z</time>
      </trkpt>
      <trkpt lat="40.43319" lon="-3.761749">
        <ele>642.709</ele>
        <time>2022-02-27T12:10:53Z</time>
      </trkpt>
      <trkpt lat="40.43315" lon="-3.761677">
        <ele>644.223</ele>
        <time>2022-02-27T12:10:58Z</time>
      </trkpt>
      <trkpt lat="40.433136" lon="-3.7616453">
        <ele>633.084</ele>
        <time>2022-02-27T12:11:18Z</time>
      </trkpt>
      <trkpt lat="40.433086" lon="-3.7616096">
        <ele>632.827</ele>
        <time>2022-02-27T12:11:33Z</time>
      </trkpt>
      <trkpt lat="40.433033" lon="-3.76156">
        <ele>637.388</ele>
        <time>2022-02-27T12:11:38Z</time>
      </trkpt>
      <trkpt lat="40.433002" lon="-3.7614803">
        <ele>634.629</ele>
        <time>2022-02-27T12:11:43Z</time>
      </trkpt>
      <trkpt lat="40.432957" lon="-3.7614346">
        <ele>635.85</ele>
        <time>2022-02-27T12:11:48Z</time>
      </trkpt>
      <trkpt lat="40.43286" lon="-3.7613628">
        <ele>639.47</ele>
        <time>2022-02-27T12:11:58Z</time>
      </trkpt>
      <trkpt lat="40.43283" lon="-3.761335">
        <ele>644.847</ele>
        <time>2022-02-27T12:12:23Z</time>
      </trkpt>
      <trkpt lat="40.432846" lon="-3.7613719">
        <ele>634.608</ele>
        <time>2022-02-27T12:12:53Z</time>
      </trkpt>
      <trkpt lat="40.432873" lon="-3.7613542">
        <ele>638.794</ele>
        <time>2022-02-27T12:13:38Z</time>
      </trkpt>
      <trkpt lat="40.432785" lon="-3.7612648">
        <ele>643.97</ele>
        <time>2022-02-27T12:14:06Z</time>
      </trkpt>
      <trkpt lat="40.432713" lon="-3.7612112">
        <ele>642.432</ele>
        <time>2022-02-27T12:14:11Z</time>
      </trkpt>
      <trkpt lat="40.432648" lon="-3.7611406">
        <ele>645.563</ele>
        <time>2022-02-27T12:14:16Z</time>
      </trkpt>
      <trkpt lat="40.43258" lon="-3.761068">
        <ele>647.666</ele>
        <time>2022-02-27T12:14:22Z</time>
      </trkpt>
      <trkpt lat="40.43254" lon="-3.7609923">
        <ele>647.563</ele>
        <time>2022-02-27T12:14:27Z</time>
      </trkpt>
      <trkpt lat="40.432487" lon="-3.7609196">
        <ele>650.073</ele>
        <time>2022-02-27T12:14:32Z</time>
      </trkpt>
      <trkpt lat="40.43243" lon="-3.7608516">
        <ele>650.129</ele>
        <time>2022-02-27T12:14:37Z</time>
      </trkpt>
      <trkpt lat="40.43237" lon="-3.7607827">
        <ele>650.134</ele>
        <time>2022-02-27T12:14:42Z</time>
      </trkpt>
      <trkpt lat="40.43231" lon="-3.7607334">
        <ele>648.853</ele>
        <time>2022-02-27T12:14:47Z</time>
      </trkpt>
      <trkpt lat="40.432247" lon="-3.7606795">
        <ele>646.85</ele>
        <time>2022-02-27T12:14:52Z</time>
      </trkpt>
      <trkpt lat="40.432182" lon="-3.7606368">
        <ele>655.279</ele>
        <time>2022-02-27T12:14:57Z</time>
      </trkpt>
      <trkpt lat="40.432133" lon="-3.7606218">
        <ele>648.898</ele>
        <time>2022-02-27T12:15:02Z</time>
      </trkpt>
      <trkpt lat="40.4321" lon="-3.7606206">
        <ele>633.895</ele>
        <time>2022-02-27T12:15:22Z</time>
      </trkpt>
      <trkpt lat="40.432014" lon="-3.7605975">
        <ele>639.029</ele>
        <time>2022-02-27T12:15:27Z</time>
      </trkpt>
      <trkpt lat="40.431934" lon="-3.760573">
        <ele>645.986</ele>
        <time>2022-02-27T12:15:32Z</time>
      </trkpt>
      <trkpt lat="40.43187" lon="-3.7605617">
        <ele>647.719</ele>
        <time>2022-02-27T12:15:37Z</time>
      </trkpt>
      <trkpt lat="40.43178" lon="-3.7605572">
        <ele>652.322</ele>
        <time>2022-02-27T12:15:42Z</time>
      </trkpt>
      <trkpt lat="40.43171" lon="-3.7605762">
        <ele>653.878</ele>
        <time>2022-02-27T12:15:47Z</time>
      </trkpt>
      <trkpt lat="40.431633" lon="-3.7606037">
        <ele>652.208</ele>
        <time>2022-02-27T12:15:52Z</time>
      </trkpt>
      <trkpt lat="40.431564" lon="-3.7606351">
        <ele>652.853</ele>
        <time>2022-02-27T12:15:57Z</time>
      </trkpt>
      <trkpt lat="40.431503" lon="-3.7606857">
        <ele>651.439</ele>
        <time>2022-02-27T12:16:02Z</time>
      </trkpt>
      <trkpt lat="40.431442" lon="-3.7607226">
        <ele>650.729</ele>
        <time>2022-02-27T12:16:07Z</time>
      </trkpt>
      <trkpt lat="40.431366" lon="-3.7607596">
        <ele>649.328</ele>
        <time>2022-02-27T12:16:12Z</time>
      </trkpt>
      <trkpt lat="40.43129" lon="-3.7607849">
        <ele>649.12</ele>
        <time>2022-02-27T12:16:17Z</time>
      </trkpt>
      <trkpt lat="40.431217" lon="-3.7608016">
        <ele>650.068</ele>
        <time>2022-02-27T12:16:22Z</time>
      </trkpt>
      <trkpt lat="40.431145" lon="-3.7608187">
        <ele>650.39</ele>
        <time>2022-02-27T12:16:27Z</time>
      </trkpt>
      <trkpt lat="40.431065" lon="-3.7608333">
        <ele>648.483</ele>
        <time>2022-02-27T12:16:32Z</time>
      </trkpt>
      <trkpt lat="40.430992" lon="-3.7608378">
        <ele>645.37</ele>
        <time>2022-02-27T12:16:37Z</time>
      </trkpt>
      <trkpt lat="40.430958" lon="-3.7608678">
        <ele>653.553</ele>
        <time>2022-02-27T12:16:42Z</time>
      </trkpt>
      <trkpt lat="40.430992" lon="-3.7609043">
        <ele>642.437</ele>
        <time>2022-02-27T12:17:02Z</time>
      </trkpt>
      <trkpt lat="40.43104" lon="-3.760964">
        <ele>642.902</ele>
        <time>2022-02-27T12:17:07Z</time>
      </trkpt>
      <trkpt lat="40.431038" lon="-3.7610614">
        <ele>643.476</ele>
        <time>2022-02-27T12:17:12Z</time>
      </trkpt>
      <trkpt lat="40.431026" lon="-3.7611494">
        <ele>644.017</ele>
        <time>2022-02-27T12:17:17Z</time>
      </trkpt>
      <trkpt lat="40.431" lon="-3.7612252">
        <ele>636.793</ele>
        <time>2022-02-27T12:17:22Z</time>
      </trkpt>
      <trkpt lat="40.430984" lon="-3.7613218">
        <ele>641.803</ele>
        <time>2022-02-27T12:17:27Z</time>
      </trkpt>
      <trkpt lat="40.43096" lon="-3.7614012">
        <ele>642.849</ele>
        <time>2022-02-27T12:17:32Z</time>
      </trkpt>
      <trkpt lat="40.430916" lon="-3.761474">
        <ele>646.781</ele>
        <time>2022-02-27T12:17:37Z</time>
      </trkpt>
      <trkpt lat="40.430874" lon="-3.7615583">
        <ele>646.807</ele>
        <time>2022-02-27T12:17:42Z</time>
      </trkpt>
      <trkpt lat="40.430836" lon="-3.7616365">
        <ele>647.923</ele>
        <time>2022-02-27T12:17:47Z</time>
      </trkpt>
      <trkpt lat="40.4308" lon="-3.7617161">
        <ele>647.542</ele>
        <time>2022-02-27T12:17:52Z</time>
      </trkpt>
      <trkpt lat="40.43078" lon="-3.7617884">
        <ele>648.734</ele>
        <time>2022-02-27T12:17:57Z</time>
      </trkpt>
      <trkpt lat="40.430763" lon="-3.7618759">
        <ele>647.413</ele>
        <time>2022-02-27T12:18:02Z</time>
      </trkpt>
      <trkpt lat="40.43075" lon="-3.7619512">
        <ele>650.9</ele>
        <time>2022-02-27T12:18:07Z</time>
      </trkpt>
      <trkpt lat="40.43073" lon="-3.7620337">
        <ele>651.606</ele>
        <time>2022-02-27T12:18:12Z</time>
      </trkpt>
      <trkpt lat="40.430702" lon="-3.7621007">
        <ele>650.676</ele>
        <time>2022-02-27T12:18:17Z</time>
      </trkpt>
      <trkpt lat="40.43067" lon="-3.7621865">
        <ele>650.483</ele>
        <time>2022-02-27T12:18:22Z</time>
      </trkpt>
      <trkpt lat="40.43065" lon="-3.7622716">
        <ele>651.812</ele>
        <time>2022-02-27T12:18:27Z</time>
      </trkpt>
      <trkpt lat="40.430634" lon="-3.762386">
        <ele>649.873</ele>
        <time>2022-02-27T12:18:32Z</time>
      </trkpt>
      <trkpt lat="40.430614" lon="-3.7624876">
        <ele>651.616</ele>
        <time>2022-02-27T12:18:37Z</time>
      </trkpt>
      <trkpt lat="40.43059" lon="-3.7625873">
        <ele>648.657</ele>
        <time>2022-02-27T12:18:42Z</time>
      </trkpt>
      <trkpt lat="40.430565" lon="-3.7626703">
        <ele>650.8</ele>
        <time>2022-02-27T12:18:47Z</time>
      </trkpt>
      <trkpt lat="40.43054" lon="-3.762766">
        <ele>650.166</ele>
        <time>2022-02-27T12:18:52Z</time>
      </trkpt>
      <trkpt lat="40.43052" lon="-3.7628615">
        <ele>650.964</ele>
        <time>2022-02-27T12:18:57Z</time>
      </trkpt>
      <trkpt lat="40.430496" lon="-3.762959">
        <ele>649.698</ele>
        <time>2022-02-27T12:19:02Z</time>
      </trkpt>
      <trkpt lat="40.430473" lon="-3.7630613">
        <ele>649.418</ele>
        <time>2022-02-27T12:19:07Z</time>
      </trkpt>
      <trkpt lat="40.43045" lon="-3.763157">
        <ele>650.232</ele>
        <time>2022-02-27T12:19:12Z</time>
      </trkpt>
      <trkpt lat="40.430424" lon="-3.7632382">
        <ele>650.586</ele>
        <time>2022-02-27T12:19:17Z</time>
      </trkpt>
      <trkpt lat="40.430405" lon="-3.7633271">
        <ele>650.758</ele>
        <time>2022-02-27T12:19:22Z</time>
      </trkpt>
      <trkpt lat="40.43038" lon="-3.7634344">
        <ele>649.896</ele>
        <time>2022-02-27T12:19:28Z</time>
      </trkpt>
      <trkpt lat="40.430363" lon="-3.763517">
        <ele>650.174</ele>
        <time>2022-02-27T12:19:33Z</time>
      </trkpt>
      <trkpt lat="40.43032" lon="-3.763607">
        <ele>650.155</ele>
        <time>2022-02-27T12:19:38Z</time>
      </trkpt>
      <trkpt lat="40.430283" lon="-3.7636888">
        <ele>650.626</ele>
        <time>2022-02-27T12:19:43Z</time>
      </trkpt>
      <trkpt lat="40.43027" lon="-3.7637901">
        <ele>649.569</ele>
        <time>2022-02-27T12:19:48Z</time>
      </trkpt>
      <trkpt lat="40.43025" lon="-3.763872">
        <ele>648.195</ele>
        <time>2022-02-27T12:19:53Z</time>
      </trkpt>
      <trkpt lat="40.430206" lon="-3.7639575">
        <ele>647.177</ele>
        <time>2022-02-27T12:19:58Z</time>
      </trkpt>
      <trkpt lat="40.430172" lon="-3.764044">
        <ele>648.75</ele>
        <time>2022-02-27T12:20:03Z</time>
      </trkpt>
      <trkpt lat="40.430145" lon="-3.7641244">
        <ele>649.022</ele>
        <time>2022-02-27T12:20:08Z</time>
      </trkpt>
      <trkpt lat="40.430122" lon="-3.764218">
        <ele>647.23</ele>
        <time>2022-02-27T12:20:13Z</time>
      </trkpt>
      <trkpt lat="40.430107" lon="-3.7642953">
        <ele>645.856</ele>
        <time>2022-02-27T12:20:18Z</time>
      </trkpt>
      <trkpt lat="40.430088" lon="-3.7643764">
        <ele>646.134</ele>
        <time>2022-02-27T12:20:23Z</time>
      </trkpt>
      <trkpt lat="40.430058" lon="-3.764454">
        <ele>647.159</ele>
        <time>2022-02-27T12:20:28Z</time>
      </trkpt>
      <trkpt lat="40.430023" lon="-3.764541">
        <ele>645.69</ele>
        <time>2022-02-27T12:20:33Z</time>
      </trkpt>
      <trkpt lat="40.42998" lon="-3.7646215">
        <ele>646.327</ele>
        <time>2022-02-27T12:20:38Z</time>
      </trkpt>
      <trkpt lat="40.42995" lon="-3.7647116">
        <ele>646.432</ele>
        <time>2022-02-27T12:20:43Z</time>
      </trkpt>
      <trkpt lat="40.4299" lon="-3.764799">
        <ele>644.514</ele>
        <time>2022-02-27T12:20:48Z</time>
      </trkpt>
      <trkpt lat="40.42986" lon="-3.764866">
        <ele>644.482</ele>
        <time>2022-02-27T12:20:53Z</time>
      </trkpt>
      <trkpt lat="40.42983" lon="-3.7649577">
        <ele>646.195</ele>
        <time>2022-02-27T12:20:58Z</time>
      </trkpt>
      <trkpt lat="40.429787" lon="-3.7650478">
        <ele>644.725</ele>
        <time>2022-02-27T12:21:03Z</time>
      </trkpt>
      <trkpt lat="40.42977" lon="-3.7651398">
        <ele>645.151</ele>
        <time>2022-02-27T12:21:08Z</time>
      </trkpt>
      <trkpt lat="40.429745" lon="-3.765229">
        <ele>645.666</ele>
        <time>2022-02-27T12:21:13Z</time>
      </trkpt>
      <trkpt lat="40.42973" lon="-3.7653158">
        <ele>645.552</ele>
        <time>2022-02-27T12:21:18Z</time>
      </trkpt>
      <trkpt lat="40.42971" lon="-3.7654085">
        <ele>645.663</ele>
        <time>2022-02-27T12:21:23Z</time>
      </trkpt>
      <trkpt lat="40.429672" lon="-3.7654953">
        <ele>644.482</ele>
        <time>2022-02-27T12:21:28Z</time>
      </trkpt>
      <trkpt lat="40.429638" lon="-3.7655866">
        <ele>648.528</ele>
        <time>2022-02-27T12:21:33Z</time>
      </trkpt>
      <trkpt lat="40.429615" lon="-3.7656772">
        <ele>652.758</ele>
        <time>2022-02-27T12:21:38Z</time>
      </trkpt>
      <trkpt lat="40.429592" lon="-3.7657945">
        <ele>638.73</ele>
        <time>2022-02-27T12:21:52Z</time>
      </trkpt>
      <trkpt lat="40.429585" lon="-3.7659104">
        <ele>646.966</ele>
        <time>2022-02-27T12:21:58Z</time>
      </trkpt>
      <trkpt lat="40.429585" lon="-3.7659993">
        <ele>645.719</ele>
        <time>2022-02-27T12:22:03Z</time>
      </trkpt>
      <trkpt lat="40.42953" lon="-3.766153">
        <ele>650.221</ele>
        <time>2022-02-27T12:22:13Z</time>
      </trkpt>
      <trkpt lat="40.42949" lon="-3.7662363">
        <ele>651.371</ele>
        <time>2022-02-27T12:22:18Z</time>
      </trkpt>
      <trkpt lat="40.429455" lon="-3.766327">
        <ele>651.564</ele>
        <time>2022-02-27T12:22:23Z</time>
      </trkpt>
      <trkpt lat="40.429424" lon="-3.7664077">
        <ele>652.145</ele>
        <time>2022-02-27T12:22:28Z</time>
      </trkpt>
      <trkpt lat="40.42939" lon="-3.766499">
        <ele>652.227</ele>
        <time>2022-02-27T12:22:33Z</time>
      </trkpt>
      <trkpt lat="40.429363" lon="-3.7665803">
        <ele>652.29</ele>
        <time>2022-02-27T12:22:38Z</time>
      </trkpt>
      <trkpt lat="40.429337" lon="-3.766658">
        <ele>651.381</ele>
        <time>2022-02-27T12:22:43Z</time>
      </trkpt>
      <trkpt lat="40.42931" lon="-3.766747">
        <ele>652.37</ele>
        <time>2022-02-27T12:22:48Z</time>
      </trkpt>
      <trkpt lat="40.429287" lon="-3.7668412">
        <ele>651.22</ele>
        <time>2022-02-27T12:22:53Z</time>
      </trkpt>
      <trkpt lat="40.429264" lon="-3.7669215">
        <ele>649.051</ele>
        <time>2022-02-27T12:22:58Z</time>
      </trkpt>
      <trkpt lat="40.429226" lon="-3.7670138">
        <ele>650.227</ele>
        <time>2022-02-27T12:23:03Z</time>
      </trkpt>
      <trkpt lat="40.429207" lon="-3.7671096">
        <ele>649.463</ele>
        <time>2022-02-27T12:23:08Z</time>
      </trkpt>
      <trkpt lat="40.429176" lon="-3.7672076">
        <ele>648.525</ele>
        <time>2022-02-27T12:23:13Z</time>
      </trkpt>
      <trkpt lat="40.429134" lon="-3.76729">
        <ele>650.081</ele>
        <time>2022-02-27T12:23:18Z</time>
      </trkpt>
      <trkpt lat="40.42909" lon="-3.76738">
        <ele>650.446</ele>
        <time>2022-02-27T12:23:23Z</time>
      </trkpt>
      <trkpt lat="40.429047" lon="-3.7674694">
        <ele>648.678</ele>
        <time>2022-02-27T12:23:28Z</time>
      </trkpt>
      <trkpt lat="40.42901" lon="-3.7675562">
        <ele>648.028</ele>
        <time>2022-02-27T12:23:33Z</time>
      </trkpt>
      <trkpt lat="40.428986" lon="-3.7676415">
        <ele>647.983</ele>
        <time>2022-02-27T12:23:38Z</time>
      </trkpt>
      <trkpt lat="40.428974" lon="-3.7677224">
        <ele>648.39</ele>
        <time>2022-02-27T12:23:43Z</time>
      </trkpt>
      <trkpt lat="40.42896" lon="-3.7678306">
        <ele>649.759</ele>
        <time>2022-02-27T12:23:48Z</time>
      </trkpt>
      <trkpt lat="40.428932" lon="-3.7679098">
        <ele>649.751</ele>
        <time>2022-02-27T12:23:53Z</time>
      </trkpt>
      <trkpt lat="40.4289" lon="-3.767998">
        <ele>649.233</ele>
        <time>2022-02-27T12:23:58Z</time>
      </trkpt>
      <trkpt lat="40.42886" lon="-3.768091">
        <ele>647.917</ele>
        <time>2022-02-27T12:24:03Z</time>
      </trkpt>
      <trkpt lat="40.42883" lon="-3.768176">
        <ele>648.61</ele>
        <time>2022-02-27T12:24:08Z</time>
      </trkpt>
      <trkpt lat="40.428795" lon="-3.768258">
        <ele>647.138</ele>
        <time>2022-02-27T12:24:13Z</time>
      </trkpt>
      <trkpt lat="40.42876" lon="-3.768354">
        <ele>647.806</ele>
        <time>2022-02-27T12:24:18Z</time>
      </trkpt>
      <trkpt lat="40.42873" lon="-3.7684424">
        <ele>646.683</ele>
        <time>2022-02-27T12:24:23Z</time>
      </trkpt>
      <trkpt lat="40.4287" lon="-3.7685144">
        <ele>646.633</ele>
        <time>2022-02-27T12:24:28Z</time>
      </trkpt>
      <trkpt lat="40.42867" lon="-3.768584">
        <ele>645.904</ele>
        <time>2022-02-27T12:24:33Z</time>
      </trkpt>
      <trkpt lat="40.42863" lon="-3.7686682">
        <ele>645.383</ele>
        <time>2022-02-27T12:24:38Z</time>
      </trkpt>
      <trkpt lat="40.42859" lon="-3.768759">
        <ele>646.342</ele>
        <time>2022-02-27T12:24:43Z</time>
      </trkpt>
      <trkpt lat="40.42855" lon="-3.7688406">
        <ele>646.913</ele>
        <time>2022-02-27T12:24:48Z</time>
      </trkpt>
      <trkpt lat="40.428513" lon="-3.7689316">
        <ele>646.171</ele>
        <time>2022-02-27T12:24:53Z</time>
      </trkpt>
      <trkpt lat="40.428474" lon="-3.7690165">
        <ele>644.593</ele>
        <time>2022-02-27T12:24:58Z</time>
      </trkpt>
      <trkpt lat="40.42841" lon="-3.769075">
        <ele>644.086</ele>
        <time>2022-02-27T12:25:03Z</time>
      </trkpt>
      <trkpt lat="40.42835" lon="-3.7691271">
        <ele>647.056</ele>
        <time>2022-02-27T12:25:08Z</time>
      </trkpt>
      <trkpt lat="40.428288" lon="-3.7691903">
        <ele>646.29</ele>
        <time>2022-02-27T12:25:13Z</time>
      </trkpt>
      <trkpt lat="40.42821" lon="-3.7691996">
        <ele>646.445</ele>
        <time>2022-02-27T12:25:18Z</time>
      </trkpt>
      <trkpt lat="40.428123" lon="-3.7691815">
        <ele>645.624</ele>
        <time>2022-02-27T12:25:23Z</time>
      </trkpt>
      <trkpt lat="40.42805" lon="-3.7691767">
        <ele>644.604</ele>
        <time>2022-02-27T12:25:28Z</time>
      </trkpt>
      <trkpt lat="40.42797" lon="-3.769163">
        <ele>643.383</ele>
        <time>2022-02-27T12:25:33Z</time>
      </trkpt>
      <trkpt lat="40.42789" lon="-3.769158">
        <ele>644.424</ele>
        <time>2022-02-27T12:25:38Z</time>
      </trkpt>
      <trkpt lat="40.427814" lon="-3.7691517">
        <ele>644.871</ele>
        <time>2022-02-27T12:25:43Z</time>
      </trkpt>
      <trkpt lat="40.427742" lon="-3.7691512">
        <ele>643.092</ele>
        <time>2022-02-27T12:25:48Z</time>
      </trkpt>
      <trkpt lat="40.42767" lon="-3.7691536">
        <ele>643.864</ele>
        <time>2022-02-27T12:25:53Z</time>
      </trkpt>
      <trkpt lat="40.42761" lon="-3.7691586">
        <ele>642.678</ele>
        <time>2022-02-27T12:25:58Z</time>
      </trkpt>
      <trkpt lat="40.42753" lon="-3.7691727">
        <ele>642.086</ele>
        <time>2022-02-27T12:26:03Z</time>
      </trkpt>
      <trkpt lat="40.427456" lon="-3.7691712">
        <ele>643.037</ele>
        <time>2022-02-27T12:26:08Z</time>
      </trkpt>
      <trkpt lat="40.427387" lon="-3.7691715">
        <ele>641.528</ele>
        <time>2022-02-27T12:26:13Z</time>
      </trkpt>
      <trkpt lat="40.427322" lon="-3.769164">
        <ele>641.795</ele>
        <time>2022-02-27T12:26:18Z</time>
      </trkpt>
      <trkpt lat="40.427242" lon="-3.7691717">
        <ele>641.467</ele>
        <time>2022-02-27T12:26:23Z</time>
      </trkpt>
      <trkpt lat="40.427174" lon="-3.7691562">
        <ele>640.257</ele>
        <time>2022-02-27T12:26:28Z</time>
      </trkpt>
      <trkpt lat="40.427094" lon="-3.7691436">
        <ele>641.824</ele>
        <time>2022-02-27T12:26:33Z</time>
      </trkpt>
      <trkpt lat="40.42702" lon="-3.769135">
        <ele>639.193</ele>
        <time>2022-02-27T12:26:38Z</time>
      </trkpt>
      <trkpt lat="40.42696" lon="-3.7691393">
        <ele>639.969</ele>
        <time>2022-02-27T12:26:43Z</time>
      </trkpt>
      <trkpt lat="40.426884" lon="-3.7691486">
        <ele>640.522</ele>
        <time>2022-02-27T12:26:48Z</time>
      </trkpt>
      <trkpt lat="40.426807" lon="-3.769158">
        <ele>637.39</ele>
        <time>2022-02-27T12:26:53Z</time>
      </trkpt>
      <trkpt lat="40.426735" lon="-3.7691762">
        <ele>639.081</ele>
        <time>2022-02-27T12:26:58Z</time>
      </trkpt>
      <trkpt lat="40.426662" lon="-3.7691753">
        <ele>640.17</ele>
        <time>2022-02-27T12:27:03Z</time>
      </trkpt>
      <trkpt lat="40.426598" lon="-3.7691705">
        <ele>638.923</ele>
        <time>2022-02-27T12:27:08Z</time>
      </trkpt>
      <trkpt lat="40.42654" lon="-3.7691555">
        <ele>641.137</ele>
        <time>2022-02-27T12:27:13Z</time>
      </trkpt>
      <trkpt lat="40.42648" lon="-3.769124">
        <ele>641.253</ele>
        <time>2022-02-27T12:27:18Z</time>
      </trkpt>
      <trkpt lat="40.42642" lon="-3.7690988">
        <ele>641.769</ele>
        <time>2022-02-27T12:27:23Z</time>
      </trkpt>
      <trkpt lat="40.42635" lon="-3.7690632">
        <ele>640.741</ele>
        <time>2022-02-27T12:27:28Z</time>
      </trkpt>
      <trkpt lat="40.426285" lon="-3.76903">
        <ele>645.809</ele>
        <time>2022-02-27T12:27:33Z</time>
      </trkpt>
      <trkpt lat="40.42629" lon="-3.769029">
        <ele>645.888</ele>
        <time>2022-02-27T12:27:38Z</time>
      </trkpt>
      <trkpt lat="40.426216" lon="-3.768983">
        <ele>641.269</ele>
        <time>2022-02-27T12:27:48Z</time>
      </trkpt>
      <trkpt lat="40.426144" lon="-3.7689302">
        <ele>641.301</ele>
        <time>2022-02-27T12:27:53Z</time>
      </trkpt>
      <trkpt lat="40.426083" lon="-3.7688715">
        <ele>642.162</ele>
        <time>2022-02-27T12:27:58Z</time>
      </trkpt>
      <trkpt lat="40.42602" lon="-3.7688282">
        <ele>641.449</ele>
        <time>2022-02-27T12:28:03Z</time>
      </trkpt>
      <trkpt lat="40.42596" lon="-3.768772">
        <ele>642.725</ele>
        <time>2022-02-27T12:28:08Z</time>
      </trkpt>
      <trkpt lat="40.425922" lon="-3.768696">
        <ele>644.422</ele>
        <time>2022-02-27T12:28:13Z</time>
      </trkpt>
      <trkpt lat="40.42588" lon="-3.7686217">
        <ele>645.581</ele>
        <time>2022-02-27T12:28:18Z</time>
      </trkpt>
      <trkpt lat="40.425842" lon="-3.7685535">
        <ele>646.35</ele>
        <time>2022-02-27T12:28:23Z</time>
      </trkpt>
      <trkpt lat="40.425823" lon="-3.768465">
        <ele>646.028</ele>
        <time>2022-02-27T12:28:28Z</time>
      </trkpt>
      <trkpt lat="40.4258" lon="-3.768369">
        <ele>646.097</ele>
        <time>2022-02-27T12:28:33Z</time>
      </trkpt>
      <trkpt lat="40.425774" lon="-3.7682629">
        <ele>644.03</ele>
        <time>2022-02-27T12:28:38Z</time>
      </trkpt>
      <trkpt lat="40.425747" lon="-3.7681658">
        <ele>644.905</ele>
        <time>2022-02-27T12:28:43Z</time>
      </trkpt>
      <trkpt lat="40.425716" lon="-3.7680874">
        <ele>646.517</ele>
        <time>2022-02-27T12:28:48Z</time>
      </trkpt>
      <trkpt lat="40.425705" lon="-3.767991">
        <ele>645.188</ele>
        <time>2022-02-27T12:28:53Z</time>
      </trkpt>
      <trkpt lat="40.425686" lon="-3.7679098">
        <ele>643.795</ele>
        <time>2022-02-27T12:28:58Z</time>
      </trkpt>
      <trkpt lat="40.425667" lon="-3.7678108">
        <ele>645.492</ele>
        <time>2022-02-27T12:29:03Z</time>
      </trkpt>
      <trkpt lat="40.425648" lon="-3.767712">
        <ele>645.661</ele>
        <time>2022-02-27T12:29:08Z</time>
      </trkpt>
      <trkpt lat="40.425632" lon="-3.7676256">
        <ele>644.754</ele>
        <time>2022-02-27T12:29:13Z</time>
      </trkpt>
      <trkpt lat="40.425625" lon="-3.7675285">
        <ele>643.801</ele>
        <time>2022-02-27T12:29:18Z</time>
      </trkpt>
      <trkpt lat="40.42561" lon="-3.7674215">
        <ele>645.175</ele>
        <time>2022-02-27T12:29:23Z</time>
      </trkpt>
      <trkpt lat="40.425594" lon="-3.7673216">
        <ele>645.095</ele>
        <time>2022-02-27T12:29:28Z</time>
      </trkpt>
      <trkpt lat="40.425575" lon="-3.7672303">
        <ele>644.186</ele>
        <time>2022-02-27T12:29:33Z</time>
      </trkpt>
      <trkpt lat="40.425556" lon="-3.7671452">
        <ele>644.332</ele>
        <time>2022-02-27T12:29:38Z</time>
      </trkpt>
      <trkpt lat="40.42554" lon="-3.7670472">
        <ele>645.061</ele>
        <time>2022-02-27T12:29:43Z</time>
      </trkpt>
      <trkpt lat="40.42553" lon="-3.766947">
        <ele>644.48</ele>
        <time>2022-02-27T12:29:48Z</time>
      </trkpt>
      <trkpt lat="40.4255" lon="-3.766811">
        <ele>642.593</ele>
        <time>2022-02-27T12:29:55Z</time>
      </trkpt>
      <trkpt lat="40.42548" lon="-3.766705">
        <ele>642.302</ele>
        <time>2022-02-27T12:30:00Z</time>
      </trkpt>
      <trkpt lat="40.425457" lon="-3.766603">
        <ele>644.208</ele>
        <time>2022-02-27T12:30:05Z</time>
      </trkpt>
      <trkpt lat="40.425438" lon="-3.7665064">
        <ele>644.702</ele>
        <time>2022-02-27T12:30:10Z</time>
      </trkpt>
      <trkpt lat="40.425423" lon="-3.766394">
        <ele>642.921</ele>
        <time>2022-02-27T12:30:15Z</time>
      </trkpt>
      <trkpt lat="40.425407" lon="-3.7663083">
        <ele>644.02</ele>
        <time>2022-02-27T12:30:20Z</time>
      </trkpt>
      <trkpt lat="40.425404" lon="-3.7662218">
        <ele>643.153</ele>
        <time>2022-02-27T12:30:25Z</time>
      </trkpt>
      <trkpt lat="40.425396" lon="-3.7661335">
        <ele>643.978</ele>
        <time>2022-02-27T12:30:30Z</time>
      </trkpt>
      <trkpt lat="40.425392" lon="-3.766028">
        <ele>643.74</ele>
        <time>2022-02-27T12:30:35Z</time>
      </trkpt>
      <trkpt lat="40.425392" lon="-3.7659273">
        <ele>643.676</ele>
        <time>2022-02-27T12:30:40Z</time>
      </trkpt>
      <trkpt lat="40.425377" lon="-3.7658248">
        <ele>643.859</ele>
        <time>2022-02-27T12:30:45Z</time>
      </trkpt>
      <trkpt lat="40.42536" lon="-3.7657332">
        <ele>643.254</ele>
        <time>2022-02-27T12:30:50Z</time>
      </trkpt>
      <trkpt lat="40.425354" lon="-3.765645">
        <ele>642.324</ele>
        <time>2022-02-27T12:30:55Z</time>
      </trkpt>
      <trkpt lat="40.42536" lon="-3.7655442">
        <ele>643.949</ele>
        <time>2022-02-27T12:31:00Z</time>
      </trkpt>
      <trkpt lat="40.425365" lon="-3.7654378">
        <ele>643.573</ele>
        <time>2022-02-27T12:31:05Z</time>
      </trkpt>
      <trkpt lat="40.425365" lon="-3.7653468">
        <ele>642.205</ele>
        <time>2022-02-27T12:31:10Z</time>
      </trkpt>
      <trkpt lat="40.42537" lon="-3.7652364">
        <ele>642.794</ele>
        <time>2022-02-27T12:31:15Z</time>
      </trkpt>
      <trkpt lat="40.42536" lon="-3.7651415">
        <ele>644.046</ele>
        <time>2022-02-27T12:31:20Z</time>
      </trkpt>
      <trkpt lat="40.425343" lon="-3.765037">
        <ele>644.189</ele>
        <time>2022-02-27T12:31:25Z</time>
      </trkpt>
      <trkpt lat="40.425335" lon="-3.7649257">
        <ele>644.044</ele>
        <time>2022-02-27T12:31:30Z</time>
      </trkpt>
      <trkpt lat="40.42532" lon="-3.7648335">
        <ele>644.361</ele>
        <time>2022-02-27T12:31:35Z</time>
      </trkpt>
      <trkpt lat="40.425304" lon="-3.7647393">
        <ele>644.178</ele>
        <time>2022-02-27T12:31:40Z</time>
      </trkpt>
      <trkpt lat="40.425297" lon="-3.7646482">
        <ele>644.443</ele>
        <time>2022-02-27T12:31:45Z</time>
      </trkpt>
      <trkpt lat="40.425297" lon="-3.7645378">
        <ele>642.929</ele>
        <time>2022-02-27T12:31:50Z</time>
      </trkpt>
      <trkpt lat="40.42529" lon="-3.7644393">
        <ele>643.386</ele>
        <time>2022-02-27T12:31:55Z</time>
      </trkpt>
      <trkpt lat="40.425285" lon="-3.7643523">
        <ele>646.831</ele>
        <time>2022-02-27T12:32:00Z</time>
      </trkpt>
      <trkpt lat="40.425285" lon="-3.7643678">
        <ele>634.125</ele>
        <time>2022-02-27T12:32:15Z</time>
      </trkpt>
      <trkpt lat="40.425255" lon="-3.7642665">
        <ele>636.989</ele>
        <time>2022-02-27T12:32:50Z</time>
      </trkpt>
      <trkpt lat="40.42524" lon="-3.764152">
        <ele>641.216</ele>
        <time>2022-02-27T12:32:55Z</time>
      </trkpt>
      <trkpt lat="40.425217" lon="-3.7640467">
        <ele>643.251</ele>
        <time>2022-02-27T12:33:00Z</time>
      </trkpt>
      <trkpt lat="40.425205" lon="-3.7639542">
        <ele>644.641</ele>
        <time>2022-02-27T12:33:05Z</time>
      </trkpt>
      <trkpt lat="40.42516" lon="-3.7638113">
        <ele>645.286</ele>
        <time>2022-02-27T12:33:13Z</time>
      </trkpt>
      <trkpt lat="40.42513" lon="-3.7636929">
        <ele>646.747</ele>
        <time>2022-02-27T12:33:18Z</time>
      </trkpt>
      <trkpt lat="40.42511" lon="-3.7636037">
        <ele>646.601</ele>
        <time>2022-02-27T12:33:23Z</time>
      </trkpt>
      <trkpt lat="40.42508" lon="-3.7635057">
        <ele>645.518</ele>
        <time>2022-02-27T12:33:28Z</time>
      </trkpt>
      <trkpt lat="40.42506" lon="-3.7634225">
        <ele>645.428</ele>
        <time>2022-02-27T12:33:33Z</time>
      </trkpt>
      <trkpt lat="40.425034" lon="-3.763324">
        <ele>646.517</ele>
        <time>2022-02-27T12:33:38Z</time>
      </trkpt>
      <trkpt lat="40.424995" lon="-3.763244">
        <ele>645.65</ele>
        <time>2022-02-27T12:33:43Z</time>
      </trkpt>
      <trkpt lat="40.42496" lon="-3.763157">
        <ele>645.608</ele>
        <time>2022-02-27T12:33:48Z</time>
      </trkpt>
      <trkpt lat="40.424927" lon="-3.7630699">
        <ele>645.56</ele>
        <time>2022-02-27T12:33:53Z</time>
      </trkpt>
      <trkpt lat="40.424892" lon="-3.7629666">
        <ele>644.215</ele>
        <time>2022-02-27T12:33:58Z</time>
      </trkpt>
      <trkpt lat="40.424862" lon="-3.7628834">
        <ele>645.188</ele>
        <time>2022-02-27T12:34:03Z</time>
      </trkpt>
      <trkpt lat="40.424828" lon="-3.7627923">
        <ele>643.404</ele>
        <time>2022-02-27T12:34:08Z</time>
      </trkpt>
      <trkpt lat="40.424797" lon="-3.762718">
        <ele>642.757</ele>
        <time>2022-02-27T12:34:13Z</time>
      </trkpt>
      <trkpt lat="40.42476" lon="-3.7626212">
        <ele>642.197</ele>
        <time>2022-02-27T12:34:18Z</time>
      </trkpt>
      <trkpt lat="40.424725" lon="-3.762535">
        <ele>641.224</ele>
        <time>2022-02-27T12:34:23Z</time>
      </trkpt>
      <trkpt lat="40.424698" lon="-3.7624433">
        <ele>642.368</ele>
        <time>2022-02-27T12:34:28Z</time>
      </trkpt>
      <trkpt lat="40.424652" lon="-3.7623484">
        <ele>641.785</ele>
        <time>2022-02-27T12:34:33Z</time>
      </trkpt>
      <trkpt lat="40.424618" lon="-3.7622647">
        <ele>642.752</ele>
        <time>2022-02-27T12:34:38Z</time>
      </trkpt>
      <trkpt lat="40.424583" lon="-3.7621856">
        <ele>641.563</ele>
        <time>2022-02-27T12:34:43Z</time>
      </trkpt>
      <trkpt lat="40.424545" lon="-3.7620938">
        <ele>641.919</ele>
        <time>2022-02-27T12:34:48Z</time>
      </trkpt>
      <trkpt lat="40.424522" lon="-3.7619925">
        <ele>641.224</ele>
        <time>2022-02-27T12:34:53Z</time>
      </trkpt>
      <trkpt lat="40.4245" lon="-3.761902">
        <ele>641.264</ele>
        <time>2022-02-27T12:34:58Z</time>
      </trkpt>
      <trkpt lat="40.424477" lon="-3.7618096">
        <ele>640.35</ele>
        <time>2022-02-27T12:35:03Z</time>
      </trkpt>
      <trkpt lat="40.42444" lon="-3.7617273">
        <ele>640.722</ele>
        <time>2022-02-27T12:35:08Z</time>
      </trkpt>
      <trkpt lat="40.424416" lon="-3.7616317">
        <ele>641.335</ele>
        <time>2022-02-27T12:35:13Z</time>
      </trkpt>
      <trkpt lat="40.424416" lon="-3.7615614">
        <ele>644.85</ele>
        <time>2022-02-27T12:35:18Z</time>
      </trkpt>
      <trkpt lat="40.42439" lon="-3.7614758">
        <ele>639.121</ele>
        <time>2022-02-27T12:35:38Z</time>
      </trkpt>
      <trkpt lat="40.424362" lon="-3.7613769">
        <ele>640.022</ele>
        <time>2022-02-27T12:35:43Z</time>
      </trkpt>
      <trkpt lat="40.424343" lon="-3.7612858">
        <ele>639.512</ele>
        <time>2022-02-27T12:35:48Z</time>
      </trkpt>
      <trkpt lat="40.424286" lon="-3.761133">
        <ele>641.211</ele>
        <time>2022-02-27T12:35:58Z</time>
      </trkpt>
      <trkpt lat="40.42425" lon="-3.7610345">
        <ele>642.284</ele>
        <time>2022-02-27T12:36:03Z</time>
      </trkpt>
      <trkpt lat="40.42422" lon="-3.7609396">
        <ele>641.354</ele>
        <time>2022-02-27T12:36:08Z</time>
      </trkpt>
      <trkpt lat="40.424187" lon="-3.7608511">
        <ele>641.494</ele>
        <time>2022-02-27T12:36:13Z</time>
      </trkpt>
      <trkpt lat="40.42417" lon="-3.7607615">
        <ele>626.375</ele>
        <time>2022-02-27T12:36:18Z</time>
      </trkpt>
      <trkpt lat="40.4241" lon="-3.7606022">
        <ele>644.712</ele>
        <time>2022-02-27T12:36:28Z</time>
      </trkpt>
      <trkpt lat="40.424072" lon="-3.76052">
        <ele>638.453</ele>
        <time>2022-02-27T12:36:33Z</time>
      </trkpt>
      <trkpt lat="40.424095" lon="-3.7605402">
        <ele>637.089</ele>
        <time>2022-02-27T12:36:38Z</time>
      </trkpt>
      <trkpt lat="40.42411" lon="-3.7605455">
        <ele>626.882</ele>
        <time>2022-02-27T12:37:08Z</time>
      </trkpt>
      <trkpt lat="40.424065" lon="-3.760471">
        <ele>625.809</ele>
        <time>2022-02-27T12:37:13Z</time>
      </trkpt>
      <trkpt lat="40.424038" lon="-3.7603867">
        <ele>629.509</ele>
        <time>2022-02-27T12:37:18Z</time>
      </trkpt>
      <trkpt lat="40.424015" lon="-3.7602837">
        <ele>633.667</ele>
        <time>2022-02-27T12:37:23Z</time>
      </trkpt>
      <trkpt lat="40.42399" lon="-3.760182">
        <ele>638.947</ele>
        <time>2022-02-27T12:37:28Z</time>
      </trkpt>
      <trkpt lat="40.423958" lon="-3.7600865">
        <ele>642.553</ele>
        <time>2022-02-27T12:37:33Z</time>
      </trkpt>
      <trkpt lat="40.423935" lon="-3.759992">
        <ele>643.626</ele>
        <time>2022-02-27T12:37:38Z</time>
      </trkpt>
      <trkpt lat="40.4239" lon="-3.759908">
        <ele>645.885</ele>
        <time>2022-02-27T12:37:43Z</time>
      </trkpt>
      <trkpt lat="40.423866" lon="-3.75981">
        <ele>645.143</ele>
        <time>2022-02-27T12:37:48Z</time>
      </trkpt>
      <trkpt lat="40.423836" lon="-3.759712">
        <ele>646.718</ele>
        <time>2022-02-27T12:37:53Z</time>
      </trkpt>
      <trkpt lat="40.4238" lon="-3.759619">
        <ele>646.271</ele>
        <time>2022-02-27T12:37:58Z</time>
      </trkpt>
      <trkpt lat="40.42378" lon="-3.7595305">
        <ele>647.568</ele>
        <time>2022-02-27T12:38:03Z</time>
      </trkpt>
      <trkpt lat="40.423756" lon="-3.7594466">
        <ele>649.825</ele>
        <time>2022-02-27T12:38:08Z</time>
      </trkpt>
      <trkpt lat="40.423717" lon="-3.7593641">
        <ele>646.734</ele>
        <time>2022-02-27T12:38:13Z</time>
      </trkpt>
      <trkpt lat="40.423668" lon="-3.7593012">
        <ele>647.738</ele>
        <time>2022-02-27T12:38:18Z</time>
      </trkpt>
      <trkpt lat="40.423615" lon="-3.7592328">
        <ele>649.072</ele>
        <time>2022-02-27T12:38:23Z</time>
      </trkpt>
      <trkpt lat="40.423576" lon="-3.7591562">
        <ele>647.455</ele>
        <time>2022-02-27T12:38:28Z</time>
      </trkpt>
      <trkpt lat="40.42354" lon="-3.7590768">
        <ele>648.71</ele>
        <time>2022-02-27T12:38:33Z</time>
      </trkpt>
      <trkpt lat="40.423508" lon="-3.758996">
        <ele>648.417</ele>
        <time>2022-02-27T12:38:38Z</time>
      </trkpt>
      <trkpt lat="40.42348" lon="-3.7589517">
        <ele>645.082</ele>
        <time>2022-02-27T12:38:48Z</time>
      </trkpt>
      <trkpt lat="40.42347" lon="-3.7589161">
        <ele>637.655</ele>
        <time>2022-02-27T12:38:58Z</time>
      </trkpt>
      <trkpt lat="40.42343" lon="-3.758843">
        <ele>639.227</ele>
        <time>2022-02-27T12:39:03Z</time>
      </trkpt>
      <trkpt lat="40.42337" lon="-3.758793">
        <ele>640.226</ele>
        <time>2022-02-27T12:39:08Z</time>
      </trkpt>
      <trkpt lat="40.42335" lon="-3.7587745">
        <ele>640.923</ele>
        <time>2022-02-27T12:39:13Z</time>
      </trkpt>
      <trkpt lat="40.423294" lon="-3.7586987">
        <ele>641.002</ele>
        <time>2022-02-27T12:39:23Z</time>
      </trkpt>
      <trkpt lat="40.423233" lon="-3.758649">
        <ele>641.182</ele>
        <time>2022-02-27T12:39:28Z</time>
      </trkpt>
      <trkpt lat="40.423172" lon="-3.7585921">
        <ele>640.997</ele>
        <time>2022-02-27T12:39:33Z</time>
      </trkpt>
      <trkpt lat="40.42312" lon="-3.7585323">
        <ele>642.371</ele>
        <time>2022-02-27T12:39:38Z</time>
      </trkpt>
      <trkpt lat="40.423054" lon="-3.7584822">
        <ele>642.551</ele>
        <time>2022-02-27T12:39:43Z</time>
      </trkpt>
      <trkpt lat="40.422985" lon="-3.7584536">
        <ele>641.216</ele>
        <time>2022-02-27T12:39:48Z</time>
      </trkpt>
      <trkpt lat="40.422924" lon="-3.758392">
        <ele>640.812</ele>
        <time>2022-02-27T12:39:53Z</time>
      </trkpt>
      <trkpt lat="40.42292" lon="-3.7583776">
        <ele>639.887</ele>
        <time>2022-02-27T12:39:58Z</time>
      </trkpt>
      <trkpt lat="40.42289" lon="-3.758315">
        <ele>637.89</ele>
        <time>2022-02-27T12:40:58Z</time>
      </trkpt>
      <trkpt lat="40.422848" lon="-3.758229">
        <ele>637.647</ele>
        <time>2022-02-27T12:41:03Z</time>
      </trkpt>
      <trkpt lat="40.42279" lon="-3.758153">
        <ele>639.185</ele>
        <time>2022-02-27T12:41:08Z</time>
      </trkpt>
      <trkpt lat="40.422737" lon="-3.7580817">
        <ele>638.725</ele>
        <time>2022-02-27T12:41:13Z</time>
      </trkpt>
      <trkpt lat="40.42267" lon="-3.7580397">
        <ele>638.627</ele>
        <time>2022-02-27T12:41:18Z</time>
      </trkpt>
      <trkpt lat="40.422604" lon="-3.7580118">
        <ele>639.002</ele>
        <time>2022-02-27T12:41:23Z</time>
      </trkpt>
      <trkpt lat="40.422554" lon="-3.7580385">
        <ele>639.732</ele>
        <time>2022-02-27T12:41:28Z</time>
      </trkpt>
      <trkpt lat="40.422504" lon="-3.7581103">
        <ele>639.074</ele>
        <time>2022-02-27T12:41:38Z</time>
      </trkpt>
      <trkpt lat="40.422462" lon="-3.758184">
        <ele>636.867</ele>
        <time>2022-02-27T12:41:43Z</time>
      </trkpt>
      <trkpt lat="40.42241" lon="-3.758255">
        <ele>637.359</ele>
        <time>2022-02-27T12:41:48Z</time>
      </trkpt>
      <trkpt lat="40.422363" lon="-3.7583165">
        <ele>638.281</ele>
        <time>2022-02-27T12:41:53Z</time>
      </trkpt>
      <trkpt lat="40.422314" lon="-3.7583735">
        <ele>637.137</ele>
        <time>2022-02-27T12:41:58Z</time>
      </trkpt>
      <trkpt lat="40.422256" lon="-3.7584255">
        <ele>637.626</ele>
        <time>2022-02-27T12:42:03Z</time>
      </trkpt>
      <trkpt lat="40.422188" lon="-3.7584274">
        <ele>637.953</ele>
        <time>2022-02-27T12:42:08Z</time>
      </trkpt>
      <trkpt lat="40.422123" lon="-3.758389">
        <ele>637.961</ele>
        <time>2022-02-27T12:42:13Z</time>
      </trkpt>
      <trkpt lat="40.422062" lon="-3.7583838">
        <ele>637.591</ele>
        <time>2022-02-27T12:42:18Z</time>
      </trkpt>
      <trkpt lat="40.421974" lon="-3.7584186">
        <ele>635.351</ele>
        <time>2022-02-27T12:42:53Z</time>
      </trkpt>
      <trkpt lat="40.421894" lon="-3.7584348">
        <ele>636.505</ele>
        <time>2022-02-27T12:42:58Z</time>
      </trkpt>
      <trkpt lat="40.42183" lon="-3.7584765">
        <ele>636.999</ele>
        <time>2022-02-27T12:43:03Z</time>
      </trkpt>
      <trkpt lat="40.42177" lon="-3.7585373">
        <ele>638.442</ele>
        <time>2022-02-27T12:43:08Z</time>
      </trkpt>
      <trkpt lat="40.421703" lon="-3.7585907">
        <ele>638.984</ele>
        <time>2022-02-27T12:43:13Z</time>
      </trkpt>
      <trkpt lat="40.42164" lon="-3.7586343">
        <ele>639.179</ele>
        <time>2022-02-27T12:43:18Z</time>
      </trkpt>
      <trkpt lat="40.421577" lon="-3.7586794">
        <ele>639.454</ele>
        <time>2022-02-27T12:43:23Z</time>
      </trkpt>
      <trkpt lat="40.421513" lon="-3.758737">
        <ele>640.278</ele>
        <time>2022-02-27T12:43:28Z</time>
      </trkpt>
      <trkpt lat="40.421448" lon="-3.7587879">
        <ele>640.138</ele>
        <time>2022-02-27T12:43:33Z</time>
      </trkpt>
      <trkpt lat="40.421387" lon="-3.7588346">
        <ele>640.154</ele>
        <time>2022-02-27T12:43:38Z</time>
      </trkpt>
      <trkpt lat="40.42133" lon="-3.7588842">
        <ele>639.898</ele>
        <time>2022-02-27T12:43:43Z</time>
      </trkpt>
      <trkpt lat="40.421265" lon="-3.758926">
        <ele>640.952</ele>
        <time>2022-02-27T12:43:48Z</time>
      </trkpt>
      <trkpt lat="40.421196" lon="-3.7589724">
        <ele>639.893</ele>
        <time>2022-02-27T12:43:53Z</time>
      </trkpt>
      <trkpt lat="40.42112" lon="-3.7590141">
        <ele>642.744</ele>
        <time>2022-02-27T12:43:58Z</time>
      </trkpt>
      <trkpt lat="40.421036" lon="-3.7590415">
        <ele>643.795</ele>
        <time>2022-02-27T12:44:03Z</time>
      </trkpt>
      <trkpt lat="40.420967" lon="-3.7590766">
        <ele>643.84</ele>
        <time>2022-02-27T12:44:08Z</time>
      </trkpt>
      <trkpt lat="40.420902" lon="-3.7591286">
        <ele>644.527</ele>
        <time>2022-02-27T12:44:13Z</time>
      </trkpt>
      <trkpt lat="40.420845" lon="-3.7591248">
        <ele>643.959</ele>
        <time>2022-02-27T12:44:18Z</time>
      </trkpt>
      <trkpt lat="40.42073" lon="-3.7592015">
        <ele>640.561</ele>
        <time>2022-02-27T12:44:28Z</time>
      </trkpt>
      <trkpt lat="40.42067" lon="-3.759262">
        <ele>638.432</ele>
        <time>2022-02-27T12:44:33Z</time>
      </trkpt>
      <trkpt lat="40.420616" lon="-3.7593284">
        <ele>637.811</ele>
        <time>2022-02-27T12:44:38Z</time>
      </trkpt>
      <trkpt lat="40.420555" lon="-3.75939">
        <ele>636.069</ele>
        <time>2022-02-27T12:44:43Z</time>
      </trkpt>
      <trkpt lat="40.420498" lon="-3.7594461">
        <ele>635.831</ele>
        <time>2022-02-27T12:44:48Z</time>
      </trkpt>
      <trkpt lat="40.42045" lon="-3.7595189">
        <ele>628.232</ele>
        <time>2022-02-27T12:44:53Z</time>
      </trkpt>
      <trkpt lat="40.420418" lon="-3.7595649">
        <ele>623.371</ele>
        <time>2022-02-27T12:44:58Z</time>
      </trkpt>
      <trkpt lat="40.420364" lon="-3.7596314">
        <ele>622.039</ele>
        <time>2022-02-27T12:45:03Z</time>
      </trkpt>
      <trkpt lat="40.420334" lon="-3.7597077">
        <ele>621.373</ele>
        <time>2022-02-27T12:45:08Z</time>
      </trkpt>
      <trkpt lat="40.42037" lon="-3.7598026">
        <ele>620.084</ele>
        <time>2022-02-27T12:45:13Z</time>
      </trkpt>
      <trkpt lat="40.42033" lon="-3.7598808">
        <ele>618.76</ele>
        <time>2022-02-27T12:45:18Z</time>
      </trkpt>
      <trkpt lat="40.42028" lon="-3.759949">
        <ele>618.202</ele>
        <time>2022-02-27T12:45:23Z</time>
      </trkpt>
      <trkpt lat="40.42025" lon="-3.760039">
        <ele>617.454</ele>
        <time>2022-02-27T12:45:28Z</time>
      </trkpt>
      <trkpt lat="40.420193" lon="-3.7600877">
        <ele>616.947</ele>
        <time>2022-02-27T12:45:33Z</time>
      </trkpt>
      <trkpt lat="40.42014" lon="-3.7601428">
        <ele>617.988</ele>
        <time>2022-02-27T12:45:38Z</time>
      </trkpt>
      <trkpt lat="40.42006" lon="-3.7601552">
        <ele>611.552</ele>
        <time>2022-02-27T12:45:43Z</time>
      </trkpt>
      <trkpt lat="40.420017" lon="-3.7601602">
        <ele>613.473</ele>
        <time>2022-02-27T12:45:48Z</time>
      </trkpt>
      <trkpt lat="40.41998" lon="-3.7601717">
        <ele>615.119</ele>
        <time>2022-02-27T12:45:58Z</time>
      </trkpt>
      <trkpt lat="40.41991" lon="-3.760214">
        <ele>615.008</ele>
        <time>2022-02-27T12:46:03Z</time>
      </trkpt>
      <trkpt lat="40.419846" lon="-3.7602658">
        <ele>615.748</ele>
        <time>2022-02-27T12:46:08Z</time>
      </trkpt>
      <trkpt lat="40.419777" lon="-3.7602844">
        <ele>616.361</ele>
        <time>2022-02-27T12:46:13Z</time>
      </trkpt>
      <trkpt lat="40.419697" lon="-3.7603137">
        <ele>616.931</ele>
        <time>2022-02-27T12:46:18Z</time>
      </trkpt>
      <trkpt lat="40.41963" lon="-3.7603364">
        <ele>617.579</ele>
        <time>2022-02-27T12:46:23Z</time>
      </trkpt>
      <trkpt lat="40.419556" lon="-3.7603493">
        <ele>618.403</ele>
        <time>2022-02-27T12:46:28Z</time>
      </trkpt>
      <trkpt lat="40.419483" lon="-3.760367">
        <ele>617.885</ele>
        <time>2022-02-27T12:46:33Z</time>
      </trkpt>
      <trkpt lat="40.41941" lon="-3.7603464">
        <ele>620.575</ele>
        <time>2022-02-27T12:46:38Z</time>
      </trkpt>
      <trkpt lat="40.419342" lon="-3.760344">
        <ele>620.765</ele>
        <time>2022-02-27T12:46:43Z</time>
      </trkpt>
      <trkpt lat="40.419277" lon="-3.7603445">
        <ele>618.348</ele>
        <time>2022-02-27T12:46:48Z</time>
      </trkpt>
      <trkpt lat="40.419212" lon="-3.7603862">
        <ele>618.073</ele>
        <time>2022-02-27T12:46:53Z</time>
      </trkpt>
      <trkpt lat="40.41924" lon="-3.7604718">
        <ele>617.692</ele>
        <time>2022-02-27T12:46:58Z</time>
      </trkpt>
      <trkpt lat="40.419285" lon="-3.760536">
        <ele>616.292</ele>
        <time>2022-02-27T12:47:03Z</time>
      </trkpt>
      <trkpt lat="40.419292" lon="-3.7606313">
        <ele>617.684</ele>
        <time>2022-02-27T12:47:13Z</time>
      </trkpt>
      <trkpt lat="40.41934" lon="-3.7606874">
        <ele>618.11</ele>
        <time>2022-02-27T12:47:18Z</time>
      </trkpt>
      <trkpt lat="40.419342" lon="-3.760765">
        <ele>618.871</ele>
        <time>2022-02-27T12:47:23Z</time>
      </trkpt>
      <trkpt lat="40.419357" lon="-3.7608745">
        <ele>619.555</ele>
        <time>2022-02-27T12:47:28Z</time>
      </trkpt>
      <trkpt lat="40.41935" lon="-3.760981">
        <ele>618.673</ele>
        <time>2022-02-27T12:47:33Z</time>
      </trkpt>
      <trkpt lat="40.41935" lon="-3.7610693">
        <ele>616.96</ele>
        <time>2022-02-27T12:47:38Z</time>
      </trkpt>
      <trkpt lat="40.41936" lon="-3.7611496">
        <ele>615.143</ele>
        <time>2022-02-27T12:47:43Z</time>
      </trkpt>
      <trkpt lat="40.41938" lon="-3.7612658">
        <ele>618.178</ele>
        <time>2022-02-27T12:47:59Z</time>
      </trkpt>
      <trkpt lat="40.419384" lon="-3.7614038">
        <ele>613.536</ele>
        <time>2022-02-27T12:48:06Z</time>
      </trkpt>
      <trkpt lat="40.41933" lon="-3.761549">
        <ele>618.065</ele>
        <time>2022-02-27T12:48:14Z</time>
      </trkpt>
      <trkpt lat="40.419292" lon="-3.761645">
        <ele>621.64</ele>
        <time>2022-02-27T12:48:20Z</time>
      </trkpt>
      <trkpt lat="40.419266" lon="-3.7617426">
        <ele>623.368</ele>
        <time>2022-02-27T12:48:25Z</time>
      </trkpt>
      <trkpt lat="40.419235" lon="-3.7618265">
        <ele>623.73</ele>
        <time>2022-02-27T12:48:30Z</time>
      </trkpt>
      <trkpt lat="40.4192" lon="-3.7619174">
        <ele>624.531</ele>
        <time>2022-02-27T12:48:35Z</time>
      </trkpt>
      <trkpt lat="40.41918" lon="-3.7620094">
        <ele>624.343</ele>
        <time>2022-02-27T12:48:40Z</time>
      </trkpt>
      <trkpt lat="40.41915" lon="-3.7621124">
        <ele>623.146</ele>
        <time>2022-02-27T12:48:46Z</time>
      </trkpt>
      <trkpt lat="40.41914" lon="-3.7622023">
        <ele>622.966</ele>
        <time>2022-02-27T12:48:51Z</time>
      </trkpt>
      <trkpt lat="40.419132" lon="-3.7623153">
        <ele>622.303</ele>
        <time>2022-02-27T12:48:56Z</time>
      </trkpt>
      <trkpt lat="40.41912" lon="-3.7623985">
        <ele>621.011</ele>
        <time>2022-02-27T12:49:01Z</time>
      </trkpt>
      <trkpt lat="40.419094" lon="-3.7624857">
        <ele>621.785</ele>
        <time>2022-02-27T12:49:06Z</time>
      </trkpt>
      <trkpt lat="40.41906" lon="-3.762582">
        <ele>621.426</ele>
        <time>2022-02-27T12:49:11Z</time>
      </trkpt>
      <trkpt lat="40.419025" lon="-3.7626717">
        <ele>621.524</ele>
        <time>2022-02-27T12:49:16Z</time>
      </trkpt>
      <trkpt lat="40.419" lon="-3.7627976">
        <ele>621.719</ele>
        <time>2022-02-27T12:49:23Z</time>
      </trkpt>
      <trkpt lat="40.41898" lon="-3.762877">
        <ele>620.797</ele>
        <time>2022-02-27T12:49:28Z</time>
      </trkpt>
      <trkpt lat="40.41895" lon="-3.762958">
        <ele>620.176</ele>
        <time>2022-02-27T12:49:33Z</time>
      </trkpt>
      <trkpt lat="40.41892" lon="-3.7630565">
        <ele>621.891</ele>
        <time>2022-02-27T12:49:38Z</time>
      </trkpt>
      <trkpt lat="40.4189" lon="-3.7631323">
        <ele>622.332</ele>
        <time>2022-02-27T12:49:43Z</time>
      </trkpt>
      <trkpt lat="40.418873" lon="-3.763226">
        <ele>623.059</ele>
        <time>2022-02-27T12:49:48Z</time>
      </trkpt>
      <trkpt lat="40.418842" lon="-3.7633264">
        <ele>623.841</ele>
        <time>2022-02-27T12:49:53Z</time>
      </trkpt>
      <trkpt lat="40.41882" lon="-3.7634158">
        <ele>624.242</ele>
        <time>2022-02-27T12:49:58Z</time>
      </trkpt>
      <trkpt lat="40.418793" lon="-3.763513">
        <ele>623.233</ele>
        <time>2022-02-27T12:50:03Z</time>
      </trkpt>
      <trkpt lat="40.41878" lon="-3.7636003">
        <ele>622.335</ele>
        <time>2022-02-27T12:50:08Z</time>
      </trkpt>
      <trkpt lat="40.418785" lon="-3.7636957">
        <ele>623.64</ele>
        <time>2022-02-27T12:50:13Z</time>
      </trkpt>
      <trkpt lat="40.41879" lon="-3.7637897">
        <ele>624.776</ele>
        <time>2022-02-27T12:50:18Z</time>
      </trkpt>
      <trkpt lat="40.418797" lon="-3.7638726">
        <ele>626.377</ele>
        <time>2022-02-27T12:50:23Z</time>
      </trkpt>
      <trkpt lat="40.4188" lon="-3.7639709">
        <ele>624.089</ele>
        <time>2022-02-27T12:50:28Z</time>
      </trkpt>
      <trkpt lat="40.418808" lon="-3.7640748">
        <ele>624.002</ele>
        <time>2022-02-27T12:50:33Z</time>
      </trkpt>
      <trkpt lat="40.41883" lon="-3.7641778">
        <ele>625.334</ele>
        <time>2022-02-27T12:50:38Z</time>
      </trkpt>
      <trkpt lat="40.41884" lon="-3.7642782">
        <ele>625.429</ele>
        <time>2022-02-27T12:50:43Z</time>
      </trkpt>
      <trkpt lat="40.418854" lon="-3.764372">
        <ele>626.391</ele>
        <time>2022-02-27T12:50:48Z</time>
      </trkpt>
      <trkpt lat="40.418865" lon="-3.7644553">
        <ele>626.021</ele>
        <time>2022-02-27T12:50:53Z</time>
      </trkpt>
      <trkpt lat="40.418873" lon="-3.7645526">
        <ele>625.638</ele>
        <time>2022-02-27T12:50:58Z</time>
      </trkpt>
      <trkpt lat="40.418884" lon="-3.7646258">
        <ele>627.685</ele>
        <time>2022-02-27T12:51:03Z</time>
      </trkpt>
      <trkpt lat="40.418896" lon="-3.764713">
        <ele>627.899</ele>
        <time>2022-02-27T12:51:08Z</time>
      </trkpt>
      <trkpt lat="40.41891" lon="-3.7648103">
        <ele>628.6</ele>
        <time>2022-02-27T12:51:13Z</time>
      </trkpt>
      <trkpt lat="40.418915" lon="-3.76489">
        <ele>626.975</ele>
        <time>2022-02-27T12:51:18Z</time>
      </trkpt>
      <trkpt lat="40.418934" lon="-3.7649825">
        <ele>626.977</ele>
        <time>2022-02-27T12:51:23Z</time>
      </trkpt>
      <trkpt lat="40.41895" lon="-3.7650857">
        <ele>628.275</ele>
        <time>2022-02-27T12:51:28Z</time>
      </trkpt>
      <trkpt lat="40.418953" lon="-3.7651849">
        <ele>628.568</ele>
        <time>2022-02-27T12:51:33Z</time>
      </trkpt>
      <trkpt lat="40.418938" lon="-3.7652698">
        <ele>630.798</ele>
        <time>2022-02-27T12:51:43Z</time>
      </trkpt>
      <trkpt lat="40.41897" lon="-3.7653434">
        <ele>626.861</ele>
        <time>2022-02-27T12:51:58Z</time>
      </trkpt>
      <trkpt lat="40.418964" lon="-3.765424">
        <ele>627.456</ele>
        <time>2022-02-27T12:52:03Z</time>
      </trkpt>
      <trkpt lat="40.418964" lon="-3.7655048">
        <ele>629.532</ele>
        <time>2022-02-27T12:52:08Z</time>
      </trkpt>
      <trkpt lat="40.41896" lon="-3.7655003">
        <ele>620.448</ele>
        <time>2022-02-27T12:52:18Z</time>
      </trkpt>
      <trkpt lat="40.41897" lon="-3.765558">
        <ele>623.569</ele>
        <time>2022-02-27T12:52:33Z</time>
      </trkpt>
      <trkpt lat="40.418976" lon="-3.7657318">
        <ele>627.228</ele>
        <time>2022-02-27T12:52:48Z</time>
      </trkpt>
      <trkpt lat="40.41897" lon="-3.7658057">
        <ele>629.612</ele>
        <time>2022-02-27T12:52:53Z</time>
      </trkpt>
      <trkpt lat="40.41896" lon="-3.7658994">
        <ele>632.275</ele>
        <time>2022-02-27T12:52:58Z</time>
      </trkpt>
      <trkpt lat="40.418957" lon="-3.7660034">
        <ele>634.473</ele>
        <time>2022-02-27T12:53:03Z</time>
      </trkpt>
      <trkpt lat="40.41896" lon="-3.7660966">
        <ele>635.292</ele>
        <time>2022-02-27T12:53:08Z</time>
      </trkpt>
      <trkpt lat="40.418953" lon="-3.7661724">
        <ele>636.915</ele>
        <time>2022-02-27T12:53:13Z</time>
      </trkpt>
      <trkpt lat="40.41894" lon="-3.766271">
        <ele>633.596</ele>
        <time>2022-02-27T12:53:18Z</time>
      </trkpt>
      <trkpt lat="40.41891" lon="-3.7663417">
        <ele>633.187</ele>
        <time>2022-02-27T12:53:28Z</time>
      </trkpt>
      <trkpt lat="40.41888" lon="-3.7664292">
        <ele>633.744</ele>
        <time>2022-02-27T12:53:33Z</time>
      </trkpt>
      <trkpt lat="40.418846" lon="-3.7665083">
        <ele>633.395</ele>
        <time>2022-02-27T12:53:38Z</time>
      </trkpt>
      <trkpt lat="40.4188" lon="-3.7666476">
        <ele>632.674</ele>
        <time>2022-02-27T12:53:48Z</time>
      </trkpt>
      <trkpt lat="40.418762" lon="-3.7667077">
        <ele>631.897</ele>
        <time>2022-02-27T12:53:53Z</time>
      </trkpt>
      <trkpt lat="40.418705" lon="-3.7668402">
        <ele>632.021</ele>
        <time>2022-02-27T12:54:03Z</time>
      </trkpt>
      <trkpt lat="40.41867" lon="-3.7669134">
        <ele>634.188</ele>
        <time>2022-02-27T12:54:08Z</time>
      </trkpt>
      <trkpt lat="40.418625" lon="-3.7669835">
        <ele>635.411</ele>
        <time>2022-02-27T12:54:13Z</time>
      </trkpt>
      <trkpt lat="40.41858" lon="-3.767049">
        <ele>635.887</ele>
        <time>2022-02-27T12:54:18Z</time>
      </trkpt>
      <trkpt lat="40.418526" lon="-3.7671063">
        <ele>635.797</ele>
        <time>2022-02-27T12:54:23Z</time>
      </trkpt>
      <trkpt lat="40.418476" lon="-3.767163">
        <ele>636.64</ele>
        <time>2022-02-27T12:54:29Z</time>
      </trkpt>
      <trkpt lat="40.41837" lon="-3.767249">
        <ele>641.209</ele>
        <time>2022-02-27T12:54:39Z</time>
      </trkpt>
      <trkpt lat="40.418327" lon="-3.7673216">
        <ele>644.76</ele>
        <time>2022-02-27T12:54:44Z</time>
      </trkpt>
      <trkpt lat="40.418285" lon="-3.7673857">
        <ele>646.377</ele>
        <time>2022-02-27T12:54:49Z</time>
      </trkpt>
      <trkpt lat="40.41823" lon="-3.7674487">
        <ele>646.078</ele>
        <time>2022-02-27T12:54:54Z</time>
      </trkpt>
      <trkpt lat="40.418182" lon="-3.7675087">
        <ele>645.095</ele>
        <time>2022-02-27T12:54:59Z</time>
      </trkpt>
      <trkpt lat="40.41814" lon="-3.7675834">
        <ele>644.76</ele>
        <time>2022-02-27T12:55:04Z</time>
      </trkpt>
      <trkpt lat="40.41809" lon="-3.7676308">
        <ele>646.424</ele>
        <time>2022-02-27T12:55:09Z</time>
      </trkpt>
      <trkpt lat="40.41804" lon="-3.767678">
        <ele>647.529</ele>
        <time>2022-02-27T12:55:14Z</time>
      </trkpt>
      <trkpt lat="40.418003" lon="-3.7677553">
        <ele>648.166</ele>
        <time>2022-02-27T12:55:19Z</time>
      </trkpt>
      <trkpt lat="40.417965" lon="-3.767812">
        <ele>647.846</ele>
        <time>2022-02-27T12:55:24Z</time>
      </trkpt>
      <trkpt lat="40.417934" lon="-3.7678895">
        <ele>649.479</ele>
        <time>2022-02-27T12:55:29Z</time>
      </trkpt>
      <trkpt lat="40.417908" lon="-3.7679713">
        <ele>649.067</ele>
        <time>2022-02-27T12:55:34Z</time>
      </trkpt>
      <trkpt lat="40.417866" lon="-3.7680385">
        <ele>649.347</ele>
        <time>2022-02-27T12:55:39Z</time>
      </trkpt>
      <trkpt lat="40.41781" lon="-3.7681055">
        <ele>649.624</ele>
        <time>2022-02-27T12:55:44Z</time>
      </trkpt>
      <trkpt lat="40.417755" lon="-3.7681406">
        <ele>650.028</ele>
        <time>2022-02-27T12:55:49Z</time>
      </trkpt>
      <trkpt lat="40.417706" lon="-3.7682064">
        <ele>650.087</ele>
        <time>2022-02-27T12:55:54Z</time>
      </trkpt>
      <trkpt lat="40.41767" lon="-3.7682636">
        <ele>650.137</ele>
        <time>2022-02-27T12:55:59Z</time>
      </trkpt>
      <trkpt lat="40.417625" lon="-3.7683105">
        <ele>649.981</ele>
        <time>2022-02-27T12:56:04Z</time>
      </trkpt>
      <trkpt lat="40.417583" lon="-3.7683573">
        <ele>650.544</ele>
        <time>2022-02-27T12:56:09Z</time>
      </trkpt>
      <trkpt lat="40.417538" lon="-3.7684116">
        <ele>650.747</ele>
        <time>2022-02-27T12:56:14Z</time>
      </trkpt>
      <trkpt lat="40.417492" lon="-3.7684672">
        <ele>650.108</ele>
        <time>2022-02-27T12:56:19Z</time>
      </trkpt>
      <trkpt lat="40.41745" lon="-3.7685213">
        <ele>649.957</ele>
        <time>2022-02-27T12:56:24Z</time>
      </trkpt>
      <trkpt lat="40.41741" lon="-3.7685688">
        <ele>650.874</ele>
        <time>2022-02-27T12:56:29Z</time>
      </trkpt>
      <trkpt lat="40.417355" lon="-3.7686284">
        <ele>651.424</ele>
        <time>2022-02-27T12:56:34Z</time>
      </trkpt>
      <trkpt lat="40.41734" lon="-3.7686183">
        <ele>641.647</ele>
        <time>2022-02-27T12:56:44Z</time>
      </trkpt>
      <trkpt lat="40.417248" lon="-3.7687047">
        <ele>649.196</ele>
        <time>2022-02-27T12:57:19Z</time>
      </trkpt>
      <trkpt lat="40.41721" lon="-3.7687926">
        <ele>648.8</ele>
        <time>2022-02-27T12:57:24Z</time>
      </trkpt>
      <trkpt lat="40.417156" lon="-3.7688322">
        <ele>649.468</ele>
        <time>2022-02-27T12:57:29Z</time>
      </trkpt>
      <trkpt lat="40.417084" lon="-3.7688825">
        <ele>649.524</ele>
        <time>2022-02-27T12:57:34Z</time>
      </trkpt>
      <trkpt lat="40.41703" lon="-3.7689419">
        <ele>647.685</ele>
        <time>2022-02-27T12:57:39Z</time>
      </trkpt>
      <trkpt lat="40.416977" lon="-3.7689934">
        <ele>648.271</ele>
        <time>2022-02-27T12:57:44Z</time>
      </trkpt>
      <trkpt lat="40.416912" lon="-3.7690501">
        <ele>647.571</ele>
        <time>2022-02-27T12:57:49Z</time>
      </trkpt>
      <trkpt lat="40.41681" lon="-3.7691402">
        <ele>647.299</ele>
        <time>2022-02-27T12:57:59Z</time>
      </trkpt>
      <trkpt lat="40.41674" lon="-3.7692106">
        <ele>646.961</ele>
        <time>2022-02-27T12:58:04Z</time>
      </trkpt>
      <trkpt lat="40.416676" lon="-3.769263">
        <ele>646.641</ele>
        <time>2022-02-27T12:58:09Z</time>
      </trkpt>
      <trkpt lat="40.41658" lon="-3.7693408">
        <ele>645.035</ele>
        <time>2022-02-27T12:58:19Z</time>
      </trkpt>
      <trkpt lat="40.4165" lon="-3.769381">
        <ele>643.56</ele>
        <time>2022-02-27T12:58:24Z</time>
      </trkpt>
      <trkpt lat="40.416485" lon="-3.7693858">
        <ele>637.515</ele>
        <time>2022-02-27T12:58:29Z</time>
      </trkpt>
      <trkpt lat="40.41642" lon="-3.7694204">
        <ele>638.944</ele>
        <time>2022-02-27T12:58:39Z</time>
      </trkpt>
      <trkpt lat="40.41635" lon="-3.7694619">
        <ele>638.751</ele>
        <time>2022-02-27T12:58:44Z</time>
      </trkpt>
      <trkpt lat="40.416294" lon="-3.7695138">
        <ele>638.138</ele>
        <time>2022-02-27T12:58:49Z</time>
      </trkpt>
      <trkpt lat="40.416237" lon="-3.769554">
        <ele>633.726</ele>
        <time>2022-02-27T12:58:54Z</time>
      </trkpt>
      <trkpt lat="40.416183" lon="-3.7696042">
        <ele>636.093</ele>
        <time>2022-02-27T12:58:59Z</time>
      </trkpt>
      <trkpt lat="40.416153" lon="-3.769683">
        <ele>637.367</ele>
        <time>2022-02-27T12:59:04Z</time>
      </trkpt>
      <trkpt lat="40.416115" lon="-3.7697372">
        <ele>637.591</ele>
        <time>2022-02-27T12:59:09Z</time>
      </trkpt>
      <trkpt lat="40.416058" lon="-3.769815">
        <ele>638.326</ele>
        <time>2022-02-27T12:59:14Z</time>
      </trkpt>
      <trkpt lat="40.415997" lon="-3.7698421">
        <ele>635.411</ele>
        <time>2022-02-27T12:59:19Z</time>
      </trkpt>
      <trkpt lat="40.415916" lon="-3.769974">
        <ele>637.171</ele>
        <time>2022-02-27T12:59:29Z</time>
      </trkpt>
      <trkpt lat="40.415863" lon="-3.7700503">
        <ele>637.071</ele>
        <time>2022-02-27T12:59:34Z</time>
      </trkpt>
      <trkpt lat="40.415806" lon="-3.770088">
        <ele>636.653</ele>
        <time>2022-02-27T12:59:39Z</time>
      </trkpt>
      <trkpt lat="40.415745" lon="-3.7701406">
        <ele>635.446</ele>
        <time>2022-02-27T12:59:44Z</time>
      </trkpt>
      <trkpt lat="40.415737" lon="-3.770134">
        <ele>633.475</ele>
        <time>2022-02-27T12:59:49Z</time>
      </trkpt>
      <trkpt lat="40.415665" lon="-3.77027">
        <ele>630.949</ele>
        <time>2022-02-27T13:00:09Z</time>
      </trkpt>
      <trkpt lat="40.415638" lon="-3.770342">
        <ele>632.257</ele>
        <time>2022-02-27T13:00:14Z</time>
      </trkpt>
      <trkpt lat="40.41565" lon="-3.770445">
        <ele>633.327</ele>
        <time>2022-02-27T13:00:19Z</time>
      </trkpt>
      <trkpt lat="40.415657" lon="-3.7705371">
        <ele>634.83</ele>
        <time>2022-02-27T13:00:24Z</time>
      </trkpt>
      <trkpt lat="40.415657" lon="-3.770641">
        <ele>632.087</ele>
        <time>2022-02-27T13:00:29Z</time>
      </trkpt>
      <trkpt lat="40.415634" lon="-3.770716">
        <ele>634.164</ele>
        <time>2022-02-27T13:00:34Z</time>
      </trkpt>
      <trkpt lat="40.415573" lon="-3.770789">
        <ele>635.263</ele>
        <time>2022-02-27T13:00:39Z</time>
      </trkpt>
      <trkpt lat="40.415543" lon="-3.7708616">
        <ele>635.147</ele>
        <time>2022-02-27T13:00:44Z</time>
      </trkpt>
      <trkpt lat="40.41551" lon="-3.7709336">
        <ele>633.469</ele>
        <time>2022-02-27T13:00:49Z</time>
      </trkpt>
      <trkpt lat="40.415485" lon="-3.771034">
        <ele>633.831</ele>
        <time>2022-02-27T13:00:54Z</time>
      </trkpt>
      <trkpt lat="40.415432" lon="-3.7710812">
        <ele>633.689</ele>
        <time>2022-02-27T13:00:59Z</time>
      </trkpt>
      <trkpt lat="40.415356" lon="-3.7710965">
        <ele>633.657</ele>
        <time>2022-02-27T13:01:04Z</time>
      </trkpt>
      <trkpt lat="40.415295" lon="-3.771102">
        <ele>632.753</ele>
        <time>2022-02-27T13:01:09Z</time>
      </trkpt>
      <trkpt lat="40.41523" lon="-3.771138">
        <ele>632.542</ele>
        <time>2022-02-27T13:01:14Z</time>
      </trkpt>
      <trkpt lat="40.415188" lon="-3.7712066">
        <ele>625.294</ele>
        <time>2022-02-27T13:01:19Z</time>
      </trkpt>
      <trkpt lat="40.41516" lon="-3.7712886">
        <ele>629.355</ele>
        <time>2022-02-27T13:01:24Z</time>
      </trkpt>
      <trkpt lat="40.415134" lon="-3.7713819">
        <ele>629.361</ele>
        <time>2022-02-27T13:01:29Z</time>
      </trkpt>
      <trkpt lat="40.415115" lon="-3.7714765">
        <ele>629.612</ele>
        <time>2022-02-27T13:01:39Z</time>
      </trkpt>
      <trkpt lat="40.41505" lon="-3.771494">
        <ele>632.183</ele>
        <time>2022-02-27T13:01:49Z</time>
      </trkpt>
      <trkpt lat="40.41498" lon="-3.7714286">
        <ele>632.774</ele>
        <time>2022-02-27T13:01:59Z</time>
      </trkpt>
      <trkpt lat="40.41496" lon="-3.7714233">
        <ele>632.925</ele>
        <time>2022-02-27T13:02:09Z</time>
      </trkpt>
      <trkpt lat="40.414967" lon="-3.7715251">
        <ele>638.043</ele>
        <time>2022-02-27T13:02:29Z</time>
      </trkpt>
      <trkpt lat="40.41499" lon="-3.7716029">
        <ele>637.171</ele>
        <time>2022-02-27T13:02:34Z</time>
      </trkpt>
      <trkpt lat="40.415005" lon="-3.771687">
        <ele>631.115</ele>
        <time>2022-02-27T13:02:39Z</time>
      </trkpt>
      <trkpt lat="40.415005" lon="-3.7717736">
        <ele>634.36</ele>
        <time>2022-02-27T13:02:44Z</time>
      </trkpt>
      <trkpt lat="40.415024" lon="-3.7718835">
        <ele>636.495</ele>
        <time>2022-02-27T13:02:49Z</time>
      </trkpt>
      <trkpt lat="40.415024" lon="-3.7719853">
        <ele>637.612</ele>
        <time>2022-02-27T13:02:54Z</time>
      </trkpt>
      <trkpt lat="40.41503" lon="-3.772081">
        <ele>636.484</ele>
        <time>2022-02-27T13:02:59Z</time>
      </trkpt>
      <trkpt lat="40.415012" lon="-3.7721689">
        <ele>636.426</ele>
        <time>2022-02-27T13:03:04Z</time>
      </trkpt>
      <trkpt lat="40.415016" lon="-3.7722552">
        <ele>638.804</ele>
        <time>2022-02-27T13:03:09Z</time>
      </trkpt>
      <trkpt lat="40.415035" lon="-3.772343">
        <ele>638.109</ele>
        <time>2022-02-27T13:03:14Z</time>
      </trkpt>
      <trkpt lat="40.415043" lon="-3.772431">
        <ele>636.299</ele>
        <time>2022-02-27T13:03:19Z</time>
      </trkpt>
      <trkpt lat="40.41505" lon="-3.7725253">
        <ele>638.498</ele>
        <time>2022-02-27T13:03:24Z</time>
      </trkpt>
      <trkpt lat="40.41506" lon="-3.7726285">
        <ele>639.531</ele>
        <time>2022-02-27T13:03:29Z</time>
      </trkpt>
      <trkpt lat="40.415062" lon="-3.772714">
        <ele>639.393</ele>
        <time>2022-02-27T13:03:34Z</time>
      </trkpt>
      <trkpt lat="40.415028" lon="-3.772785">
        <ele>637.861</ele>
        <time>2022-02-27T13:03:39Z</time>
      </trkpt>
      <trkpt lat="40.415005" lon="-3.7728698">
        <ele>639.097</ele>
        <time>2022-02-27T13:03:44Z</time>
      </trkpt>
      <trkpt lat="40.41498" lon="-3.7729533">
        <ele>638.764</ele>
        <time>2022-02-27T13:03:49Z</time>
      </trkpt>
      <trkpt lat="40.414944" lon="-3.773027">
        <ele>637.525</ele>
        <time>2022-02-27T13:03:54Z</time>
      </trkpt>
      <trkpt lat="40.414894" lon="-3.7730803">
        <ele>638.87</ele>
        <time>2022-02-27T13:03:59Z</time>
      </trkpt>
      <trkpt lat="40.41483" lon="-3.7731402">
        <ele>636.854</ele>
        <time>2022-02-27T13:04:04Z</time>
      </trkpt>
      <trkpt lat="40.414764" lon="-3.7731948">
        <ele>637.649</ele>
        <time>2022-02-27T13:04:09Z</time>
      </trkpt>
      <trkpt lat="40.41472" lon="-3.7732508">
        <ele>638.968</ele>
        <time>2022-02-27T13:04:14Z</time>
      </trkpt>
      <trkpt lat="40.41468" lon="-3.773326">
        <ele>638.458</ele>
        <time>2022-02-27T13:04:19Z</time>
      </trkpt>
      <trkpt lat="40.414658" lon="-3.7734256">
        <ele>640.965</ele>
        <time>2022-02-27T13:04:24Z</time>
      </trkpt>
      <trkpt lat="40.414635" lon="-3.7735245">
        <ele>640.057</ele>
        <time>2022-02-27T13:04:29Z</time>
      </trkpt>
      <trkpt lat="40.414616" lon="-3.7736125">
        <ele>641.132</ele>
        <time>2022-02-27T13:04:34Z</time>
      </trkpt>
      <trkpt lat="40.414574" lon="-3.7736802">
        <ele>639.248</ele>
        <time>2022-02-27T13:04:39Z</time>
      </trkpt>
      <trkpt lat="40.41451" lon="-3.7737415">
        <ele>638.062</ele>
        <time>2022-02-27T13:04:44Z</time>
      </trkpt>
      <trkpt lat="40.41444" lon="-3.7737772">
        <ele>638.453</ele>
        <time>2022-02-27T13:04:49Z</time>
      </trkpt>
      <trkpt lat="40.414383" lon="-3.773833">
        <ele>641.932</ele>
        <time>2022-02-27T13:04:54Z</time>
      </trkpt>
      <trkpt lat="40.414352" lon="-3.773911">
        <ele>643.33</ele>
        <time>2022-02-27T13:04:59Z</time>
      </trkpt>
      <trkpt lat="40.414337" lon="-3.7739964">
        <ele>643.666</ele>
        <time>2022-02-27T13:05:04Z</time>
      </trkpt>
      <trkpt lat="40.414303" lon="-3.7740798">
        <ele>640.358</ele>
        <time>2022-02-27T13:05:09Z</time>
      </trkpt>
      <trkpt lat="40.414276" lon="-3.7741454">
        <ele>640.796</ele>
        <time>2022-02-27T13:05:14Z</time>
      </trkpt>
      <trkpt lat="40.414295" lon="-3.774159">
        <ele>638.18</ele>
        <time>2022-02-27T13:05:29Z</time>
      </trkpt>
      <trkpt lat="40.41429" lon="-3.7741613">
        <ele>636.518</ele>
        <time>2022-02-27T13:07:39Z</time>
      </trkpt>
      <trkpt lat="40.41429" lon="-3.774185">
        <ele>637.866</ele>
        <time>2022-02-27T13:09:59Z</time>
      </trkpt>
      <trkpt lat="40.414192" lon="-3.7742343">
        <ele>635.858</ele>
        <time>2022-02-27T13:10:09Z</time>
      </trkpt>
      <trkpt lat="40.41414" lon="-3.7742858">
        <ele>639.161</ele>
        <time>2022-02-27T13:10:14Z</time>
      </trkpt>
      <trkpt lat="40.414093" lon="-3.774351">
        <ele>641.787</ele>
        <time>2022-02-27T13:10:19Z</time>
      </trkpt>
      <trkpt lat="40.414085" lon="-3.7743583">
        <ele>637.322</ele>
        <time>2022-02-27T13:10:29Z</time>
      </trkpt>
      <trkpt lat="40.414097" lon="-3.774378">
        <ele>632.727</ele>
        <time>2022-02-27T13:10:49Z</time>
      </trkpt>
      <trkpt lat="40.414024" lon="-3.774498">
        <ele>633.829</ele>
        <time>2022-02-27T13:11:09Z</time>
      </trkpt>
      <trkpt lat="40.41399" lon="-3.7745852">
        <ele>638.944</ele>
        <time>2022-02-27T13:11:14Z</time>
      </trkpt>
      <trkpt lat="40.41395" lon="-3.7746701">
        <ele>645.711</ele>
        <time>2022-02-27T13:11:19Z</time>
      </trkpt>
      <trkpt lat="40.41394" lon="-3.7747786">
        <ele>648.277</ele>
        <time>2022-02-27T13:11:24Z</time>
      </trkpt>
      <trkpt lat="40.41394" lon="-3.7748883">
        <ele>650.811</ele>
        <time>2022-02-27T13:11:29Z</time>
      </trkpt>
      <trkpt lat="40.413925" lon="-3.7749798">
        <ele>651.439</ele>
        <time>2022-02-27T13:11:34Z</time>
      </trkpt>
      <trkpt lat="40.413918" lon="-3.77507">
        <ele>645.436</ele>
        <time>2022-02-27T13:11:39Z</time>
      </trkpt>
      <trkpt lat="40.413925" lon="-3.7750943">
        <ele>638.587</ele>
        <time>2022-02-27T13:12:03Z</time>
      </trkpt>
      <trkpt lat="40.413887" lon="-3.7751186">
        <ele>633.53</ele>
        <time>2022-02-27T13:12:08Z</time>
      </trkpt>
      <trkpt lat="40.41381" lon="-3.7751465">
        <ele>641.164</ele>
        <time>2022-02-27T13:12:13Z</time>
      </trkpt>
      <trkpt lat="40.41376" lon="-3.7752247">
        <ele>647.555</ele>
        <time>2022-02-27T13:12:18Z</time>
      </trkpt>
      <trkpt lat="40.413742" lon="-3.7753012">
        <ele>652.552</ele>
        <time>2022-02-27T13:12:23Z</time>
      </trkpt>
      <trkpt lat="40.413742" lon="-3.775391">
        <ele>653.389</ele>
        <time>2022-02-27T13:12:28Z</time>
      </trkpt>
      <trkpt lat="40.413754" lon="-3.7754824">
        <ele>653.831</ele>
        <time>2022-02-27T13:12:33Z</time>
      </trkpt>
      <trkpt lat="40.41378" lon="-3.775597">
        <ele>653.778</ele>
        <time>2022-02-27T13:12:38Z</time>
      </trkpt>
      <trkpt lat="40.413776" lon="-3.7756777">
        <ele>653.701</ele>
        <time>2022-02-27T13:12:43Z</time>
      </trkpt>
      <trkpt lat="40.413742" lon="-3.7757676">
        <ele>652.372</ele>
        <time>2022-02-27T13:12:48Z</time>
      </trkpt>
      <trkpt lat="40.413708" lon="-3.7758484">
        <ele>652.475</ele>
        <time>2022-02-27T13:12:53Z</time>
      </trkpt>
      <trkpt lat="40.413666" lon="-3.7759304">
        <ele>650.39</ele>
        <time>2022-02-27T13:12:58Z</time>
      </trkpt>
      <trkpt lat="40.413624" lon="-3.775994">
        <ele>652.47</ele>
        <time>2022-02-27T13:13:03Z</time>
      </trkpt>
      <trkpt lat="40.413597" lon="-3.7760785">
        <ele>653.926</ele>
        <time>2022-02-27T13:13:08Z</time>
      </trkpt>
      <trkpt lat="40.41358" lon="-3.7761433">
        <ele>652.647</ele>
        <time>2022-02-27T13:13:13Z</time>
      </trkpt>
      <trkpt lat="40.413506" lon="-3.7762551">
        <ele>653.973</ele>
        <time>2022-02-27T13:13:23Z</time>
      </trkpt>
      <trkpt lat="40.413425" lon="-3.7763839">
        <ele>654.853</ele>
        <time>2022-02-27T13:13:33Z</time>
      </trkpt>
      <trkpt lat="40.4134" lon="-3.776473">
        <ele>655.445</ele>
        <time>2022-02-27T13:13:38Z</time>
      </trkpt>
      <trkpt lat="40.413372" lon="-3.7765393">
        <ele>656.38</ele>
        <time>2022-02-27T13:13:43Z</time>
      </trkpt>
      <trkpt lat="40.413322" lon="-3.7766788">
        <ele>655.781</ele>
        <time>2022-02-27T13:13:53Z</time>
      </trkpt>
      <trkpt lat="40.4133" lon="-3.7767656">
        <ele>658.259</ele>
        <time>2022-02-27T13:13:58Z</time>
      </trkpt>
      <trkpt lat="40.41328" lon="-3.7768407">
        <ele>658.925</ele>
        <time>2022-02-27T13:14:03Z</time>
      </trkpt>
      <trkpt lat="40.41326" lon="-3.776922">
        <ele>658.537</ele>
        <time>2022-02-27T13:14:08Z</time>
      </trkpt>
      <trkpt lat="40.413258" lon="-3.7769978">
        <ele>660.299</ele>
        <time>2022-02-27T13:14:13Z</time>
      </trkpt>
      <trkpt lat="40.413223" lon="-3.7770593">
        <ele>658.177</ele>
        <time>2022-02-27T13:14:18Z</time>
      </trkpt>
      <trkpt lat="40.413197" lon="-3.7771244">
        <ele>659.95</ele>
        <time>2022-02-27T13:14:23Z</time>
      </trkpt>
      <trkpt lat="40.413185" lon="-3.7772057">
        <ele>658.695</ele>
        <time>2022-02-27T13:14:28Z</time>
      </trkpt>
      <trkpt lat="40.413147" lon="-3.777271">
        <ele>657.749</ele>
        <time>2022-02-27T13:14:33Z</time>
      </trkpt>
      <trkpt lat="40.413124" lon="-3.777346">
        <ele>660.582</ele>
        <time>2022-02-27T13:14:38Z</time>
      </trkpt>
      <trkpt lat="40.413097" lon="-3.7774365">
        <ele>661.377</ele>
        <time>2022-02-27T13:14:43Z</time>
      </trkpt>
      <trkpt lat="40.41307" lon="-3.7775147">
        <ele>662.307</ele>
        <time>2022-02-27T13:14:48Z</time>
      </trkpt>
      <trkpt lat="40.413033" lon="-3.777566">
        <ele>663.274</ele>
        <time>2022-02-27T13:14:53Z</time>
      </trkpt>
      <trkpt lat="40.41297" lon="-3.7776246">
        <ele>662.051</ele>
        <time>2022-02-27T13:14:58Z</time>
      </trkpt>
      <trkpt lat="40.412933" lon="-3.7776766">
        <ele>662.534</ele>
        <time>2022-02-27T13:15:03Z</time>
      </trkpt>
      <trkpt lat="40.412933" lon="-3.7777817">
        <ele>662.614</ele>
        <time>2022-02-27T13:15:08Z</time>
      </trkpt>
      <trkpt lat="40.412903" lon="-3.777856">
        <ele>661.533</ele>
        <time>2022-02-27T13:15:13Z</time>
      </trkpt>
      <trkpt lat="40.412872" lon="-3.7779324">
        <ele>662.814</ele>
        <time>2022-02-27T13:15:18Z</time>
      </trkpt>
      <trkpt lat="40.412827" lon="-3.777998">
        <ele>663.985</ele>
        <time>2022-02-27T13:15:23Z</time>
      </trkpt>
      <trkpt lat="40.412792" lon="-3.7780592">
        <ele>662.888</ele>
        <time>2022-02-27T13:15:28Z</time>
      </trkpt>
      <trkpt lat="40.412766" lon="-3.7781334">
        <ele>663.882</ele>
        <time>2022-02-27T13:15:33Z</time>
      </trkpt>
      <trkpt lat="40.41275" lon="-3.7782183">
        <ele>663.657</ele>
        <time>2022-02-27T13:15:38Z</time>
      </trkpt>
      <trkpt lat="40.41274" lon="-3.778305">
        <ele>663.969</ele>
        <time>2022-02-27T13:15:43Z</time>
      </trkpt>
      <trkpt lat="40.412727" lon="-3.7783978">
        <ele>665.19</ele>
        <time>2022-02-27T13:15:48Z</time>
      </trkpt>
      <trkpt lat="40.41272" lon="-3.7784834">
        <ele>665.031</ele>
        <time>2022-02-27T13:15:53Z</time>
      </trkpt>
      <trkpt lat="40.412666" lon="-3.7786317">
        <ele>663.346</ele>
        <time>2022-02-27T13:16:03Z</time>
      </trkpt>
      <trkpt lat="40.412613" lon="-3.7787662">
        <ele>661.816</ele>
        <time>2022-02-27T13:16:13Z</time>
      </trkpt>
      <trkpt lat="40.412544" lon="-3.7787702">
        <ele>665.502</ele>
        <time>2022-02-27T13:16:18Z</time>
      </trkpt>
      <trkpt lat="40.412518" lon="-3.778857">
        <ele>666.049</ele>
        <time>2022-02-27T13:16:23Z</time>
      </trkpt>
      <trkpt lat="40.412518" lon="-3.7788715">
        <ele>660.529</ele>
        <time>2022-02-27T13:16:33Z</time>
      </trkpt>
      <trkpt lat="40.41252" lon="-3.7788463">
        <ele>670.694</ele>
        <time>2022-02-27T13:16:51Z</time>
      </trkpt>
      <trkpt lat="40.41252" lon="-3.7788427">
        <ele>670.2</ele>
        <time>2022-02-27T13:16:54Z</time>
      </trkpt>
      <trkpt lat="40.41285" lon="-3.7794027">
        <ele>653.099</ele>
        <time>2022-02-27T10:51:29Z</time>
      </trkpt>
      <trkpt lat="40.412945" lon="-3.779415">
        <ele>653.437</ele>
        <time>2022-02-27T10:51:35Z</time>
      </trkpt>
      <trkpt lat="40.41301" lon="-3.779402">
        <ele>654.409</ele>
        <time>2022-02-27T10:51:40Z</time>
      </trkpt>
      <trkpt lat="40.413067" lon="-3.7793918">
        <ele>654.758</ele>
        <time>2022-02-27T10:51:45Z</time>
      </trkpt>
      <trkpt lat="40.41311" lon="-3.7794456">
        <ele>653.699</ele>
        <time>2022-02-27T10:51:50Z</time>
      </trkpt>
      <trkpt lat="40.413208" lon="-3.7795444">
        <ele>655.622</ele>
        <time>2022-02-27T10:52:00Z</time>
      </trkpt>
      <trkpt lat="40.41327" lon="-3.7796147">
        <ele>655.112</ele>
        <time>2022-02-27T10:52:05Z</time>
      </trkpt>
      <trkpt lat="40.413338" lon="-3.7796645">
        <ele>655.223</ele>
        <time>2022-02-27T10:52:10Z</time>
      </trkpt>
      <trkpt lat="40.413395" lon="-3.7796967">
        <ele>654.93</ele>
        <time>2022-02-27T10:52:15Z</time>
      </trkpt>
      <trkpt lat="40.41345" lon="-3.7797477">
        <ele>654.531</ele>
        <time>2022-02-27T10:52:20Z</time>
      </trkpt>
      <trkpt lat="40.4135" lon="-3.7797868">
        <ele>655.339</ele>
        <time>2022-02-27T10:52:25Z</time>
      </trkpt>
      <trkpt lat="40.413567" lon="-3.7798254">
        <ele>654.713</ele>
        <time>2022-02-27T10:52:30Z</time>
      </trkpt>
      <trkpt lat="40.413654" lon="-3.7798831">
        <ele>654.607</ele>
        <time>2022-02-27T10:52:36Z</time>
      </trkpt>
      <trkpt lat="40.41373" lon="-3.7799206">
        <ele>654.98</ele>
        <time>2022-02-27T10:52:41Z</time>
      </trkpt>
      <trkpt lat="40.413788" lon="-3.7799747">
        <ele>652.433</ele>
        <time>2022-02-27T10:52:46Z</time>
      </trkpt>
      <trkpt lat="40.41385" lon="-3.780022">
        <ele>656.565</ele>
        <time>2022-02-27T10:52:51Z</time>
      </trkpt>
      <trkpt lat="40.413925" lon="-3.7800393">
        <ele>652.642</ele>
        <time>2022-02-27T10:52:56Z</time>
      </trkpt>
      <trkpt lat="40.413948" lon="-3.780034">
        <ele>654.441</ele>
        <time>2022-02-27T10:53:01Z</time>
      </trkpt>
      <trkpt lat="40.414024" lon="-3.7800722">
        <ele>654.969</ele>
        <time>2022-02-27T10:53:06Z</time>
      </trkpt>
      <trkpt lat="40.41409" lon="-3.7801144">
        <ele>657.675</ele>
        <time>2022-02-27T10:53:11Z</time>
      </trkpt>
      <trkpt lat="40.414146" lon="-3.7801394">
        <ele>657.208</ele>
        <time>2022-02-27T10:53:16Z</time>
      </trkpt>
      <trkpt lat="40.41421" lon="-3.7801628">
        <ele>656.959</ele>
        <time>2022-02-27T10:53:21Z</time>
      </trkpt>
      <trkpt lat="40.414288" lon="-3.7801955">
        <ele>655.947</ele>
        <time>2022-02-27T10:53:26Z</time>
      </trkpt>
      <trkpt lat="40.414368" lon="-3.780213">
        <ele>656.698</ele>
        <time>2022-02-27T10:53:31Z</time>
      </trkpt>
      <trkpt lat="40.414436" lon="-3.780232">
        <ele>654.755</ele>
        <time>2022-02-27T10:53:36Z</time>
      </trkpt>
      <trkpt lat="40.414566" lon="-3.780255">
        <ele>655.516</ele>
        <time>2022-02-27T10:53:45Z</time>
      </trkpt>
      <trkpt lat="40.41463" lon="-3.7802835">
        <ele>657.937</ele>
        <time>2022-02-27T10:53:50Z</time>
      </trkpt>
      <trkpt lat="40.414703" lon="-3.7803416">
        <ele>656.719</ele>
        <time>2022-02-27T10:53:57Z</time>
      </trkpt>
      <trkpt lat="40.414772" lon="-3.780358">
        <ele>658.555</ele>
        <time>2022-02-27T10:54:02Z</time>
      </trkpt>
      <trkpt lat="40.41484" lon="-3.780388">
        <ele>658.943</ele>
        <time>2022-02-27T10:54:07Z</time>
      </trkpt>
      <trkpt lat="40.414913" lon="-3.7803936">
        <ele>657.694</ele>
        <time>2022-02-27T10:54:12Z</time>
      </trkpt>
      <trkpt lat="40.41499" lon="-3.7803955">
        <ele>657.715</ele>
        <time>2022-02-27T10:54:17Z</time>
      </trkpt>
      <trkpt lat="40.41509" lon="-3.7804036">
        <ele>656.317</ele>
        <time>2022-02-27T10:54:25Z</time>
      </trkpt>
      <trkpt lat="40.415165" lon="-3.7804441">
        <ele>654.938</ele>
        <time>2022-02-27T10:54:31Z</time>
      </trkpt>
      <trkpt lat="40.415226" lon="-3.7804742">
        <ele>655.612</ele>
        <time>2022-02-27T10:54:36Z</time>
      </trkpt>
      <trkpt lat="40.4153" lon="-3.780501">
        <ele>655.025</ele>
        <time>2022-02-27T10:54:41Z</time>
      </trkpt>
      <trkpt lat="40.41537" lon="-3.780518">
        <ele>653.928</ele>
        <time>2022-02-27T10:54:46Z</time>
      </trkpt>
      <trkpt lat="40.415443" lon="-3.7805338">
        <ele>653.083</ele>
        <time>2022-02-27T10:54:51Z</time>
      </trkpt>
      <trkpt lat="40.41552" lon="-3.7805536">
        <ele>653.662</ele>
        <time>2022-02-27T10:54:56Z</time>
      </trkpt>
      <trkpt lat="40.41558" lon="-3.7805667">
        <ele>652.351</ele>
        <time>2022-02-27T10:55:01Z</time>
      </trkpt>
      <trkpt lat="40.415653" lon="-3.7805665">
        <ele>653.617</ele>
        <time>2022-02-27T10:55:06Z</time>
      </trkpt>
      <trkpt lat="40.415726" lon="-3.7805853">
        <ele>649.236</ele>
        <time>2022-02-27T10:55:11Z</time>
      </trkpt>
      <trkpt lat="40.4158" lon="-3.7805915">
        <ele>652.89</ele>
        <time>2022-02-27T10:55:16Z</time>
      </trkpt>
      <trkpt lat="40.415867" lon="-3.7805786">
        <ele>650.89</ele>
        <time>2022-02-27T10:55:21Z</time>
      </trkpt>
      <trkpt lat="40.415947" lon="-3.7805579">
        <ele>652.631</ele>
        <time>2022-02-27T10:55:26Z</time>
      </trkpt>
      <trkpt lat="40.416" lon="-3.7805557">
        <ele>654.108</ele>
        <time>2022-02-27T10:55:31Z</time>
      </trkpt>
      <trkpt lat="40.416073" lon="-3.7805464">
        <ele>656.042</ele>
        <time>2022-02-27T10:55:36Z</time>
      </trkpt>
      <trkpt lat="40.416145" lon="-3.7805655">
        <ele>659.324</ele>
        <time>2022-02-27T10:55:41Z</time>
      </trkpt>
      <trkpt lat="40.41621" lon="-3.7805772">
        <ele>658.716</ele>
        <time>2022-02-27T10:55:46Z</time>
      </trkpt>
      <trkpt lat="40.416283" lon="-3.7805636">
        <ele>658.706</ele>
        <time>2022-02-27T10:55:51Z</time>
      </trkpt>
      <trkpt lat="40.416336" lon="-3.7805238">
        <ele>657.226</ele>
        <time>2022-02-27T10:55:56Z</time>
      </trkpt>
      <trkpt lat="40.4164" lon="-3.7804914">
        <ele>658.069</ele>
        <time>2022-02-27T10:56:01Z</time>
      </trkpt>
      <trkpt lat="40.416485" lon="-3.7804885">
        <ele>656.106</ele>
        <time>2022-02-27T10:56:06Z</time>
      </trkpt>
      <trkpt lat="40.41654" lon="-3.780472">
        <ele>655.725</ele>
        <time>2022-02-27T10:56:11Z</time>
      </trkpt>
      <trkpt lat="40.416676" lon="-3.7804487">
        <ele>655.302</ele>
        <time>2022-02-27T10:56:21Z</time>
      </trkpt>
      <trkpt lat="40.41675" lon="-3.7804554">
        <ele>655.461</ele>
        <time>2022-02-27T10:56:26Z</time>
      </trkpt>
      <trkpt lat="40.416824" lon="-3.7804637">
        <ele>653.828</ele>
        <time>2022-02-27T10:56:31Z</time>
      </trkpt>
      <trkpt lat="40.41691" lon="-3.7804737">
        <ele>654.061</ele>
        <time>2022-02-27T10:56:36Z</time>
      </trkpt>
      <trkpt lat="40.416977" lon="-3.7804847">
        <ele>653.194</ele>
        <time>2022-02-27T10:56:41Z</time>
      </trkpt>
      <trkpt lat="40.417046" lon="-3.780503">
        <ele>653.046</ele>
        <time>2022-02-27T10:56:46Z</time>
      </trkpt>
      <trkpt lat="40.417114" lon="-3.7805152">
        <ele>653.199</ele>
        <time>2022-02-27T10:56:51Z</time>
      </trkpt>
      <trkpt lat="40.41719" lon="-3.7804923">
        <ele>652.573</ele>
        <time>2022-02-27T10:56:56Z</time>
      </trkpt>
      <trkpt lat="40.41726" lon="-3.7804716">
        <ele>651.96</ele>
        <time>2022-02-27T10:57:01Z</time>
      </trkpt>
      <trkpt lat="40.417324" lon="-3.7804596">
        <ele>651.513</ele>
        <time>2022-02-27T10:57:06Z</time>
      </trkpt>
      <trkpt lat="40.417408" lon="-3.7804372">
        <ele>650.039</ele>
        <time>2022-02-27T10:57:11Z</time>
      </trkpt>
      <trkpt lat="40.41747" lon="-3.780408">
        <ele>649.899</ele>
        <time>2022-02-27T10:57:16Z</time>
      </trkpt>
      <trkpt lat="40.417522" lon="-3.780372">
        <ele>650.422</ele>
        <time>2022-02-27T10:57:21Z</time>
      </trkpt>
      <trkpt lat="40.417583" lon="-3.7803433">
        <ele>648.052</ele>
        <time>2022-02-27T10:57:26Z</time>
      </trkpt>
      <trkpt lat="40.417652" lon="-3.7803447">
        <ele>646.208</ele>
        <time>2022-02-27T10:57:31Z</time>
      </trkpt>
      <trkpt lat="40.417725" lon="-3.7803223">
        <ele>649.722</ele>
        <time>2022-02-27T10:57:36Z</time>
      </trkpt>
      <trkpt lat="40.417767" lon="-3.7802477">
        <ele>649.22</ele>
        <time>2022-02-27T10:57:41Z</time>
      </trkpt>
      <trkpt lat="40.417812" lon="-3.780177">
        <ele>646.961</ele>
        <time>2022-02-27T10:57:46Z</time>
      </trkpt>
      <trkpt lat="40.417873" lon="-3.7801487">
        <ele>648.308</ele>
        <time>2022-02-27T10:57:51Z</time>
      </trkpt>
      <trkpt lat="40.41794" lon="-3.780128">
        <ele>650.084</ele>
        <time>2022-02-27T10:57:56Z</time>
      </trkpt>
      <trkpt lat="40.41798" lon="-3.7801208">
        <ele>650.438</ele>
        <time>2022-02-27T10:58:01Z</time>
      </trkpt>
      <trkpt lat="40.418068" lon="-3.7801893">
        <ele>653.767</ele>
        <time>2022-02-27T10:58:11Z</time>
      </trkpt>
      <trkpt lat="40.41819" lon="-3.7802181">
        <ele>655.004</ele>
        <time>2022-02-27T10:58:21Z</time>
      </trkpt>
      <trkpt lat="40.418255" lon="-3.780226">
        <ele>657.258</ele>
        <time>2022-02-27T10:58:26Z</time>
      </trkpt>
      <trkpt lat="40.418324" lon="-3.7802317">
        <ele>659.879</ele>
        <time>2022-02-27T10:58:31Z</time>
      </trkpt>
      <trkpt lat="40.418377" lon="-3.7802532">
        <ele>659.916</ele>
        <time>2022-02-27T10:58:36Z</time>
      </trkpt>
      <trkpt lat="40.418438" lon="-3.7802725">
        <ele>660.082</ele>
        <time>2022-02-27T10:58:41Z</time>
      </trkpt>
      <trkpt lat="40.4185" lon="-3.7802794">
        <ele>658.936</ele>
        <time>2022-02-27T10:58:46Z</time>
      </trkpt>
      <trkpt lat="40.418564" lon="-3.7802815">
        <ele>657.625</ele>
        <time>2022-02-27T10:58:51Z</time>
      </trkpt>
      <trkpt lat="40.418644" lon="-3.7803">
        <ele>658.848</ele>
        <time>2022-02-27T10:58:56Z</time>
      </trkpt>
      <trkpt lat="40.418716" lon="-3.7803237">
        <ele>658.69</ele>
        <time>2022-02-27T10:59:01Z</time>
      </trkpt>
      <trkpt lat="40.41878" lon="-3.7803516">
        <ele>659.266</ele>
        <time>2022-02-27T10:59:06Z</time>
      </trkpt>
      <trkpt lat="40.41884" lon="-3.7803996">
        <ele>658.97</ele>
        <time>2022-02-27T10:59:11Z</time>
      </trkpt>
      <trkpt lat="40.4189" lon="-3.780461">
        <ele>657.762</ele>
        <time>2022-02-27T10:59:16Z</time>
      </trkpt>
      <trkpt lat="40.418953" lon="-3.7805102">
        <ele>658.185</ele>
        <time>2022-02-27T10:59:21Z</time>
      </trkpt>
      <trkpt lat="40.419014" lon="-3.7805595">
        <ele>659.218</ele>
        <time>2022-02-27T10:59:26Z</time>
      </trkpt>
      <trkpt lat="40.419083" lon="-3.7806172">
        <ele>658.093</ele>
        <time>2022-02-27T10:59:31Z</time>
      </trkpt>
      <trkpt lat="40.419155" lon="-3.7806604">
        <ele>658.901</ele>
        <time>2022-02-27T10:59:36Z</time>
      </trkpt>
      <trkpt lat="40.419212" lon="-3.780695">
        <ele>659.192</ele>
        <time>2022-02-27T10:59:41Z</time>
      </trkpt>
      <trkpt lat="40.419292" lon="-3.780705">
        <ele>658.227</ele>
        <time>2022-02-27T10:59:46Z</time>
      </trkpt>
      <trkpt lat="40.419373" lon="-3.780707">
        <ele>657.67</ele>
        <time>2022-02-27T10:59:51Z</time>
      </trkpt>
      <trkpt lat="40.41944" lon="-3.7806823">
        <ele>659.028</ele>
        <time>2022-02-27T10:59:56Z</time>
      </trkpt>
      <trkpt lat="40.41952" lon="-3.7806468">
        <ele>657.747</ele>
        <time>2022-02-27T11:00:01Z</time>
      </trkpt>
      <trkpt lat="40.419594" lon="-3.7806082">
        <ele>659.599</ele>
        <time>2022-02-27T11:00:06Z</time>
      </trkpt>
      <trkpt lat="40.419647" lon="-3.780568">
        <ele>658.243</ele>
        <time>2022-02-27T11:00:11Z</time>
      </trkpt>
      <trkpt lat="40.419712" lon="-3.7805202">
        <ele>655.781</ele>
        <time>2022-02-27T11:00:16Z</time>
      </trkpt>
      <trkpt lat="40.41977" lon="-3.780478">
        <ele>660.312</ele>
        <time>2022-02-27T11:00:21Z</time>
      </trkpt>
      <trkpt lat="40.419827" lon="-3.780452">
        <ele>658.653</ele>
        <time>2022-02-27T11:00:26Z</time>
      </trkpt>
      <trkpt lat="40.41989" lon="-3.7804258">
        <ele>660.603</ele>
        <time>2022-02-27T11:00:31Z</time>
      </trkpt>
      <trkpt lat="40.419956" lon="-3.780407">
        <ele>662.252</ele>
        <time>2022-02-27T11:00:36Z</time>
      </trkpt>
      <trkpt lat="40.420033" lon="-3.7803922">
        <ele>661.752</ele>
        <time>2022-02-27T11:00:41Z</time>
      </trkpt>
      <trkpt lat="40.420143" lon="-3.780395">
        <ele>662.952</ele>
        <time>2022-02-27T11:00:49Z</time>
      </trkpt>
      <trkpt lat="40.420216" lon="-3.7803795">
        <ele>662.957</ele>
        <time>2022-02-27T11:00:54Z</time>
      </trkpt>
      <trkpt lat="40.420277" lon="-3.7803376">
        <ele>664.297</ele>
        <time>2022-02-27T11:00:59Z</time>
      </trkpt>
      <trkpt lat="40.42038" lon="-3.780308">
        <ele>663.882</ele>
        <time>2022-02-27T11:01:09Z</time>
      </trkpt>
      <trkpt lat="40.42045" lon="-3.7802944">
        <ele>664.635</ele>
        <time>2022-02-27T11:01:14Z</time>
      </trkpt>
      <trkpt lat="40.420532" lon="-3.780293">
        <ele>666.347</ele>
        <time>2022-02-27T11:01:19Z</time>
      </trkpt>
      <trkpt lat="40.420597" lon="-3.7802885">
        <ele>665.258</ele>
        <time>2022-02-27T11:01:24Z</time>
      </trkpt>
      <trkpt lat="40.420673" lon="-3.780278">
        <ele>666.212</ele>
        <time>2022-02-27T11:01:29Z</time>
      </trkpt>
      <trkpt lat="40.42079" lon="-3.780267">
        <ele>666.677</ele>
        <time>2022-02-27T11:01:39Z</time>
      </trkpt>
      <trkpt lat="40.420856" lon="-3.7802565">
        <ele>667.975</ele>
        <time>2022-02-27T11:01:44Z</time>
      </trkpt>
      <trkpt lat="40.420914" lon="-3.7802458">
        <ele>669.579</ele>
        <time>2022-02-27T11:01:49Z</time>
      </trkpt>
      <trkpt lat="40.42104" lon="-3.7802048">
        <ele>668.831</ele>
        <time>2022-02-27T11:01:59Z</time>
      </trkpt>
      <trkpt lat="40.421116" lon="-3.7802117">
        <ele>669.787</ele>
        <time>2022-02-27T11:02:04Z</time>
      </trkpt>
      <trkpt lat="40.421204" lon="-3.7801886">
        <ele>668.445</ele>
        <time>2022-02-27T11:02:09Z</time>
      </trkpt>
      <trkpt lat="40.42127" lon="-3.7801733">
        <ele>671.069</ele>
        <time>2022-02-27T11:02:14Z</time>
      </trkpt>
      <trkpt lat="40.421345" lon="-3.7801826">
        <ele>670.186</ele>
        <time>2022-02-27T11:02:19Z</time>
      </trkpt>
      <trkpt lat="40.421448" lon="-3.7801573">
        <ele>670.086</ele>
        <time>2022-02-27T11:02:26Z</time>
      </trkpt>
      <trkpt lat="40.4215" lon="-3.7801352">
        <ele>670.181</ele>
        <time>2022-02-27T11:02:31Z</time>
      </trkpt>
      <trkpt lat="40.42157" lon="-3.7801127">
        <ele>669.803</ele>
        <time>2022-02-27T11:02:36Z</time>
      </trkpt>
      <trkpt lat="40.42163" lon="-3.7800941">
        <ele>672.213</ele>
        <time>2022-02-27T11:02:41Z</time>
      </trkpt>
      <trkpt lat="40.42172" lon="-3.7800808">
        <ele>673.199</ele>
        <time>2022-02-27T11:02:46Z</time>
      </trkpt>
      <trkpt lat="40.421806" lon="-3.780064">
        <ele>672.929</ele>
        <time>2022-02-27T11:02:51Z</time>
      </trkpt>
      <trkpt lat="40.421864" lon="-3.780011">
        <ele>673.143</ele>
        <time>2022-02-27T11:02:56Z</time>
      </trkpt>
      <trkpt lat="40.421913" lon="-3.7799516">
        <ele>670.998</ele>
        <time>2022-02-27T11:03:01Z</time>
      </trkpt>
      <trkpt lat="40.421978" lon="-3.779898">
        <ele>670.562</ele>
        <time>2022-02-27T11:03:06Z</time>
      </trkpt>
      <trkpt lat="40.422" lon="-3.7798548">
        <ele>670.369</ele>
        <time>2022-02-27T11:03:12Z</time>
      </trkpt>
      <trkpt lat="40.421986" lon="-3.7798297">
        <ele>674.734</ele>
        <time>2022-02-27T11:03:47Z</time>
      </trkpt>
      <trkpt lat="40.422012" lon="-3.7798047">
        <ele>672.303</ele>
        <time>2022-02-27T11:04:07Z</time>
      </trkpt>
      <trkpt lat="40.422012" lon="-3.77981">
        <ele>664.994</ele>
        <time>2022-02-27T11:04:13Z</time>
      </trkpt>
      <trkpt lat="40.422127" lon="-3.7798011">
        <ele>668.54</ele>
        <time>2022-02-27T11:04:35Z</time>
      </trkpt>
      <trkpt lat="40.4222" lon="-3.7797873">
        <ele>669.877</ele>
        <time>2022-02-27T11:04:41Z</time>
      </trkpt>
      <trkpt lat="40.42229" lon="-3.7797728">
        <ele>671.904</ele>
        <time>2022-02-27T11:04:46Z</time>
      </trkpt>
      <trkpt lat="40.422382" lon="-3.7797644">
        <ele>669.674</ele>
        <time>2022-02-27T11:04:52Z</time>
      </trkpt>
      <trkpt lat="40.422474" lon="-3.779748">
        <ele>670.046</ele>
        <time>2022-02-27T11:04:57Z</time>
      </trkpt>
      <trkpt lat="40.422554" lon="-3.7797132">
        <ele>668.395</ele>
        <time>2022-02-27T11:05:02Z</time>
      </trkpt>
      <trkpt lat="40.422638" lon="-3.77969">
        <ele>667.547</ele>
        <time>2022-02-27T11:05:07Z</time>
      </trkpt>
      <trkpt lat="40.42271" lon="-3.7796388">
        <ele>667.058</ele>
        <time>2022-02-27T11:05:12Z</time>
      </trkpt>
      <trkpt lat="40.422768" lon="-3.7795775">
        <ele>664.783</ele>
        <time>2022-02-27T11:05:17Z</time>
      </trkpt>
      <trkpt lat="40.422848" lon="-3.7795506">
        <ele>665.066</ele>
        <time>2022-02-27T11:05:22Z</time>
      </trkpt>
      <trkpt lat="40.422924" lon="-3.7794814">
        <ele>663.916</ele>
        <time>2022-02-27T11:05:27Z</time>
      </trkpt>
      <trkpt lat="40.422977" lon="-3.7794116">
        <ele>661.34</ele>
        <time>2022-02-27T11:05:32Z</time>
      </trkpt>
      <trkpt lat="40.4231" lon="-3.7793336">
        <ele>659.911</ele>
        <time>2022-02-27T11:05:42Z</time>
      </trkpt>
      <trkpt lat="40.423164" lon="-3.7792928">
        <ele>660.288</ele>
        <time>2022-02-27T11:05:47Z</time>
      </trkpt>
      <trkpt lat="40.42325" lon="-3.7792678">
        <ele>659.01</ele>
        <time>2022-02-27T11:05:52Z</time>
      </trkpt>
      <trkpt lat="40.42331" lon="-3.7792287">
        <ele>658.489</ele>
        <time>2022-02-27T11:05:57Z</time>
      </trkpt>
      <trkpt lat="40.423386" lon="-3.779207">
        <ele>658.64</ele>
        <time>2022-02-27T11:06:02Z</time>
      </trkpt>
      <trkpt lat="40.42346" lon="-3.7791755">
        <ele>656.967</ele>
        <time>2022-02-27T11:06:07Z</time>
      </trkpt>
      <trkpt lat="40.423527" lon="-3.779129">
        <ele>655.87</ele>
        <time>2022-02-27T11:06:12Z</time>
      </trkpt>
      <trkpt lat="40.4236" lon="-3.7791002">
        <ele>656.423</ele>
        <time>2022-02-27T11:06:17Z</time>
      </trkpt>
      <trkpt lat="40.42366" lon="-3.7790678">
        <ele>656.719</ele>
        <time>2022-02-27T11:06:22Z</time>
      </trkpt>
      <trkpt lat="40.423725" lon="-3.779037">
        <ele>656.835</ele>
        <time>2022-02-27T11:06:27Z</time>
      </trkpt>
      <trkpt lat="40.423813" lon="-3.7790072">
        <ele>653.374</ele>
        <time>2022-02-27T11:06:32Z</time>
      </trkpt>
      <trkpt lat="40.42388" lon="-3.7789452">
        <ele>652.935</ele>
        <time>2022-02-27T11:06:38Z</time>
      </trkpt>
      <trkpt lat="40.42396" lon="-3.7788444">
        <ele>651.527</ele>
        <time>2022-02-27T11:06:46Z</time>
      </trkpt>
      <trkpt lat="40.424015" lon="-3.7787714">
        <ele>650.631</ele>
        <time>2022-02-27T11:06:51Z</time>
      </trkpt>
      <trkpt lat="40.42406" lon="-3.7786937">
        <ele>652.185</ele>
        <time>2022-02-27T11:06:56Z</time>
      </trkpt>
      <trkpt lat="40.424107" lon="-3.7786138">
        <ele>650.195</ele>
        <time>2022-02-27T11:07:01Z</time>
      </trkpt>
      <trkpt lat="40.424164" lon="-3.7785485">
        <ele>649.978</ele>
        <time>2022-02-27T11:07:06Z</time>
      </trkpt>
      <trkpt lat="40.424236" lon="-3.778505">
        <ele>650.438</ele>
        <time>2022-02-27T11:07:11Z</time>
      </trkpt>
      <trkpt lat="40.424305" lon="-3.7784498">
        <ele>651.836</ele>
        <time>2022-02-27T11:07:16Z</time>
      </trkpt>
      <trkpt lat="40.424347" lon="-3.7783694">
        <ele>649.526</ele>
        <time>2022-02-27T11:07:21Z</time>
      </trkpt>
      <trkpt lat="40.424374" lon="-3.778284">
        <ele>650.737</ele>
        <time>2022-02-27T11:07:26Z</time>
      </trkpt>
      <trkpt lat="40.424408" lon="-3.7782">
        <ele>649.772</ele>
        <time>2022-02-27T11:07:31Z</time>
      </trkpt>
      <trkpt lat="40.42446" lon="-3.778117">
        <ele>650.187</ele>
        <time>2022-02-27T11:07:36Z</time>
      </trkpt>
      <trkpt lat="40.42451" lon="-3.7780297">
        <ele>647.687</ele>
        <time>2022-02-27T11:07:41Z</time>
      </trkpt>
      <trkpt lat="40.42457" lon="-3.7779596">
        <ele>648.771</ele>
        <time>2022-02-27T11:07:46Z</time>
      </trkpt>
      <trkpt lat="40.42463" lon="-3.777902">
        <ele>648.034</ele>
        <time>2022-02-27T11:07:51Z</time>
      </trkpt>
      <trkpt lat="40.424683" lon="-3.7778378">
        <ele>647.423</ele>
        <time>2022-02-27T11:07:56Z</time>
      </trkpt>
      <trkpt lat="40.424744" lon="-3.7777696">
        <ele>648.401</ele>
        <time>2022-02-27T11:08:01Z</time>
      </trkpt>
      <trkpt lat="40.4248" lon="-3.7777002">
        <ele>648.044</ele>
        <time>2022-02-27T11:08:06Z</time>
      </trkpt>
      <trkpt lat="40.424843" lon="-3.7776291">
        <ele>648.319</ele>
        <time>2022-02-27T11:08:11Z</time>
      </trkpt>
      <trkpt lat="40.424896" lon="-3.7775626">
        <ele>647.761</ele>
        <time>2022-02-27T11:08:16Z</time>
      </trkpt>
      <trkpt lat="40.42494" lon="-3.777474">
        <ele>647.751</ele>
        <time>2022-02-27T11:08:21Z</time>
      </trkpt>
      <trkpt lat="40.424973" lon="-3.777385">
        <ele>648.189</ele>
        <time>2022-02-27T11:08:26Z</time>
      </trkpt>
      <trkpt lat="40.42498" lon="-3.777352">
        <ele>646.11</ele>
        <time>2022-02-27T11:08:31Z</time>
      </trkpt>
      <trkpt lat="40.42505" lon="-3.777208">
        <ele>647.291</ele>
        <time>2022-02-27T11:08:51Z</time>
      </trkpt>
      <trkpt lat="40.425102" lon="-3.777139">
        <ele>646.509</ele>
        <time>2022-02-27T11:08:56Z</time>
      </trkpt>
      <trkpt lat="40.425137" lon="-3.7770486">
        <ele>645.529</ele>
        <time>2022-02-27T11:09:01Z</time>
      </trkpt>
      <trkpt lat="40.42518" lon="-3.7769637">
        <ele>644.739</ele>
        <time>2022-02-27T11:09:06Z</time>
      </trkpt>
      <trkpt lat="40.42523" lon="-3.776891">
        <ele>643.816</ele>
        <time>2022-02-27T11:09:11Z</time>
      </trkpt>
      <trkpt lat="40.425274" lon="-3.7768092">
        <ele>644.641</ele>
        <time>2022-02-27T11:09:16Z</time>
      </trkpt>
      <trkpt lat="40.425312" lon="-3.7767458">
        <ele>646.789</ele>
        <time>2022-02-27T11:09:21Z</time>
      </trkpt>
      <trkpt lat="40.425354" lon="-3.7767224">
        <ele>640.923</ele>
        <time>2022-02-27T11:09:26Z</time>
      </trkpt>
      <trkpt lat="40.425354" lon="-3.7767305">
        <ele>641.298</ele>
        <time>2022-02-27T11:09:41Z</time>
      </trkpt>
      <trkpt lat="40.42538" lon="-3.7767081">
        <ele>642.873</ele>
        <time>2022-02-27T11:09:44Z</time>
      </trkpt>
      <trkpt lat="40.42542" lon="-3.7766461">
        <ele>643.314</ele>
        <time>2022-02-27T11:09:49Z</time>
      </trkpt>
      <trkpt lat="40.425434" lon="-3.7765615">
        <ele>641.417</ele>
        <time>2022-02-27T11:09:54Z</time>
      </trkpt>
      <trkpt lat="40.42548" lon="-3.7764277">
        <ele>643.307</ele>
        <time>2022-02-27T11:10:02Z</time>
      </trkpt>
      <trkpt lat="40.425514" lon="-3.7763388">
        <ele>641.37</ele>
        <time>2022-02-27T11:10:07Z</time>
      </trkpt>
      <trkpt lat="40.425545" lon="-3.776269">
        <ele>642.865</ele>
        <time>2022-02-27T11:10:12Z</time>
      </trkpt>
      <trkpt lat="40.425583" lon="-3.776207">
        <ele>644.234</ele>
        <time>2022-02-27T11:10:17Z</time>
      </trkpt>
      <trkpt lat="40.425644" lon="-3.7761421">
        <ele>644.004</ele>
        <time>2022-02-27T11:10:22Z</time>
      </trkpt>
      <trkpt lat="40.4257" lon="-3.7760923">
        <ele>644.593</ele>
        <time>2022-02-27T11:10:27Z</time>
      </trkpt>
      <trkpt lat="40.425766" lon="-3.776011">
        <ele>646.504</ele>
        <time>2022-02-27T11:10:34Z</time>
      </trkpt>
      <trkpt lat="40.425827" lon="-3.7759614">
        <ele>646.982</ele>
        <time>2022-02-27T11:10:39Z</time>
      </trkpt>
      <trkpt lat="40.425884" lon="-3.775889">
        <ele>646.649</ele>
        <time>2022-02-27T11:10:44Z</time>
      </trkpt>
      <trkpt lat="40.42594" lon="-3.77582">
        <ele>646.982</ele>
        <time>2022-02-27T11:10:49Z</time>
      </trkpt>
      <trkpt lat="40.425995" lon="-3.7757573">
        <ele>647.402</ele>
        <time>2022-02-27T11:10:54Z</time>
      </trkpt>
      <trkpt lat="40.42604" lon="-3.7756789">
        <ele>647.323</ele>
        <time>2022-02-27T11:10:59Z</time>
      </trkpt>
      <trkpt lat="40.42609" lon="-3.775601">
        <ele>647.299</ele>
        <time>2022-02-27T11:11:04Z</time>
      </trkpt>
      <trkpt lat="40.42612" lon="-3.7755094">
        <ele>647.151</ele>
        <time>2022-02-27T11:11:09Z</time>
      </trkpt>
      <trkpt lat="40.42614" lon="-3.7754295">
        <ele>646.501</ele>
        <time>2022-02-27T11:11:14Z</time>
      </trkpt>
      <trkpt lat="40.42623" lon="-3.7753086">
        <ele>645.251</ele>
        <time>2022-02-27T11:11:24Z</time>
      </trkpt>
      <trkpt lat="40.42628" lon="-3.77524">
        <ele>644.752</ele>
        <time>2022-02-27T11:11:29Z</time>
      </trkpt>
      <trkpt lat="40.426327" lon="-3.7751818">
        <ele>644.731</ele>
        <time>2022-02-27T11:11:34Z</time>
      </trkpt>
      <trkpt lat="40.426373" lon="-3.7751186">
        <ele>643.38</ele>
        <time>2022-02-27T11:11:39Z</time>
      </trkpt>
      <trkpt lat="40.426426" lon="-3.7750573">
        <ele>641.327</ele>
        <time>2022-02-27T11:11:44Z</time>
      </trkpt>
      <trkpt lat="40.426483" lon="-3.775003">
        <ele>642.12</ele>
        <time>2022-02-27T11:11:49Z</time>
      </trkpt>
      <trkpt lat="40.42654" lon="-3.774936">
        <ele>642.58</ele>
        <time>2022-02-27T11:11:54Z</time>
      </trkpt>
      <trkpt lat="40.42658" lon="-3.7748587">
        <ele>642.26</ele>
        <time>2022-02-27T11:11:59Z</time>
      </trkpt>
      <trkpt lat="40.426617" lon="-3.774772">
        <ele>643.79</ele>
        <time>2022-02-27T11:12:04Z</time>
      </trkpt>
      <trkpt lat="40.426655" lon="-3.7746851">
        <ele>643.336</ele>
        <time>2022-02-27T11:12:09Z</time>
      </trkpt>
      <trkpt lat="40.426674" lon="-3.7745981">
        <ele>643.634</ele>
        <time>2022-02-27T11:12:14Z</time>
      </trkpt>
      <trkpt lat="40.426723" lon="-3.774541">
        <ele>643.544</ele>
        <time>2022-02-27T11:12:19Z</time>
      </trkpt>
      <trkpt lat="40.42679" lon="-3.7744627">
        <ele>643.441</ele>
        <time>2022-02-27T11:12:24Z</time>
      </trkpt>
      <trkpt lat="40.426834" lon="-3.7743864">
        <ele>644.208</ele>
        <time>2022-02-27T11:12:29Z</time>
      </trkpt>
      <trkpt lat="40.426884" lon="-3.774312">
        <ele>644.99</ele>
        <time>2022-02-27T11:12:34Z</time>
      </trkpt>
      <trkpt lat="40.42694" lon="-3.7742443">
        <ele>644.702</ele>
        <time>2022-02-27T11:12:39Z</time>
      </trkpt>
      <trkpt lat="40.427" lon="-3.7741916">
        <ele>647.043</ele>
        <time>2022-02-27T11:12:44Z</time>
      </trkpt>
      <trkpt lat="40.42705" lon="-3.7741296">
        <ele>646.892</ele>
        <time>2022-02-27T11:12:49Z</time>
      </trkpt>
      <trkpt lat="40.427097" lon="-3.774046">
        <ele>645.724</ele>
        <time>2022-02-27T11:12:54Z</time>
      </trkpt>
      <trkpt lat="40.427155" lon="-3.7739875">
        <ele>646.173</ele>
        <time>2022-02-27T11:12:59Z</time>
      </trkpt>
      <trkpt lat="40.427216" lon="-3.7739236">
        <ele>645.827</ele>
        <time>2022-02-27T11:13:04Z</time>
      </trkpt>
      <trkpt lat="40.427273" lon="-3.7738564">
        <ele>644.747</ele>
        <time>2022-02-27T11:13:09Z</time>
      </trkpt>
      <trkpt lat="40.42732" lon="-3.7737753">
        <ele>646.535</ele>
        <time>2022-02-27T11:13:14Z</time>
      </trkpt>
      <trkpt lat="40.427357" lon="-3.7737029">
        <ele>645.333</ele>
        <time>2022-02-27T11:13:19Z</time>
      </trkpt>
      <trkpt lat="40.4274" lon="-3.77362">
        <ele>646.144</ele>
        <time>2022-02-27T11:13:24Z</time>
      </trkpt>
      <trkpt lat="40.42744" lon="-3.7735302">
        <ele>646.298</ele>
        <time>2022-02-27T11:13:29Z</time>
      </trkpt>
      <trkpt lat="40.427475" lon="-3.77345">
        <ele>646.744</ele>
        <time>2022-02-27T11:13:34Z</time>
      </trkpt>
      <trkpt lat="40.427525" lon="-3.7733872">
        <ele>646.483</ele>
        <time>2022-02-27T11:13:39Z</time>
      </trkpt>
      <trkpt lat="40.427567" lon="-3.7733173">
        <ele>646.85</ele>
        <time>2022-02-27T11:13:44Z</time>
      </trkpt>
      <trkpt lat="40.427593" lon="-3.7732377">
        <ele>647.061</ele>
        <time>2022-02-27T11:13:49Z</time>
      </trkpt>
      <trkpt lat="40.42764" lon="-3.7731647">
        <ele>646.498</ele>
        <time>2022-02-27T11:13:54Z</time>
      </trkpt>
      <trkpt lat="40.427692" lon="-3.773082">
        <ele>647.386</ele>
        <time>2022-02-27T11:13:59Z</time>
      </trkpt>
      <trkpt lat="40.427746" lon="-3.7730103">
        <ele>646.01</ele>
        <time>2022-02-27T11:14:04Z</time>
      </trkpt>
      <trkpt lat="40.427834" lon="-3.7728693">
        <ele>644.72</ele>
        <time>2022-02-27T11:14:13Z</time>
      </trkpt>
      <trkpt lat="40.427868" lon="-3.7727814">
        <ele>645.312</ele>
        <time>2022-02-27T11:14:18Z</time>
      </trkpt>
      <trkpt lat="40.42792" lon="-3.772711">
        <ele>644.67</ele>
        <time>2022-02-27T11:14:23Z</time>
      </trkpt>
      <trkpt lat="40.427967" lon="-3.7726345">
        <ele>645.423</ele>
        <time>2022-02-27T11:14:28Z</time>
      </trkpt>
      <trkpt lat="40.42802" lon="-3.7725577">
        <ele>644.739</ele>
        <time>2022-02-27T11:14:33Z</time>
      </trkpt>
      <trkpt lat="40.42807" lon="-3.7724802">
        <time>2022-02-27T11:14:38Z</time>
      </trkpt>
    </trkseg>
  </trk>
</gpx>
